Provisional Data: Hammer Creek near Route 322


Please select a monitoring station.
Please select start date.
Please select start date.

Toggle Unit: C/F Toggle Unit: C/F
Sample Time Temperature (C) Temperature (F) Specific Conductivity (mS/cm) pH   Turbidity (NTU+) DO (mg/L)
10/20/2020 12:00:00 AM 13.43 56.174 0.538 8.16 6.75 9.27
10/20/2020 12:15:00 AM 13.44 56.192 0.539 8.15 6.83 9.27
10/20/2020 12:30:00 AM 13.44 56.192 0.54 8.15 6.64 9.26
10/20/2020 12:45:00 AM 13.43 56.174 0.541 8.15 6.66 9.27
10/20/2020 1:00:00 AM 13.4 56.12 0.541 8.15 6.75 9.26
10/20/2020 1:15:00 AM 13.39 56.102 0.543 8.15 6.61 9.28
10/20/2020 1:30:00 AM 13.37 56.066 0.543 8.14 6.83 9.29
10/20/2020 1:45:00 AM 13.35 56.03 0.544 8.14 6.89 9.3
10/20/2020 2:00:00 AM 13.31 55.958 0.545 8.14 6.92 9.31
10/20/2020 2:15:00 AM 13.27 55.886 0.546 8.14 6.91 9.33
10/20/2020 2:30:00 AM 13.24 55.832 0.546 8.13 6.76 9.36
10/20/2020 2:45:00 AM 13.2 55.76 0.547 8.13 6.89 9.37
10/20/2020 3:00:00 AM 13.16 55.688 0.547 8.13 6.66 9.4
10/20/2020 3:15:00 AM 13.14 55.652 0.547 8.13 6.98 9.42
10/20/2020 3:30:00 AM 13.11 55.598 0.547 8.13 6.9 9.45
10/20/2020 3:45:00 AM 13.09 55.562 0.547 8.13 7.19 9.46
10/20/2020 4:00:00 AM 13.06 55.508 0.547 8.13 7.62 9.47
10/20/2020 4:15:00 AM 13.04 55.472 0.547 8.12 6.89 9.47
10/20/2020 4:30:00 AM 13.03 55.454 0.546 8.12 7.32 9.47
10/20/2020 4:45:00 AM 13.01 55.418 0.546 8.12 7.16 9.46
10/20/2020 5:00:00 AM 13 55.4 0.546 8.12 7.02 9.48
10/20/2020 5:15:00 AM 12.99 55.382 0.546 8.12 7.22 9.49
10/20/2020 5:30:00 AM 12.99 55.382 0.545 8.12 7.3 9.51
10/20/2020 5:45:00 AM 12.98 55.364 0.545 8.12 7 9.5
10/20/2020 6:00:00 AM 12.97 55.346 0.545 8.12 7.03 9.5
10/20/2020 6:15:00 AM 12.96 55.328 0.545 8.12 7.09 9.52
10/20/2020 6:30:00 AM 12.96 55.328 0.545 8.12 7.35 9.47
10/20/2020 6:45:00 AM 12.95 55.31 0.545 8.12 7.48 9.52
10/20/2020 7:00:00 AM 12.95 55.31 0.544 8.12 6.8 9.52
10/20/2020 7:15:00 AM 12.95 55.31 0.544 8.12 6.78 9.5
10/20/2020 7:30:00 AM 12.94 55.292 0.544 8.12 7.18 9.54
10/20/2020 7:45:00 AM 12.94 55.292 0.544 8.12 6.55 9.57
10/20/2020 8:00:00 AM 12.97 55.346 0.544 8.13 6.74 9.63
10/20/2020 8:15:00 AM 13.03 55.454 0.543 8.14 6.33 9.79
10/20/2020 8:30:00 AM 13.08 55.544 0.543 8.15 6.38 9.93
10/20/2020 8:45:00 AM 13.12 55.616 0.543 8.16 6.39 10.03
10/20/2020 9:00:00 AM 13.15 55.67 0.543 8.17 6.28 10.1
10/20/2020 9:15:00 AM 13.2 55.76 0.542 8.19 6.22 10.26
10/20/2020 9:30:00 AM 13.25 55.85 0.542 8.2 6.15 10.36
10/20/2020 9:45:00 AM 13.33 55.994 0.542 8.22 6.23 10.58
10/20/2020 10:00:00 AM 13.43 56.174 0.541 8.24 6.39 10.78
10/20/2020 10:15:00 AM 13.55 56.39 0.541 8.26 6.03 11
10/20/2020 10:30:00 AM 13.6 56.48 0.541 8.28 6.01 11.06
10/20/2020 10:45:00 AM 13.62 56.516 0.541 8.28 5.98 11.09
10/20/2020 11:00:00 AM 13.76 56.768 0.54 8.3 5.92 11.24
10/20/2020 11:15:00 AM 13.84 56.912 0.539 8.32 6 11.38
10/20/2020 11:30:00 AM 13.93 57.074 0.539 8.33 5.92 11.54
10/20/2020 11:45:00 AM 14 57.2 0.538 8.35 5.77 11.62
10/20/2020 12:00:00 PM 14.14 57.452 0.538 8.36 5.79 11.74
10/20/2020 12:15:00 PM 14.25 57.65 0.537 8.37 5.69 11.81
10/20/2020 12:30:00 PM 14.36 57.848 0.535 8.39 5.62 11.87
10/20/2020 12:45:00 PM 14.62 58.316 0.536 8.41 5.7 11.99
10/20/2020 1:00:00 PM 14.76 58.568 0.535 8.42 5.63 12.02
10/20/2020 1:15:00 PM 14.94 58.892 0.535 8.42 5.67 12
10/20/2020 1:30:00 PM 15.09 59.162 0.534 8.43 5.74 12.02
10/20/2020 1:45:00 PM 15.23 59.414 0.533 8.44 5.75 12.06
10/20/2020 2:00:00 PM 15.39 59.702 0.533 8.46 5.7 12.1
10/20/2020 2:15:00 PM 15.52 59.936 0.533 8.46 5.91 12.06
10/20/2020 2:30:00 PM 15.64 60.152 0.532 8.46 5.78 12.01
10/20/2020 2:45:00 PM 15.7 60.26 0.532 8.47 5.94 11.91
10/20/2020 3:00:00 PM 15.76 60.368 0.532 8.47 5.79 11.85
10/20/2020 3:15:00 PM 15.82 60.476 0.531 8.47 6.21 11.77
10/20/2020 3:30:00 PM 15.89 60.602 0.531 8.47 5.96 11.63
10/20/2020 3:45:00 PM 15.96 60.728 0.531 8.46 5.97 11.5
10/20/2020 4:00:00 PM 16.04 60.872 0.531 8.46 6 11.38
10/20/2020 4:15:00 PM 16.13 61.034 0.53 8.46 5.73 11.28
10/20/2020 4:30:00 PM 16.17 61.106 0.531 8.45 6.17 11.06
10/20/2020 4:45:00 PM 16.22 61.196 0.531 8.44 5.86 10.86
10/20/2020 5:00:00 PM 16.22 61.196 0.531 8.43 6.13 10.65
10/20/2020 5:15:00 PM 16.24 61.232 0.531 8.41 6.1 10.43
10/20/2020 5:30:00 PM 16.24 61.232 0.532 8.4 6.31 10.23
10/20/2020 5:45:00 PM 16.26 61.268 0.532 8.39 6.11 10.06
10/20/2020 6:00:00 PM 16.24 61.232 0.533 8.37 6.23 9.85
10/20/2020 6:15:00 PM 16.22 61.196 0.533 8.34 6.23 9.63
10/20/2020 6:30:00 PM 16.18 61.124 0.535 8.32 6.75 9.46
10/20/2020 6:45:00 PM 16.15 61.07 0.535 8.3 6.75 9.3
10/20/2020 7:00:00 PM 16.12 61.016 0.536 8.28 6.61 9.17
10/20/2020 7:15:00 PM 16.09 60.962 0.536 8.26 6.67 9.04
10/20/2020 7:30:00 PM 16.08 60.944 0.537 8.25 6.48 8.92
10/20/2020 7:45:00 PM 16.06 60.908 0.537 8.23 6.46 8.81
10/20/2020 8:00:00 PM 16.05 60.89 0.538 8.22 6.86 8.75
10/20/2020 8:15:00 PM 16.04 60.872 0.538 8.2 6.88 8.69
10/20/2020 8:30:00 PM 16.04 60.872 0.538 8.19 6.94 8.58
10/20/2020 8:45:00 PM 16.03 60.854 0.538 8.18 7.88 8.58
10/20/2020 9:00:00 PM 16.02 60.836 0.538 8.17 6.84 8.55
10/20/2020 9:15:00 PM 16.01 60.818 0.539 8.17 6.95 8.51
10/20/2020 9:30:00 PM 15.99 60.782 0.539 8.16 7.76 8.45
10/20/2020 9:45:00 PM 15.96 60.728 0.539 8.15 7.01 8.45
10/20/2020 10:00:00 PM 15.93 60.674 0.539 8.15 6.83 8.42
10/20/2020 10:15:00 PM 15.88 60.584 0.539 8.14 7 8.43
10/20/2020 10:30:00 PM 15.84 60.512 0.539 8.14 6.83 8.45
10/20/2020 10:45:00 PM 15.79 60.422 0.54 8.14 6.9 8.43
10/20/2020 11:00:00 PM 15.73 60.314 0.54 8.13 6.85 8.47
10/20/2020 11:15:00 PM 15.67 60.206 0.54 8.13 6.88 8.51
10/20/2020 11:30:00 PM 15.6 60.08 0.541 8.13 6.68 8.51
10/20/2020 11:45:00 PM 15.53 59.954 0.54 8.12 7.07 8.57
10/21/2020 12:00:00 AM 15.45 59.81 0.541 8.12 7.3 8.57
10/21/2020 12:15:00 AM 15.37 59.666 0.542 8.12 7.2 8.57
10/21/2020 12:30:00 AM 15.28 59.504 0.542 8.12 7.51 8.59
10/21/2020 12:45:00 AM 15.19 59.342 0.542 8.11 7.21 8.58
10/21/2020 1:00:00 AM 15.09 59.162 0.542 8.11 7.46 8.68
10/21/2020 1:15:00 AM 14.99 58.982 0.543 8.11 7.34 8.71
10/21/2020 1:30:00 AM 14.89 58.802 0.543 8.11 7.36 8.73
10/21/2020 1:45:00 AM 14.79 58.622 0.543 8.11 7.5 8.76
10/21/2020 2:00:00 AM 14.71 58.478 0.543 8.11 7.25 8.81
10/21/2020 2:15:00 AM 14.64 58.352 0.543 8.11 7.22 8.82
10/21/2020 2:30:00 AM 14.57 58.226 0.544 8.1 6.88 8.87
10/21/2020 2:45:00 AM 14.5 58.1 0.543 8.1 7.1 8.89
10/21/2020 3:00:00 AM 14.43 57.974 0.544 8.1 7.41 8.93
10/21/2020 3:15:00 AM 14.36 57.848 0.544 8.1 7.7 8.95
10/21/2020 3:30:00 AM 14.3 57.74 0.544 8.1 7.26 8.98
10/21/2020 3:45:00 AM 14.24 57.632 0.544 8.1 7.61 9.02
10/21/2020 4:00:00 AM 14.19 57.542 0.544 8.1 7.55 9.05
10/21/2020 4:15:00 AM 14.14 57.452 0.544 8.1 7.34 9.07
10/21/2020 4:30:00 AM 14.09 57.362 0.544 8.09 7.52 9.08
10/21/2020 4:45:00 AM 14.05 57.29 0.544 8.09 8.21 9.11
10/21/2020 5:00:00 AM 14.02 57.236 0.544 8.09 7.62 9.12
10/21/2020 5:15:00 AM 13.98 57.164 0.544 8.09 7.55 9.13
10/21/2020 5:30:00 AM 13.95 57.11 0.544 8.09 7.86 9.14
10/21/2020 5:45:00 AM 13.93 57.074 0.544 8.09 7.22 9.15
10/21/2020 6:00:00 AM 13.9 57.02 0.544 8.09 7.6 9.17
10/21/2020 6:15:00 AM 13.88 56.984 0.544 8.09 7.29 9.16
10/21/2020 6:30:00 AM 13.85 56.93 0.544 8.09 7.37 9.18
10/21/2020 6:45:00 AM 13.82 56.876 0.544 8.09 6.74 9.21
10/21/2020 7:00:00 AM 13.8 56.84 0.544 8.09 7.21 9.23
10/21/2020 7:15:00 AM 13.77 56.786 0.544 8.09 7.49 9.25
10/21/2020 7:30:00 AM 13.74 56.732 0.543 8.09 6.98 9.24
10/21/2020 7:45:00 AM 13.72 56.696 0.543 8.09 7.03 9.25
10/21/2020 8:00:00 AM 13.7 56.66 0.543 8.09 6.75 9.27
10/21/2020 8:15:00 AM 13.69 56.642 0.543 8.09 6.51 9.28
10/21/2020 8:30:00 AM 13.68 56.624 0.543 8.09 6.69 9.35
10/21/2020 8:45:00 AM 13.68 56.624 0.543 8.1 6.29 9.38
10/21/2020 9:00:00 AM 13.67 56.606 0.543 8.1 6.44 9.48
10/21/2020 9:15:00 AM 13.68 56.624 0.543 8.11 6.21 9.53
10/21/2020 9:30:00 AM 13.7 56.66 0.543 8.11 6.23 9.58
10/21/2020 9:45:00 AM 13.73 56.714 0.543 8.12 6.12 9.73
10/21/2020 10:00:00 AM 13.78 56.804 0.542 8.14 11.34 9.87
10/21/2020 10:15:00 AM 13.82 56.876 0.542 8.15 6.19 10.02
10/21/2020 10:30:00 AM 13.86 56.948 0.542 8.17 6.1 10.11
10/21/2020 10:45:00 AM 13.91 57.038 0.543 8.18 6.15 10.21
10/21/2020 11:00:00 AM 13.96 57.128 0.542 8.19 6.12 10.33
10/21/2020 11:15:00 AM 14.02 57.236 0.542 8.2 6.07 10.38
10/21/2020 11:30:00 AM 14.09 57.362 0.542 8.22 5.92 10.52
10/21/2020 11:45:00 AM 14.15 57.47 0.541 8.23 5.92 10.58
10/21/2020 12:00:00 PM 14.2 57.56 0.541 8.24 6.07 10.66
10/21/2020 12:15:00 PM 14.26 57.668 0.541 8.25 6.15 10.72
10/21/2020 12:30:00 PM 14.32 57.776 0.54 8.27 5.97 10.81
10/21/2020 12:45:00 PM 14.37 57.866 0.54 8.28 5.98 10.87
10/21/2020 1:00:00 PM 14.45 58.01 0.54 8.29 5.96 10.9
10/21/2020 1:15:00 PM 14.52 58.136 0.539 8.3 7.08 10.97
10/21/2020 1:30:00 PM 14.61 58.298 0.539 8.31 6.31 11.07
10/21/2020 1:45:00 PM 14.69 58.442 0.538 8.32 6.24 11.11
10/21/2020 2:00:00 PM 14.8 58.64 0.538 8.34 5.94 11.26
10/21/2020 2:15:00 PM 14.88 58.784 0.537 8.35 6.09 11.24
10/21/2020 2:30:00 PM 14.96 58.928 0.537 8.36 6.11 11.27
10/21/2020 2:45:00 PM 15.03 59.054 0.537 8.36 6.27 11.27
10/21/2020 3:00:00 PM 15.14 59.252 0.537 8.37 6 11.3
10/21/2020 3:15:00 PM 15.29 59.522 0.536 8.38 6.23 11.38
10/21/2020 3:30:00 PM 15.42 59.756 0.536 8.38 7.28 11.35
10/21/2020 3:45:00 PM 15.56 60.008 0.535 8.38 6.66 11.33
10/21/2020 4:00:00 PM 15.63 60.134 0.535 8.38 6.52 11.2
10/21/2020 4:15:00 PM 15.62 60.116 0.536 8.37 6.5 11
10/21/2020 4:30:00 PM 15.62 60.116 0.536 8.36 6.53 10.79
10/21/2020 4:45:00 PM 15.64 60.152 0.536 8.36 6.53 10.63
10/21/2020 5:00:00 PM 15.65 60.17 0.536 8.35 6.12 10.54
10/21/2020 5:15:00 PM 15.62 60.116 0.536 8.34 6.28 10.36
10/21/2020 5:30:00 PM 15.58 60.044 0.536 8.33 6.08 10.17
10/21/2020 5:45:00 PM 15.53 59.954 0.537 8.31 6.48 10.04
10/21/2020 6:00:00 PM 15.49 59.882 0.537 8.3 6.21 9.88
10/21/2020 6:15:00 PM 15.44 59.792 0.537 8.28 6.19 9.71
10/21/2020 6:30:00 PM 15.4 59.72 0.54 8.27 6.35 9.58
10/21/2020 6:45:00 PM 15.35 59.63 0.54 8.25 6.25 9.46
10/21/2020 7:00:00 PM 15.31 59.558 0.54 8.24 7.2 9.35
10/21/2020 7:15:00 PM 15.27 59.486 0.541 8.22 6.47 9.26
10/21/2020 7:30:00 PM 15.23 59.414 0.541 8.21 6.67 9.19
10/21/2020 7:45:00 PM 15.19 59.342 0.541 8.2 6.88 9.1
10/21/2020 8:00:00 PM 15.15 59.27 0.541 8.19 6.52 9.05
10/21/2020 8:15:00 PM 15.11 59.198 0.541 8.18 6.91 9.03
10/21/2020 8:30:00 PM 15.07 59.126 0.542 8.17 6.81 9
10/21/2020 8:45:00 PM 15.03 59.054 0.542 8.16 6.92 8.96
10/21/2020 9:00:00 PM 15.01 59.018 0.542 8.15 6.66 8.93
10/21/2020 9:15:00 PM 14.98 58.964 0.541 8.14 6.85 8.92
10/21/2020 9:30:00 PM 14.96 58.928 0.542 8.14 6.78 8.89
10/21/2020 9:45:00 PM 14.95 58.91 0.542 8.13 7.06 8.86
10/21/2020 10:00:00 PM 14.94 58.892 0.542 8.12 7.36 8.85
10/21/2020 10:15:00 PM 14.92 58.856 0.542 8.12 7.04 8.83
10/21/2020 10:30:00 PM 14.9 58.82 0.542 8.11 7.59 8.82
10/21/2020 10:45:00 PM 14.88 58.784 0.542 8.11 7.15 8.8
10/21/2020 11:00:00 PM 14.87 58.766 0.542 8.1 7.54 8.8
10/21/2020 11:15:00 PM 14.85 58.73 0.542 8.1 6.8 8.79
10/21/2020 11:30:00 PM 14.84 58.712 0.542 8.1 7.22 8.77
10/21/2020 11:45:00 PM 14.83 58.694 0.542 8.09 7.27 8.77
10/22/2020 12:00:00 AM 14.81 58.658 0.543 8.09 7.37 8.79
10/22/2020 12:15:00 AM 14.8 58.64 0.543 8.09 7.08 8.8
10/22/2020 12:30:00 AM 14.78 58.604 0.543 8.09 7.31 8.8
10/22/2020 12:45:00 AM 14.76 58.568 0.543 8.09 7.61 8.81
10/22/2020 1:00:00 AM 14.74 58.532 0.543 8.09 7.54 8.84
10/22/2020 1:15:00 AM 14.71 58.478 0.544 8.09 7.73 8.86
10/22/2020 1:30:00 AM 14.69 58.442 0.544 8.09 7.65 8.86
10/22/2020 1:45:00 AM 14.66 58.388 0.544 8.08 7.25 8.88
10/22/2020 2:00:00 AM 14.63 58.334 0.545 8.08 7.63 8.87
10/22/2020 2:15:00 AM 14.6 58.28 0.545 8.08 7.8 8.89
10/22/2020 2:30:00 AM 14.56 58.208 0.545 8.08 7.25 8.89
10/22/2020 2:45:00 AM 14.53 58.154 0.545 8.07 7.78 8.91
10/22/2020 3:00:00 AM 14.49 58.082 0.545 8.07 9.59 8.92
10/22/2020 3:15:00 AM 14.46 58.028 0.546 8.07 8.14 8.94
10/22/2020 3:30:00 AM 14.43 57.974 0.545 8.07 7.13 8.96
10/22/2020 3:45:00 AM 14.39 57.902 0.545 8.07 7.06 8.99
10/22/2020 4:00:00 AM 14.36 57.848 0.545 8.07 7.57 9
10/22/2020 4:15:00 AM 14.33 57.794 0.545 8.07 8.95 9
10/22/2020 4:30:00 AM 14.29 57.722 0.545 8.06 7.91 9.03
10/22/2020 4:45:00 AM 14.26 57.668 0.545 8.06 8.3 9.06
10/22/2020 5:00:00 AM 14.23 57.614 0.545 8.06 9.1 9.07
10/22/2020 5:15:00 AM 14.21 57.578 0.545 8.06 8.75 9.07
10/22/2020 5:30:00 AM 14.18 57.524 0.545 8.06 8.06 9.1
10/22/2020 5:45:00 AM 14.16 57.488 0.545 8.06 7.83 9.1
10/22/2020 6:00:00 AM 14.13 57.434 0.545 8.06 7.65 9.11
10/22/2020 6:15:00 AM 14.1 57.38 0.545 8.05 7.85 9.13
10/22/2020 6:30:00 AM 14.08 57.344 0.545 8.05 7.58 9.12
10/22/2020 6:45:00 AM 14.05 57.29 0.545 8.05 7.43 9.14
10/22/2020 7:00:00 AM 14.03 57.254 0.545 8.05 7.75 9.15
10/22/2020 7:15:00 AM 14.01 57.218 0.545 8.04 7.71 9.15
10/22/2020 7:30:00 AM 14 57.2 0.545 8.04 7.44 9.16
10/22/2020 7:45:00 AM 13.99 57.182 0.545 8.04 6.93 9.15
10/22/2020 8:00:00 AM 13.98 57.164 0.546 8.04 6.79 9.18
10/22/2020 8:15:00 AM 13.98 57.164 0.545 8.04 6.82 9.23
10/22/2020 8:30:00 AM 13.99 57.182 0.545 8.04 6.82 9.28
10/22/2020 8:45:00 AM 14.01 57.218 0.545 8.05 6.72 9.36
10/22/2020 9:00:00 AM 14.03 57.254 0.545 8.05 6.7 9.46
10/22/2020 9:15:00 AM 14.06 57.308 0.545 8.06 6.49 9.53
10/22/2020 9:30:00 AM 14.1 57.38 0.545 8.07 6.35 9.69
10/22/2020 9:45:00 AM 14.16 57.488 0.544 8.09 6.32 9.85
10/22/2020 10:00:00 AM 14.22 57.596 0.544 8.12 6.3 10.02
10/22/2020 10:15:00 AM 14.27 57.686 0.544 8.13 6.27 10.1
10/22/2020 10:30:00 AM 14.34 57.812 0.544 8.15 6.45 10.26
10/22/2020 10:45:00 AM 14.4 57.92 0.543 8.17 6.29 10.35
10/22/2020 11:00:00 AM 14.45 58.01 0.543 8.18 6.21 10.46
10/22/2020 11:15:00 AM 14.52 58.136 0.543 8.2 6.13 10.59
10/22/2020 11:30:00 AM 14.58 58.244 0.543 8.21 6.12 10.7
10/22/2020 11:45:00 AM 14.65 58.37 0.542 8.23 6.33 10.74
10/22/2020 12:00:00 PM 14.71 58.478 0.542 8.25 6.28 10.82
10/22/2020 12:15:00 PM 14.77 58.586 0.542 8.26 6.09 10.86
10/22/2020 12:30:00 PM 14.82 58.676 0.541 8.26 6.41 10.87
10/22/2020 12:45:00 PM 14.87 58.766 0.541 8.28 6.38 10.86
10/22/2020 1:00:00 PM 14.9 58.82 0.541 8.28 6.13 10.85
10/22/2020 1:15:00 PM 14.94 58.892 0.54 8.29 6.15 10.85
10/22/2020 1:30:00 PM 14.99 58.982 0.54 8.3 6.14 10.85
10/22/2020 1:45:00 PM 15.04 59.072 0.54 8.3 6.26 10.86
10/22/2020 2:00:00 PM 15.13 59.234 0.539 8.31 6.12 10.96
10/22/2020 2:15:00 PM 15.21 59.378 0.539 8.33 6.21 11.1
10/22/2020 2:30:00 PM 15.29 59.522 0.538 8.34 6.27 11.17
10/22/2020 2:45:00 PM 15.41 59.738 0.538 8.36 6.25 11.28
10/22/2020 3:00:00 PM 15.48 59.864 0.537 8.37 6.18 11.29
10/22/2020 3:15:00 PM 15.56 60.008 0.537 8.37 6.24 11.26
10/22/2020 3:30:00 PM 15.68 60.224 0.537 8.38 6.18 11.28
10/22/2020 3:45:00 PM 15.73 60.314 0.537 8.38 6.31 11.14
10/22/2020 4:00:00 PM 15.72 60.296 0.537 8.37 6.4 11.01
10/22/2020 4:15:00 PM 15.7 60.26 0.537 8.36 6.34 10.84
10/22/2020 4:30:00 PM 15.72 60.296 0.537 8.36 6.31 10.71
10/22/2020 4:45:00 PM 15.71 60.278 0.537 8.35 6.38 10.57
10/22/2020 5:00:00 PM 15.74 60.332 0.537 8.34 6.32 10.4
10/22/2020 5:15:00 PM 15.77 60.386 0.537 8.33 6.37 10.15
10/22/2020 5:30:00 PM 15.79 60.422 0.537 8.33 6.44 10.14
10/22/2020 5:45:00 PM 15.78 60.404 0.537 8.31 6.4 9.99
10/22/2020 6:00:00 PM 15.77 60.386 0.537 8.3 6.17 9.83
10/22/2020 6:15:00 PM 15.75 60.35 0.538 8.29 6.31 9.6
10/22/2020 6:30:00 PM 15.71 60.278 0.538 8.27 6.47 9.47
10/22/2020 6:45:00 PM 15.68 60.224 0.538 8.26 6.61 9.34
10/22/2020 7:00:00 PM 15.63 60.134 0.539 8.24 7.5 9.27
10/22/2020 7:15:00 PM 15.59 60.062 0.539 8.22 7.12 9.15
10/22/2020 7:30:00 PM 15.54 59.972 0.539 8.21 6.73 9.09
10/22/2020 7:45:00 PM 15.5 59.9 0.54 8.19 6.98 9.02
10/22/2020 8:00:00 PM 15.46 59.828 0.54 8.18 7.11 8.97
10/22/2020 8:15:00 PM 15.42 59.756 0.54 8.17 7.02 8.91
10/22/2020 8:30:00 PM 15.38 59.684 0.54 8.15 7.09 8.9
10/22/2020 8:45:00 PM 15.34 59.612 0.541 8.15 6.91 8.84
10/22/2020 9:00:00 PM 15.31 59.558 0.541 8.14 7.05 8.82
10/22/2020 9:15:00 PM 15.28 59.504 0.541 8.13 7.41 8.76
10/22/2020 9:30:00 PM 15.26 59.468 0.541 8.12 7.51 8.75
10/22/2020 9:45:00 PM 15.23 59.414 0.541 8.11 7.58 8.73
10/22/2020 10:00:00 PM 15.2 59.36 0.542 8.11 7.55 8.71
10/22/2020 10:15:00 PM 15.18 59.324 0.542 8.1 7.8 8.7
10/22/2020 10:30:00 PM 15.15 59.27 0.542 8.1 7.64 8.69
10/22/2020 10:45:00 PM 15.12 59.216 0.542 8.09 7.71 8.68
10/22/2020 11:00:00 PM 15.09 59.162 0.542 8.09 7.86 8.68
10/22/2020 11:15:00 PM 15.06 59.108 0.542 8.09 7.8 8.68
10/22/2020 11:30:00 PM 15.03 59.054 0.543 8.08 7.69 8.67
10/22/2020 11:45:00 PM 14.99 58.982 0.542 8.08 7.95 8.69
10/23/2020 12:00:00 AM 14.96 58.928 0.543 8.08 8.55 8.69
10/23/2020 12:15:00 AM 14.91 58.838 0.543 8.08 8.36 8.7
10/23/2020 12:30:00 AM 14.86 58.748 0.543 8.08 8.56 8.7
10/23/2020 12:45:00 AM 14.8 58.64 0.543 8.08 8.2 8.73
10/23/2020 1:00:00 AM 14.74 58.532 0.543 8.08 8.44 8.75
10/23/2020 1:15:00 AM 14.67 58.406 0.544 8.08 8.45 8.76
10/23/2020 1:30:00 AM 14.59 58.262 0.544 8.07 8.15 8.79
10/23/2020 1:45:00 AM 14.51 58.118 0.544 8.07 7.97 8.82
10/23/2020 2:00:00 AM 14.42 57.956 0.544 8.07 8.5 8.86
10/23/2020 2:15:00 AM 14.33 57.794 0.544 8.07 7.8 8.9
10/23/2020 2:30:00 AM 14.24 57.632 0.544 8.07 8.31 8.95
10/23/2020 2:45:00 AM 14.15 57.47 0.545 8.07 8.95 8.96
10/23/2020 3:00:00 AM 14.06 57.308 0.545 8.07 8.74 9.01
10/23/2020 3:15:00 AM 13.97 57.146 0.545 8.07 8.02 9.02
10/23/2020 3:30:00 AM 13.91 57.038 0.545 8.07 8.04 9.04
10/23/2020 3:45:00 AM 13.85 56.93 0.545 8.07 7.69 9.05
10/23/2020 4:00:00 AM 13.81 56.858 0.545 8.07 7.92 9.1
10/23/2020 4:15:00 AM 13.77 56.786 0.545 8.07 8.36 9.13
10/23/2020 4:30:00 AM 13.73 56.714 0.545 8.07 8.04 9.15
10/23/2020 4:45:00 AM 13.69 56.642 0.544 8.07 8.01 9.18
10/23/2020 5:00:00 AM 13.65 56.57 0.544 8.07 8.2 9.21
10/23/2020 5:15:00 AM 13.63 56.534 0.544 8.07 8.19 9.22
10/23/2020 5:30:00 AM 13.6 56.48 0.544 8.07 7.81 9.23
10/23/2020 5:45:00 AM 13.58 56.444 0.544 8.08 8.02 9.26
10/23/2020 6:00:00 AM 13.55 56.39 0.544 8.08 8.07 9.27
10/23/2020 6:15:00 AM 13.54 56.372 0.544 8.07 8.14 9.27
10/23/2020 6:30:00 AM 13.52 56.336 0.544 8.07 8.04 9.27
10/23/2020 6:45:00 AM 13.51 56.318 0.544 8.07 7.47 9.28
10/23/2020 7:00:00 AM 13.49 56.282 0.543 8.07 7.77 9.29
10/23/2020 7:15:00 AM 13.48 56.264 0.544 8.07 7.86 9.29
10/23/2020 7:30:00 AM 13.47 56.246 0.544 8.07 7.81 9.3
10/23/2020 7:45:00 AM 13.46 56.228 0.544 8.07 6.96 9.3
10/23/2020 8:00:00 AM 13.45 56.21 0.544 8.07 7.16 9.3
10/23/2020 8:15:00 AM 13.45 56.21 0.544 8.07 7.28 9.36
10/23/2020 8:30:00 AM 13.45 56.21 0.543 8.07 7.01 9.41
10/23/2020 8:45:00 AM 13.45 56.21 0.543 8.08 7.05 9.49
10/23/2020 9:00:00 AM 13.47 56.246 0.543 8.08 7 9.58
10/23/2020 9:15:00 AM 13.5 56.3 0.543 8.1 6.91 9.77
10/23/2020 9:30:00 AM 13.55 56.39 0.543 8.11 6.95 9.92
10/23/2020 9:45:00 AM 13.59 56.462 0.543 8.13 6.79 10.04
10/23/2020 10:00:00 AM 13.65 56.57 0.543 8.14 6.65 10.14
10/23/2020 10:15:00 AM 13.71 56.678 0.542 8.16 6.57 10.26
10/23/2020 10:30:00 AM 13.78 56.804 0.542 8.18 6.43 10.4
10/23/2020 10:45:00 AM 13.86 56.948 0.542 8.2 6.48 10.54
10/23/2020 11:00:00 AM 13.9 57.02 0.541 8.21 6.4 10.63
10/23/2020 11:15:00 AM 13.98 57.164 0.541 8.23 6.52 10.75
10/23/2020 11:30:00 AM 14.08 57.344 0.541 8.25 6.35 10.92
10/23/2020 11:45:00 AM 14.19 57.542 0.54 8.27 6.46 11.05
10/23/2020 12:00:00 PM 14.3 57.74 0.54 8.29 6.39 11.19
10/23/2020 12:15:00 PM 14.42 57.956 0.539 8.31 6.44 11.33
10/23/2020 12:30:00 PM 14.56 58.208 0.539 8.33 6.25 11.45
10/23/2020 12:45:00 PM 14.76 58.568 0.538 8.35 7.1 11.54
10/23/2020 1:00:00 PM 14.87 58.766 0.537 8.36 6.48 11.66
10/23/2020 1:15:00 PM 15.05 59.09 0.537 8.37 6.47 11.69
10/23/2020 1:30:00 PM 15.29 59.522 0.536 8.38 6.48 11.7
10/23/2020 1:45:00 PM 15.43 59.774 0.536 8.39 6.45 11.7
10/23/2020 2:00:00 PM 15.6 60.08 0.535 8.4 6.45 11.66
10/23/2020 2:15:00 PM 15.75 60.35 0.535 8.41 6.56 11.68
10/23/2020 2:30:00 PM 15.82 60.476 0.534 8.41 6.39 11.67
10/23/2020 2:45:00 PM 15.92 60.656 0.534 8.42 6.44 11.63
10/23/2020 3:00:00 PM 16.04 60.872 0.534 8.43 6.6 11.6
10/23/2020 3:15:00 PM 16.15 61.07 0.533 8.43 7.66 11.48
10/23/2020 3:30:00 PM 16.24 61.232 0.533 8.43 6.41 11.28
10/23/2020 3:45:00 PM 16.23 61.214 0.533 8.42 6.57 11.15
10/23/2020 4:00:00 PM 16.25 61.25 0.533 8.41 6.67 10.99
10/23/2020 4:15:00 PM 16.31 61.358 0.533 8.41 6.82 10.89
10/23/2020 4:30:00 PM 16.37 61.466 0.533 8.41 6.56 10.75
10/23/2020 4:45:00 PM 16.37 61.466 0.533 8.39 7.12 10.54
10/23/2020 5:00:00 PM 16.32 61.376 0.534 8.38 6.77 10.28
10/23/2020 5:15:00 PM 16.28 61.304 0.535 8.36 6.73 10.06
10/23/2020 5:30:00 PM 16.24 61.232 0.535 8.35 7.02 9.92
10/23/2020 5:45:00 PM 16.21 61.178 0.535 8.33 6.98 9.77
10/23/2020 6:00:00 PM 16.17 61.106 0.536 8.32 6.73 9.62
10/23/2020 6:15:00 PM 16.13 61.034 0.536 8.3 6.65 9.46
10/23/2020 6:30:00 PM 16.09 60.962 0.537 8.28 6.68 9.28
10/23/2020 6:45:00 PM 16.06 60.908 0.537 8.26 6.96 9.1
10/23/2020 7:00:00 PM 16.02 60.836 0.538 8.25 7.14 9
10/23/2020 7:15:00 PM 15.98 60.764 0.538 8.23 7.26 8.87
10/23/2020 7:30:00 PM 15.94 60.692 0.539 8.21 7.4 8.8
10/23/2020 7:45:00 PM 15.91 60.638 0.539 8.2 7.35 8.73
10/23/2020 8:00:00 PM 15.89 60.602 0.539 8.18 7.42 8.67
10/23/2020 8:15:00 PM 15.88 60.584 0.539 8.17 7 8.63
10/23/2020 8:30:00 PM 15.86 60.548 0.539 8.16 7.26 8.55
10/23/2020 8:45:00 PM 15.86 60.548 0.54 8.15 7.3 8.51
10/23/2020 9:00:00 PM 15.88 60.584 0.539 8.15 7.67 8.48
10/23/2020 9:15:00 PM 15.87 60.566 0.539 8.14 7.63 8.46
10/23/2020 9:30:00 PM 15.86 60.548 0.54 8.13 7.31 8.4
10/23/2020 9:45:00 PM 15.84 60.512 0.54 8.13 7.9 8.4
10/23/2020 10:00:00 PM 15.81 60.458 0.54 8.12 7.55 8.4
10/23/2020 10:15:00 PM 15.8 60.44 0.54 8.12 7.45 8.43
10/23/2020 10:30:00 PM 15.79 60.422 0.54 8.12 7.51 8.42
10/23/2020 10:45:00 PM 15.78 60.404 0.541 8.12 7.49 8.42
10/23/2020 11:00:00 PM 15.76 60.368 0.541 8.11 7.6 8.42
10/23/2020 11:15:00 PM 15.73 60.314 0.541 8.11 7.51 8.42
10/23/2020 11:30:00 PM 15.7 60.26 0.541 8.11 7.43 8.44
10/23/2020 11:45:00 PM 15.66 60.188 0.542 8.11 7.88 8.45
10/24/2020 12:00:00 AM 15.63 60.134 0.542 8.11 7.8 8.49
10/24/2020 12:15:00 AM 15.6 60.08 0.542 8.1 7.47 8.47
10/24/2020 12:30:00 AM 15.57 60.026 0.542 8.1 7.96 8.51
10/24/2020 12:45:00 AM 15.53 59.954 0.542 8.1 7.67 8.53
10/24/2020 1:00:00 AM 15.49 59.882 0.542 8.1 7.95 8.53
10/24/2020 1:15:00 AM 15.44 59.792 0.542 8.1 8.24 8.55
10/24/2020 1:30:00 AM 15.39 59.702 0.542 8.1 7.78 8.55
10/24/2020 1:45:00 AM 15.34 59.612 0.542 8.1 8.16 8.57
10/24/2020 2:00:00 AM 15.29 59.522 0.542 8.1 8.05 8.58
10/24/2020 2:15:00 AM 15.25 59.45 0.543 8.1 7.82 8.6
10/24/2020 2:30:00 AM 15.21 59.378 0.542 8.09 7.84 8.61
10/24/2020 2:45:00 AM 15.16 59.288 0.543 8.1 8.09 8.63
10/24/2020 3:00:00 AM 15.12 59.216 0.542 8.09 8.03 8.63
10/24/2020 3:15:00 AM 15.05 59.09 0.543 8.1 7.95 8.66
10/24/2020 3:30:00 AM 14.98 58.964 0.542 8.1 7.71 8.68
10/24/2020 3:45:00 AM 14.91 58.838 0.542 8.1 8.03 8.71
10/24/2020 4:00:00 AM 14.85 58.73 0.542 8.1 7.75 8.72
10/24/2020 4:15:00 AM 14.8 58.64 0.542 8.1 8.58 8.75
10/24/2020 4:30:00 AM 14.75 58.55 0.542 8.1 7.9 8.77
10/24/2020 4:45:00 AM 14.72 58.496 0.542 8.1 7.86 8.79
10/24/2020 5:00:00 AM 14.68 58.424 0.542 8.1 8.56 8.79
10/24/2020 5:15:00 AM 14.65 58.37 0.542 8.1 8.13 8.8
10/24/2020 5:30:00 AM 14.61 58.298 0.542 8.09 7.67 8.81
10/24/2020 5:45:00 AM 14.59 58.262 0.542 8.09 7.94 8.81
10/24/2020 6:00:00 AM 14.56 58.208 0.542 8.1 8.69 8.83
10/24/2020 6:15:00 AM 14.54 58.172 0.542 8.1 7.95 8.84
10/24/2020 6:30:00 AM 14.52 58.136 0.542 8.1 7.85 8.84
10/24/2020 6:45:00 AM 14.51 58.118 0.543 8.1 7.84 8.85
10/24/2020 7:00:00 AM 14.49 58.082 0.543 8.09 7.72 8.85
10/24/2020 7:15:00 AM 14.48 58.064 0.543 8.09 7.82 8.86
10/24/2020 7:30:00 AM 14.47 58.046 0.543 8.09 7.83 8.87
10/24/2020 7:45:00 AM 14.47 58.046 0.543 8.09 7.5 8.87
10/24/2020 8:00:00 AM 14.47 58.046 0.542 8.1 7.43 8.91
10/24/2020 8:15:00 AM 14.47 58.046 0.542 8.1 7.86 8.94
10/24/2020 8:30:00 AM 14.47 58.046 0.542 8.1 7.4 8.98
10/24/2020 8:45:00 AM 14.47 58.046 0.542 8.11 7.14 9.05
10/24/2020 9:00:00 AM 14.48 58.064 0.542 8.12 7.08 9.15
10/24/2020 9:15:00 AM 14.49 58.082 0.542 8.12 6.88 9.22
10/24/2020 9:30:00 AM 14.53 58.154 0.542 8.14 7.4 9.39
10/24/2020 9:45:00 AM 14.58 58.244 0.542 8.16 6.86 9.62
10/24/2020 10:00:00 AM 14.64 58.352 0.541 8.18 6.93 9.87
10/24/2020 10:15:00 AM 14.72 58.496 0.543 8.2 6.9 10.06
10/24/2020 10:30:00 AM 14.86 58.748 0.542 8.22 6.77 10.34
10/24/2020 10:45:00 AM 14.89 58.802 0.542 8.24 6.78 10.45
10/24/2020 11:00:00 AM 14.94 58.892 0.542 8.25 6.65 10.52
10/24/2020 11:15:00 AM 15.02 59.036 0.541 8.27 6.77 10.65
10/24/2020 11:30:00 AM 15.05 59.09 0.541 8.28 6.65 10.68
10/24/2020 11:45:00 AM 15.12 59.216 0.541 8.29 6.68 10.78
10/24/2020 12:00:00 PM 15.27 59.486 0.54 8.31 6.56 11.04
10/24/2020 12:15:00 PM 15.32 59.576 0.54 8.33 6.57 11.11
10/24/2020 12:30:00 PM 15.35 59.63 0.54 8.34 6.72 11.06
10/24/2020 12:45:00 PM 15.36 59.648 0.54 8.33 6.61 10.9
10/24/2020 1:00:00 PM 15.34 59.612 0.54 8.33 6.62 10.68
10/24/2020 1:15:00 PM 15.33 59.594 0.54 8.32 6.63 10.51
10/24/2020 1:30:00 PM 15.36 59.648 0.54 8.33 6.55 10.59
10/24/2020 1:45:00 PM 15.4 59.72 0.54 8.34 6.47 10.7
10/24/2020 2:00:00 PM 15.44 59.792 0.539 8.35 6.67 10.83
10/24/2020 2:15:00 PM 15.48 59.864 0.539 8.36 6.56 10.88
10/24/2020 2:30:00 PM 15.52 59.936 0.538 8.37 6.63 10.98
10/24/2020 2:45:00 PM 15.56 60.008 0.538 8.38 6.78 11.08
10/24/2020 3:00:00 PM 15.54 59.972 0.538 8.38 6.76 11.05
10/24/2020 3:15:00 PM 15.55 59.99 0.538 8.39 6.81 11.02
10/24/2020 3:30:00 PM 15.53 59.954 0.538 8.38 7.13 10.91
10/24/2020 3:45:00 PM 15.49 59.882 0.538 8.38 6.84 10.86
10/24/2020 4:00:00 PM 15.47 59.846 0.538 8.38 6.83 10.84
10/24/2020 4:15:00 PM 15.43 59.774 0.539 8.37 6.9 10.69
10/24/2020 4:30:00 PM 15.41 59.738 0.538 8.37 6.82 10.58
10/24/2020 4:45:00 PM 15.38 59.684 0.538 8.36 6.83 10.52
10/24/2020 5:00:00 PM 15.34 59.612 0.538 8.36 6.6 10.44
10/24/2020 5:15:00 PM 15.31 59.558 0.538 8.36 6.65 10.35
10/24/2020 5:30:00 PM 15.25 59.45 0.539 8.35 6.76 10.21
10/24/2020 5:45:00 PM 15.19 59.342 0.539 8.33 6.83 9.98
10/24/2020 6:00:00 PM 15.12 59.216 0.54 8.31 7.01 9.79
10/24/2020 6:15:00 PM 15.05 59.09 0.54 8.29 8.92 9.61
10/24/2020 6:30:00 PM 14.98 58.964 0.541 8.28 7.28 9.46
10/24/2020 6:45:00 PM 14.9 58.82 0.542 8.26 7.3 9.33
10/24/2020 7:00:00 PM 14.84 58.712 0.542 8.25 7.07 9.25
10/24/2020 7:15:00 PM 14.77 58.586 0.542 8.23 7.2 9.14
10/24/2020 7:30:00 PM 14.7 58.46 0.543 8.22 7.15 9.09
10/24/2020 7:45:00 PM 14.62 58.316 0.543 8.21 7.11 9.05
10/24/2020 8:00:00 PM 14.55 58.19 0.543 8.21 7.27 9.01
10/24/2020 8:15:00 PM 14.46 58.028 0.543 8.2 7.05 8.99
10/24/2020 8:30:00 PM 14.38 57.884 0.543 8.19 6.95 8.97
10/24/2020 8:45:00 PM 14.29 57.722 0.543 8.18 6.9 8.96
10/24/2020 9:00:00 PM 14.19 57.542 0.543 8.18 6.85 8.95
10/24/2020 9:15:00 PM 14.11 57.398 0.544 8.18 7.09 8.97
10/24/2020 9:30:00 PM 13.98 57.164 0.544 8.17 7 8.98
10/24/2020 9:45:00 PM 13.92 57.056 0.544 8.17 7.55 8.98
10/24/2020 10:00:00 PM 13.81 56.858 0.544 8.17 7.01 9
10/24/2020 10:15:00 PM 13.69 56.642 0.544 8.17 7.13 9.03
10/24/2020 10:30:00 PM 13.57 56.426 0.544 8.16 7.04 9.08
10/24/2020 10:45:00 PM 13.46 56.228 0.544 8.16 7.23 9.1
10/24/2020 11:00:00 PM 13.36 56.048 0.544 8.16 7.28 9.13
10/24/2020 11:15:00 PM 13.25 55.85 0.544 8.16 7.38 9.16
10/24/2020 11:30:00 PM 13.13 55.634 0.544 8.16 6.99 9.18
10/24/2020 11:45:00 PM 13.04 55.472 0.544 8.16 7.25 9.21
10/25/2020 12:00:00 AM 12.95 55.31 0.544 8.16 7.58 9.25
10/25/2020 12:15:00 AM 12.86 55.148 0.545 8.16 7.26 9.3
10/25/2020 12:30:00 AM 12.76 54.968 0.544 8.16 7.27 9.33
10/25/2020 12:45:00 AM 12.67 54.806 0.545 8.16 7.39 9.36
10/25/2020 1:00:00 AM 12.58 54.644 0.545 8.16 7.33 9.39
10/25/2020 1:15:00 AM 12.48 54.464 0.545 8.16 7.4 9.42
10/25/2020 1:30:00 AM 12.38 54.284 0.545 8.16 7.5 9.44
10/25/2020 1:45:00 AM 12.27 54.086 0.546 8.16 7.29 9.48
10/25/2020 2:00:00 AM 12.16 53.888 0.546 8.16 7.66 9.52
10/25/2020 2:15:00 AM 12.05 53.69 0.546 8.15 7.65 9.55
10/25/2020 2:30:00 AM 11.95 53.51 0.547 8.15 7.69 9.59
10/25/2020 2:45:00 AM 11.85 53.33 0.547 8.15 7.42 9.62
10/25/2020 3:00:00 AM 11.72 53.096 0.547 8.15 7.6 9.66
10/25/2020 3:15:00 AM 11.62 52.916 0.548 8.15 7.72 9.7
10/25/2020 3:30:00 AM 11.53 52.754 0.548 8.15 7.85 9.74
10/25/2020 3:45:00 AM 11.43 52.574 0.548 8.15 7.57 9.78
10/25/2020 4:00:00 AM 11.32 52.376 0.548 8.15 7.42 9.81
10/25/2020 4:15:00 AM 11.23 52.214 0.548 8.15 7.5 9.84
10/25/2020 4:30:00 AM 11.14 52.052 0.548 8.15 7.2 9.87
10/25/2020 4:45:00 AM 11.05 51.89 0.548 8.16 7.36 9.92
10/25/2020 5:00:00 AM 10.96 51.728 0.548 8.16 7.56 9.97
10/25/2020 5:15:00 AM 10.86 51.548 0.548 8.16 7.29 9.99
10/25/2020 5:30:00 AM 10.78 51.404 0.548 8.16 7.54 10.02
10/25/2020 5:45:00 AM 10.7 51.26 0.549 8.16 7.32 10.05
10/25/2020 6:00:00 AM 10.62 51.116 0.549 8.16 7.52 10.07
10/25/2020 6:15:00 AM 10.55 50.99 0.549 8.16 7.51 10.1
10/25/2020 6:30:00 AM 10.49 50.882 0.549 8.16 7.83 10.12
10/25/2020 6:45:00 AM 10.42 50.756 0.549 8.16 7.31 10.17
10/25/2020 7:00:00 AM 10.36 50.648 0.549 8.16 7.49 10.2
10/25/2020 7:15:00 AM 10.3 50.54 0.549 8.16 7.18 10.2
10/25/2020 7:30:00 AM 10.27 50.486 0.549 8.16 11.38 10.24
10/25/2020 7:45:00 AM 10.24 50.432 0.549 8.17 7.19 10.27
10/25/2020 8:00:00 AM 10.21 50.378 0.549 8.17 7.04 10.31
10/25/2020 8:15:00 AM 10.19 50.342 0.549 8.17 6.85 10.36
10/25/2020 8:30:00 AM 10.16 50.288 0.549 8.18 6.74 10.41
10/25/2020 8:45:00 AM 10.14 50.252 0.549 8.18 6.54 10.51
10/25/2020 9:00:00 AM 10.15 50.27 0.548 8.2 6.66 10.64
10/25/2020 9:15:00 AM 10.16 50.288 0.548 8.21 6.5 10.77
10/25/2020 9:30:00 AM 10.17 50.306 0.548 8.22 6.5 10.89
10/25/2020 9:45:00 AM 10.19 50.342 0.548 8.23 6.39 11.04
10/25/2020 10:00:00 AM 10.23 50.414 0.547 8.24 6.15 11.22
10/25/2020 10:15:00 AM 10.28 50.504 0.547 8.27 6.15 11.43
10/25/2020 10:30:00 AM 10.32 50.576 0.547 8.28 6.16 11.54
10/25/2020 10:45:00 AM 10.35 50.63 0.546 8.3 6.08 11.68
10/25/2020 11:00:00 AM 10.39 50.702 0.546 8.31 6.09 11.79
10/25/2020 11:15:00 AM 10.48 50.864 0.545 8.33 6.21 11.99
10/25/2020 11:30:00 AM 10.53 50.954 0.545 8.34 6.08 12.12
10/25/2020 11:45:00 AM 10.55 50.99 0.544 8.36 6.07 12.17
10/25/2020 12:00:00 PM 10.6 51.08 0.544 8.37 6.05 12.26
10/25/2020 12:15:00 PM 10.67 51.206 0.543 8.39 6.08 12.39
10/25/2020 12:30:00 PM 10.73 51.314 0.542 8.4 6.06 12.51
10/25/2020 12:45:00 PM 10.82 51.476 0.542 8.42 6.01 12.62
10/25/2020 1:00:00 PM 10.87 51.566 0.541 8.43 6.05 12.66
10/25/2020 1:15:00 PM 10.92 51.656 0.541 8.44 6.03 12.67
10/25/2020 1:30:00 PM 10.94 51.692 0.541 8.45 6.2 12.65
10/25/2020 1:45:00 PM 10.95 51.71 0.541 8.45 6.14 12.65
10/25/2020 2:00:00 PM 11 51.8 0.54 8.46 6.13 12.69
10/25/2020 2:15:00 PM 11.04 51.872 0.54 8.47 6.11 12.73
10/25/2020 2:30:00 PM 11.07 51.926 0.539 8.48 6.15 12.75
10/25/2020 2:45:00 PM 11.09 51.962 0.539 8.48 6.09 12.7
10/25/2020 3:00:00 PM 11.08 51.944 0.539 8.48 6.1 12.58
10/25/2020 3:15:00 PM 11.07 51.926 0.538 8.47 6.36 12.43
10/25/2020 3:30:00 PM 11.08 51.944 0.538 8.47 6.35 12.33
10/25/2020 3:45:00 PM 11.09 51.962 0.538 8.46 6.25 12.24
10/25/2020 4:00:00 PM 11.09 51.962 0.538 8.46 6.3 12.13
10/25/2020 4:15:00 PM 11.09 51.962 0.538 8.45 6.39 12.04
10/25/2020 4:30:00 PM 11.11 51.998 0.539 8.45 6.29 11.95
10/25/2020 4:45:00 PM 11.12 52.016 0.539 8.44 6.32 11.85
10/25/2020 5:00:00 PM 11.12 52.016 0.539 8.44 6.47 11.72
10/25/2020 5:15:00 PM 11.11 51.998 0.539 8.42 6.29 11.55
10/25/2020 5:30:00 PM 11.1 51.98 0.539 8.41 6.26 11.4
10/25/2020 5:45:00 PM 11.09 51.962 0.54 8.4 6.18 11.22
10/25/2020 6:00:00 PM 11.09 51.962 0.54 8.38 6.13 11.06
10/25/2020 6:15:00 PM 11.09 51.962 0.54 8.37 6.34 10.94
10/25/2020 6:30:00 PM 11.08 51.944 0.54 8.36 6.12 10.81
10/25/2020 6:45:00 PM 11.08 51.944 0.54 8.35 6.74 10.7
10/25/2020 7:00:00 PM 11.08 51.944 0.54 8.34 6.24 10.62
10/25/2020 7:15:00 PM 11.09 51.962 0.54 8.33 6.32 10.55
10/25/2020 7:30:00 PM 11.09 51.962 0.541 8.32 6.26 10.46
10/25/2020 7:45:00 PM 11.09 51.962 0.541 8.31 6.52 10.39
10/25/2020 8:00:00 PM 11.08 51.944 0.541 8.3 6.62 10.33
10/25/2020 8:15:00 PM 11.07 51.926 0.54 8.29 6.34 10.28
10/25/2020 8:30:00 PM 11.07 51.926 0.539 8.28 6.5 10.22
10/25/2020 8:45:00 PM 11.06 51.908 0.539 8.27 6.44 10.16
10/25/2020 9:00:00 PM 11.07 51.926 0.539 8.26 6.76 10.14
10/25/2020 9:15:00 PM 11.07 51.926 0.54 8.25 6.77 10.11
10/25/2020 9:30:00 PM 11.07 51.926 0.54 8.25 6.72 10.09
10/25/2020 9:45:00 PM 11.06 51.908 0.54 8.24 6.71 10.07
10/25/2020 10:00:00 PM 11.05 51.89 0.54 8.24 6.73 10.05
10/25/2020 10:15:00 PM 11.03 51.854 0.54 8.23 6.88 10.01
10/25/2020 10:30:00 PM 11.02 51.836 0.539 8.22 6.75 10.01
10/25/2020 10:45:00 PM 11 51.8 0.539 8.22 6.99 10.02
10/25/2020 11:00:00 PM 10.98 51.764 0.539 8.21 7.02 10.01
10/25/2020 11:15:00 PM 10.95 51.71 0.539 8.21 6.96 10
10/25/2020 11:30:00 PM 10.94 51.692 0.539 8.2 6.92 10
10/25/2020 11:45:00 PM 10.92 51.656 0.54 8.2 6.92 10
10/26/2020 12:00:00 AM 10.91 51.638 0.54 8.19 7.11 10
10/26/2020 12:15:00 AM 10.88 51.584 0.54 8.19 6.8 10
10/26/2020 12:30:00 AM 10.86 51.548 0.54 8.19 7.06 10
10/26/2020 12:45:00 AM 10.83 51.494 0.54 8.18 7.06 10
10/26/2020 1:00:00 AM 10.8 51.44 0.54 8.18 6.99 10
10/26/2020 1:15:00 AM 10.77 51.386 0.539 8.17 7.68 10
10/26/2020 1:30:00 AM 10.74 51.332 0.539 8.17 7.13 10
10/26/2020 1:45:00 AM 10.72 51.296 0.54 8.17 7.76 10
10/26/2020 2:00:00 AM 10.7 51.26 0.54 8.16 7.45 10.01
10/26/2020 2:15:00 AM 10.68 51.224 0.54 8.16 7.2 10.03
10/26/2020 2:30:00 AM 10.66 51.188 0.54 8.16 7.8 10.04
10/26/2020 2:45:00 AM 10.63 51.134 0.54 8.16 7.71 10.05
10/26/2020 3:00:00 AM 10.61 51.098 0.54 8.16 7.14 10.05
10/26/2020 3:15:00 AM 10.59 51.062 0.54 8.16 7.01 10.07
10/26/2020 3:30:00 AM 10.57 51.026 0.539 8.15 7.24 10.08
10/26/2020 3:45:00 AM 10.55 50.99 0.539 8.15 7.4 10.08
10/26/2020 4:00:00 AM 10.53 50.954 0.539 8.15 7.26 10.1
10/26/2020 4:15:00 AM 10.51 50.918 0.539 8.15 7.07 10.09
10/26/2020 4:30:00 AM 10.48 50.864 0.539 8.15 7.07 10.11
10/26/2020 4:45:00 AM 10.48 50.864 0.538 8.15 7.26 10.12
10/26/2020 5:00:00 AM 10.47 50.846 0.538 8.15 7.08 10.13
10/26/2020 5:15:00 AM 10.45 50.81 0.538 8.15 6.98 10.13
10/26/2020 5:30:00 AM 10.44 50.792 0.538 8.15 6.86 10.13
10/26/2020 5:45:00 AM 10.44 50.792 0.538 8.15 6.95 10.13
10/26/2020 6:00:00 AM 10.43 50.774 0.538 8.14 7.14 10.14
10/26/2020 6:15:00 AM 10.42 50.756 0.538 8.14 7.05 10.13
10/26/2020 6:30:00 AM 10.41 50.738 0.538 8.14 7.01 10.14
10/26/2020 6:45:00 AM 10.41 50.738 0.538 8.14 7.17 10.14
10/26/2020 7:00:00 AM 10.4 50.72 0.538 8.14 7.09 10.15
10/26/2020 7:15:00 AM 10.4 50.72 0.538 8.14 7.14 10.15
10/26/2020 7:30:00 AM 10.4 50.72 0.537 8.14 7.2 10.15
10/26/2020 7:45:00 AM 10.39 50.702 0.537 8.14 7.11 10.16
10/26/2020 8:00:00 AM 10.39 50.702 0.536 8.14 7.49 10.19
10/26/2020 8:15:00 AM 10.39 50.702 0.536 8.14 11.28 10.19
10/26/2020 8:30:00 AM 10.39 50.702 0.535 8.15 7.38 10.22
10/26/2020 8:45:00 AM 10.41 50.738 0.535 8.15 6.77 10.29
10/26/2020 9:00:00 AM 10.43 50.774 0.535 8.15 6.62 10.37
10/26/2020 9:15:00 AM 10.45 50.81 0.534 8.16 6.59 10.48
10/26/2020 9:30:00 AM 10.5 50.9 0.534 8.18 6.79 10.62
10/26/2020 9:45:00 AM 10.55 50.99 0.533 8.19 6.48 10.82
10/26/2020 10:00:00 AM 10.6 51.08 0.533 8.21 6.4 10.95
10/26/2020 10:15:00 AM 10.68 51.224 0.533 8.22 6.49 11.13
10/26/2020 10:30:00 AM 10.75 51.35 0.532 8.24 6.3 11.28
10/26/2020 10:45:00 AM 10.79 51.422 0.532 8.25 6.37 11.32
10/26/2020 11:00:00 AM 10.83 51.494 0.532 8.25 6.25 11.33
10/26/2020 11:15:00 AM 10.89 51.602 0.532 8.26 6.29 11.39
10/26/2020 11:30:00 AM 10.96 51.728 0.532 8.28 6.33 11.53
10/26/2020 11:45:00 AM 11.03 51.854 0.531 8.3 6.26 11.69
10/26/2020 12:00:00 PM 11.1 51.98 0.531 8.31 6.37 11.79
10/26/2020 12:15:00 PM 11.15 52.07 0.531 8.32 6.39 11.84
10/26/2020 12:30:00 PM 11.2 52.16 0.531 8.33 6.3 11.86
10/26/2020 12:45:00 PM 11.24 52.232 0.531 8.34 6.24 11.85
10/26/2020 1:00:00 PM 11.3 52.34 0.53 8.34 6.12 11.86
10/26/2020 1:15:00 PM 11.37 52.466 0.53 8.36 6.31 11.96
10/26/2020 1:30:00 PM 11.43 52.574 0.53 8.37 6.27 12
10/26/2020 1:45:00 PM 11.5 52.7 0.529 8.38 6.53 12.07
10/26/2020 2:00:00 PM 11.56 52.808 0.529 8.39 6.32 12.1
10/26/2020 2:15:00 PM 11.6 52.88 0.529 8.39 6.33 12.02
10/26/2020 2:30:00 PM 11.64 52.952 0.529 8.39 6.36 11.94
10/26/2020 2:45:00 PM 11.67 53.006 0.529 8.38 6.37 11.83
10/26/2020 3:00:00 PM 11.7 53.06 0.528 8.38 6.48 11.68
10/26/2020 3:15:00 PM 11.74 53.132 0.528 8.37 6.46 11.58
10/26/2020 3:30:00 PM 11.79 53.222 0.527 8.37 6.49 11.57
10/26/2020 3:45:00 PM 11.83 53.294 0.527 8.37 6.57 11.53
10/26/2020 4:00:00 PM 11.86 53.348 0.526 8.37 6.63 11.43
10/26/2020 4:15:00 PM 11.9 53.42 0.526 8.36 6.55 11.32
10/26/2020 4:30:00 PM 11.92 53.456 0.526 8.36 6.52 11.2
10/26/2020 4:45:00 PM 11.95 53.51 0.526 8.34 6.47 11.05
10/26/2020 5:00:00 PM 11.97 53.546 0.526 8.33 6.45 10.91
10/26/2020 5:15:00 PM 12 53.6 0.526 8.32 7.07 10.79
10/26/2020 5:30:00 PM 12.03 53.654 0.526 8.31 6.51 10.69
10/26/2020 5:45:00 PM 12.06 53.708 0.526 8.3 6.4 10.58
10/26/2020 6:00:00 PM 12.08 53.744 0.526 8.29 6.47 10.47
10/26/2020 6:15:00 PM 12.11 53.798 0.526 8.28 6.41 10.36
10/26/2020 6:30:00 PM 12.14 53.852 0.526 8.27 6.89 10.26
10/26/2020 6:45:00 PM 12.17 53.906 0.526 8.26 6.69 10.17
10/26/2020 7:00:00 PM 12.19 53.942 0.526 8.25 6.81 10.07
10/26/2020 7:15:00 PM 12.22 53.996 0.527 8.24 7.07 9.96
10/26/2020 7:30:00 PM 12.25 54.05 0.527 8.23 6.94 9.88
10/26/2020 7:45:00 PM 12.27 54.086 0.527 8.22 6.95 9.82
10/26/2020 8:00:00 PM 12.3 54.14 0.527 8.21 7.19 9.77
10/26/2020 8:15:00 PM 12.32 54.176 0.527 8.2 7.03 9.73
10/26/2020 8:30:00 PM 12.34 54.212 0.527 8.19 6.99 9.69
10/26/2020 8:45:00 PM 12.37 54.266 0.527 8.19 7.26 9.66
10/26/2020 9:00:00 PM 12.38 54.284 0.528 8.18 7.41 9.65
10/26/2020 9:15:00 PM 12.4 54.32 0.528 8.18 6.9 9.65
10/26/2020 9:30:00 PM 12.42 54.356 0.528 8.17 7.08 9.62
10/26/2020 9:45:00 PM 12.43 54.374 0.528 8.17 7.02 9.59
10/26/2020 10:00:00 PM 12.43 54.374 0.529 8.16 6.94 9.58
10/26/2020 10:15:00 PM 12.44 54.392 0.529 8.16 6.94 9.56
10/26/2020 10:30:00 PM 12.44 54.392 0.529 8.16 7.35 9.55
10/26/2020 10:45:00 PM 12.45 54.41 0.529 8.15 6.68 9.56
10/26/2020 11:00:00 PM 12.44 54.392 0.53 8.15 6.86 9.56
10/26/2020 11:15:00 PM 12.43 54.374 0.53 8.15 7.12 9.56
10/26/2020 11:30:00 PM 12.42 54.356 0.53 8.14 6.89 9.57
10/26/2020 11:45:00 PM 12.42 54.356 0.531 8.14 6.86 9.57
10/27/2020 12:00:00 AM 12.42 54.356 0.531 8.14 6.78 9.56
10/27/2020 12:15:00 AM 12.41 54.338 0.531 8.14 6.79 9.57
10/27/2020 12:30:00 AM 12.39 54.302 0.531 8.13 6.8 9.57
10/27/2020 12:45:00 AM 12.38 54.284 0.532 8.13 6.85 9.57
10/27/2020 1:00:00 AM 12.36 54.248 0.532 8.13 7.02 9.57
10/27/2020 1:15:00 AM 12.35 54.23 0.532 8.13 6.61 9.58
10/27/2020 1:30:00 AM 12.33 54.194 0.533 8.13 6.95 9.59
10/27/2020 1:45:00 AM 12.31 54.158 0.533 8.13 6.77 9.6
10/27/2020 2:00:00 AM 12.29 54.122 0.533 8.13 6.82 9.61
10/27/2020 2:15:00 AM 12.28 54.104 0.533 8.13 6.92 9.62
10/27/2020 2:30:00 AM 12.26 54.068 0.533 8.13 6.82 9.62
10/27/2020 2:45:00 AM 12.25 54.05 0.533 8.13 6.9 9.61
10/27/2020 3:00:00 AM 12.23 54.014 0.533 8.13 6.8 9.62
10/27/2020 3:15:00 AM 12.22 53.996 0.534 8.13 7.14 9.62
10/27/2020 3:30:00 AM 12.21 53.978 0.534 8.12 7.12 9.63
10/27/2020 3:45:00 AM 12.19 53.942 0.534 8.12 7.02 9.63
10/27/2020 4:00:00 AM 12.17 53.906 0.534 8.12 7.35 9.64
10/27/2020 4:15:00 AM 12.15 53.87 0.534 8.12 7.23 9.65
10/27/2020 4:30:00 AM 12.13 53.834 0.534 8.12 6.99 9.65
10/27/2020 4:45:00 AM 12.12 53.816 0.534 8.12 7.03 9.67
10/27/2020 5:00:00 AM 12.11 53.798 0.534 8.12 7 9.67
10/27/2020 5:15:00 AM 12.1 53.78 0.534 8.13 7.2 9.67
10/27/2020 5:30:00 AM 12.09 53.762 0.534 8.13 6.93 9.67
10/27/2020 5:45:00 AM 12.07 53.726 0.534 8.13 6.89 9.67
10/27/2020 6:00:00 AM 12.06 53.708 0.534 8.13 7.01 9.69
10/27/2020 6:15:00 AM 12.05 53.69 0.534 8.13 7.01 9.69
10/27/2020 6:30:00 AM 12.05 53.69 0.534 8.13 7.3 9.69
10/27/2020 6:45:00 AM 12.04 53.672 0.535 8.13 7.12 9.7
10/27/2020 7:00:00 AM 12.03 53.654 0.535 8.13 6.94 9.7
10/27/2020 7:15:00 AM 12.02 53.636 0.535 8.13 7.03 9.71
10/27/2020 7:30:00 AM 12 53.6 0.535 8.13 6.83 9.72
10/27/2020 7:45:00 AM 11.99 53.582 0.535 8.13 6.77 9.73
10/27/2020 8:00:00 AM 11.97 53.546 0.535 8.13 6.87 9.75
10/27/2020 8:15:00 AM 11.96 53.528 0.535 8.13 6.76 9.78
10/27/2020 8:30:00 AM 11.94 53.492 0.535 8.14 6.62 9.84
10/27/2020 8:45:00 AM 11.92 53.456 0.535 8.14 6.63 9.94
10/27/2020 9:00:00 AM 11.9 53.42 0.535 8.16 6.73 10.09
10/27/2020 9:15:00 AM 11.88 53.384 0.535 8.17 6.84 10.17
10/27/2020 9:30:00 AM 11.87 53.366 0.536 8.18 6.57 10.28
10/27/2020 9:45:00 AM 11.88 53.384 0.535 8.19 6.69 10.46
10/27/2020 10:00:00 AM 11.89 53.402 0.536 8.21 6.37 10.59
10/27/2020 10:15:00 AM 11.98 53.564 0.535 8.23 6.29 10.89
10/27/2020 10:30:00 AM 12.06 53.708 0.534 8.26 6.43 11.17
10/27/2020 10:45:00 AM 12.14 53.852 0.534 8.28 6.49 11.36
10/27/2020 11:00:00 AM 12.16 53.888 0.534 8.3 8.33 11.47
10/27/2020 11:15:00 AM 12.25 54.05 0.534 8.31 6.34 11.62
10/27/2020 11:30:00 AM 12.34 54.212 0.533 8.33 6.44 11.78
10/27/2020 11:45:00 AM 12.42 54.356 0.533 8.35 6.36 11.89
10/27/2020 12:00:00 PM 12.51 54.518 0.532 8.36 6.26 11.98
10/27/2020 12:15:00 PM 12.53 54.554 0.532 8.39 6.24 12.11
10/27/2020 12:30:00 PM 12.63 54.734 0.531 8.41 6.11 12.26
10/27/2020 12:45:00 PM 12.73 54.914 0.531 8.43 6.27 12.41
10/27/2020 1:00:00 PM 12.8 55.04 0.53 8.45 6.15 12.55
10/27/2020 1:15:00 PM 12.9 55.22 0.529 8.46 6.35 12.64
10/27/2020 1:30:00 PM 12.97 55.346 0.529 8.48 6.24 12.68
10/27/2020 1:45:00 PM 13.14 55.652 0.528 8.5 6.18 12.79
10/27/2020 2:00:00 PM 13.36 56.048 0.527 8.51 6.15 12.83
10/27/2020 2:15:00 PM 13.37 56.066 0.527 8.52 6.22 12.77
10/27/2020 2:30:00 PM 13.41 56.138 0.526 8.52 6.24 12.72
10/27/2020 2:45:00 PM 13.48 56.264 0.526 8.53 6.38 12.72
10/27/2020 3:00:00 PM 13.53 56.354 0.526 8.54 6.44 12.68
10/27/2020 3:15:00 PM 13.59 56.462 0.525 8.54 6.51 12.64
10/27/2020 3:30:00 PM 13.59 56.462 0.525 8.54 6.49 12.53
10/27/2020 3:45:00 PM 13.58 56.444 0.525 8.53 6.51 12.31
10/27/2020 4:00:00 PM 13.55 56.39 0.526 8.52 7.32 12.07
10/27/2020 4:15:00 PM 13.56 56.408 0.526 8.51 6.62 11.93
10/27/2020 4:30:00 PM 13.54 56.372 0.526 8.5 6.61 11.75
10/27/2020 4:45:00 PM 13.52 56.336 0.527 8.49 6.83 11.53
10/27/2020 5:00:00 PM 13.49 56.282 0.527 8.47 6.71 11.34
10/27/2020 5:15:00 PM 13.46 56.228 0.528 8.46 6.67 11.19
10/27/2020 5:30:00 PM 13.43 56.174 0.529 8.45 6.67 10.97
10/27/2020 5:45:00 PM 13.4 56.12 0.529 8.43 6.57 10.76
10/27/2020 6:00:00 PM 13.38 56.084 0.53 8.41 6.46 10.55
10/27/2020 6:15:00 PM 13.35 56.03 0.53 8.39 6.55 10.38
10/27/2020 6:30:00 PM 13.34 56.012 0.531 8.37 6.5 10.22
10/27/2020 6:45:00 PM 13.33 55.994 0.531 8.35 6.56 10.09
10/27/2020 7:00:00 PM 13.34 56.012 0.532 8.34 6.51 9.97
10/27/2020 7:15:00 PM 13.35 56.03 0.532 8.32 6.62 9.84
10/27/2020 7:30:00 PM 13.36 56.048 0.533 8.31 6.65 9.74
10/27/2020 7:45:00 PM 13.38 56.084 0.533 8.29 6.6 9.65
10/27/2020 8:00:00 PM 13.39 56.102 0.534 8.28 6.66 9.57
10/27/2020 8:15:00 PM 13.4 56.12 0.534 8.27 6.87 9.38
10/27/2020 8:30:00 PM 13.41 56.138 0.535 8.26 7.01 9.34
10/27/2020 8:45:00 PM 13.41 56.138 0.535 8.25 6.96 9.39
10/27/2020 9:00:00 PM 13.42 56.156 0.535 8.24 7.23 9.37
10/27/2020 9:15:00 PM 13.42 56.156 0.536 8.23 7.11 9.32
10/27/2020 9:30:00 PM 13.42 56.156 0.536 8.22 7.29 9.3
10/27/2020 9:45:00 PM 13.42 56.156 0.536 8.21 7.18 9.28
10/27/2020 10:00:00 PM 13.42 56.156 0.537 8.21 7.31 9.27
10/27/2020 10:15:00 PM 13.41 56.138 0.537 8.2 7.37 9.26
10/27/2020 10:30:00 PM 13.39 56.102 0.537 8.19 7.44 9.24
10/27/2020 10:45:00 PM 13.38 56.084 0.538 8.19 7.42 9.24
10/27/2020 11:00:00 PM 13.36 56.048 0.538 8.18 7.29 9.24
10/27/2020 11:15:00 PM 13.33 55.994 0.538 8.18 7.43 9.24
10/27/2020 11:30:00 PM 13.3 55.94 0.539 8.17 7.56 9.24
10/27/2020 11:45:00 PM 13.26 55.868 0.539 8.17 7.38 9.26
10/28/2020 12:00:00 AM 13.22 55.796 0.54 8.17 7.21 9.27
10/28/2020 12:15:00 AM 13.18 55.724 0.54 8.16 7.32 9.27
10/28/2020 12:30:00 AM 13.13 55.634 0.54 8.16 7.29 9.29
10/28/2020 12:45:00 AM 13.08 55.544 0.541 8.16 7.39 9.3
10/28/2020 1:00:00 AM 13.03 55.454 0.541 8.15 7.11 9.31
10/28/2020 1:15:00 AM 12.98 55.364 0.541 8.15 7.21 9.31
10/28/2020 1:30:00 AM 12.93 55.274 0.541 8.15 7.1 9.32
10/28/2020 1:45:00 AM 12.88 55.184 0.542 8.14 7.38 9.34
10/28/2020 2:00:00 AM 12.84 55.112 0.541 8.14 7.31 9.35
10/28/2020 2:15:00 AM 12.79 55.022 0.542 8.14 7.68 9.35
10/28/2020 2:30:00 AM 12.75 54.95 0.542 8.14 7.48 9.36
10/28/2020 2:45:00 AM 12.71 54.878 0.542 8.14 7.38 9.38
10/28/2020 3:00:00 AM 12.66 54.788 0.542 8.14 7.65 9.41
10/28/2020 3:15:00 AM 12.62 54.716 0.542 8.13 7.41 9.42
10/28/2020 3:30:00 AM 12.58 54.644 0.541 8.13 7.42 9.43
10/28/2020 3:45:00 AM 12.55 54.59 0.541 8.13 7.36 9.44
10/28/2020 4:00:00 AM 12.51 54.518 0.541 8.13 7.59 9.45
10/28/2020 4:15:00 AM 12.48 54.464 0.542 8.13 7.75 9.46
10/28/2020 4:30:00 AM 12.45 54.41 0.541 8.13 7.63 9.47
10/28/2020 4:45:00 AM 12.41 54.338 0.541 8.13 7.63 9.48
10/28/2020 5:00:00 AM 12.38 54.284 0.541 8.13 7.36 9.48
10/28/2020 5:15:00 AM 12.36 54.248 0.541 8.13 7.1 9.5
10/28/2020 5:30:00 AM 12.33 54.194 0.541 8.13 7.36 9.5
10/28/2020 5:45:00 AM 12.3 54.14 0.54 8.13 7.36 9.51
10/28/2020 6:00:00 AM 12.28 54.104 0.54 8.13 7.74 9.52
10/28/2020 6:15:00 AM 12.26 54.068 0.54 8.13 7.41 9.53
10/28/2020 6:30:00 AM 12.24 54.032 0.54 8.13 7.52 9.53
10/28/2020 6:45:00 AM 12.22 53.996 0.54 8.13 7.51 9.54
10/28/2020 7:00:00 AM 12.2 53.96 0.54 8.13 7.35 9.55
10/28/2020 7:15:00 AM 12.18 53.924 0.54 8.13 7.39 9.54
10/28/2020 7:30:00 AM 12.16 53.888 0.54 8.12 7.48 9.54
10/28/2020 7:45:00 AM 12.14 53.852 0.54 8.13 7.23 9.56
10/28/2020 8:00:00 AM 12.13 53.834 0.539 8.13 8.41 9.57
10/28/2020 8:15:00 AM 12.12 53.816 0.539 8.13 7.1 9.59
10/28/2020 8:30:00 AM 12.1 53.78 0.539 8.13 7.08 9.6
10/28/2020 8:45:00 AM 12.1 53.78 0.539 8.13 7.02 9.65
10/28/2020 9:00:00 AM 12.11 53.798 0.539 8.14 7 9.74
10/28/2020 9:15:00 AM 12.13 53.834 0.538 8.15 7.75 9.93
10/28/2020 9:30:00 AM 12.13 53.834 0.538 8.16 6.9 10.01
10/28/2020 9:45:00 AM 12.14 53.852 0.538 8.17 6.87 10.12
10/28/2020 10:00:00 AM 12.16 53.888 0.537 8.18 9.1 10.22
10/28/2020 10:15:00 AM 12.18 53.924 0.537 8.19 6.86 10.34
10/28/2020 10:30:00 AM 12.19 53.942 0.537 8.19 6.82 10.38
10/28/2020 10:45:00 AM 12.21 53.978 0.537 8.2 6.83 10.44
10/28/2020 11:00:00 AM 12.22 53.996 0.536 8.21 6.77 10.53
10/28/2020 11:15:00 AM 12.23 54.014 0.536 8.22 6.8 10.58
10/28/2020 11:30:00 AM 12.25 54.05 0.536 8.23 6.76 10.63
10/28/2020 11:45:00 AM 12.26 54.068 0.536 8.24 6.74 10.68
10/28/2020 12:00:00 PM 12.28 54.104 0.536 8.25 6.86 10.76
10/28/2020 12:15:00 PM 12.34 54.212 0.535 8.27 6.73 10.99
10/28/2020 12:30:00 PM 12.37 54.266 0.535 8.28 6.94 11.12
10/28/2020 12:45:00 PM 12.4 54.32 0.535 8.3 13.15 11.16
10/28/2020 1:00:00 PM 12.43 54.374 0.534 8.3 6.82 11.2
10/28/2020 1:15:00 PM 12.45 54.41 0.534 8.31 6.75 11.24
10/28/2020 1:30:00 PM 12.47 54.446 0.534 8.32 6.9 11.23
10/28/2020 1:45:00 PM 12.48 54.464 0.534 8.32 6.72 11.2
10/28/2020 2:00:00 PM 12.49 54.482 0.533 8.32 6.55 11.15
10/28/2020 2:15:00 PM 12.51 54.518 0.533 8.32 6.65 11.14
10/28/2020 2:30:00 PM 12.52 54.536 0.533 8.32 6.75 11.1
10/28/2020 2:45:00 PM 12.53 54.554 0.533 8.32 6.95 11
10/28/2020 3:00:00 PM 12.53 54.554 0.533 8.31 6.99 10.89
10/28/2020 3:15:00 PM 12.54 54.572 0.533 8.31 6.81 10.82
10/28/2020 3:30:00 PM 12.55 54.59 0.533 8.31 9.19 10.72
10/28/2020 3:45:00 PM 12.56 54.608 0.533 8.3 6.96 10.65
10/28/2020 4:00:00 PM 12.56 54.608 0.533 8.29 7.03 10.58
10/28/2020 4:15:00 PM 12.57 54.626 0.533 8.29 6.92 10.49
10/28/2020 4:30:00 PM 12.58 54.644 0.533 8.28 7.06 10.42
10/28/2020 4:45:00 PM 12.58 54.644 0.533 8.27 7.04 10.31
10/28/2020 5:00:00 PM 12.59 54.662 0.534 8.27 6.92 10.25
10/28/2020 5:15:00 PM 12.6 54.68 0.534 8.26 7.01 10.2
10/28/2020 5:30:00 PM 12.61 54.698 0.534 8.26 7 10.12
10/28/2020 5:45:00 PM 12.61 54.698 0.534 8.25 7.58 10.06
10/28/2020 6:00:00 PM 12.61 54.698 0.534 8.24 7.15 10
10/28/2020 6:15:00 PM 12.61 54.698 0.535 8.23 6.96 9.93
10/28/2020 6:30:00 PM 12.62 54.716 0.534 8.22 16.1 9.89
10/28/2020 6:45:00 PM 12.61 54.698 0.534 8.22 7.83 9.83
10/28/2020 7:00:00 PM 12.6 54.68 0.535 8.21 9.85 9.79
10/28/2020 7:15:00 PM 12.59 54.662 0.535 8.2 8.02 9.76
10/28/2020 7:30:00 PM 12.59 54.662 0.535 8.2 8.7 9.71
10/28/2020 7:45:00 PM 12.59 54.662 0.535 8.19 8.38 9.69
10/28/2020 8:00:00 PM 12.59 54.662 0.535 8.19 8.04 9.66
10/28/2020 8:15:00 PM 12.6 54.68 0.535 8.18 10.51 9.63
10/28/2020 8:30:00 PM 12.6 54.68 0.535 8.18 12.7 9.61
10/28/2020 8:45:00 PM 12.6 54.68 0.535 8.17 8.35 9.58
10/28/2020 9:00:00 PM 12.59 54.662 0.535 8.17 8.47 9.57
10/28/2020 9:15:00 PM 12.59 54.662 0.535 8.16 8.43 9.55
10/28/2020 9:30:00 PM 12.57 54.626 0.535 8.16 8.39 9.54
10/28/2020 9:45:00 PM 12.55 54.59 0.536 8.16 8.42 9.54
10/28/2020 10:00:00 PM 12.53 54.554 0.536 8.16 8.44 9.54
10/28/2020 10:15:00 PM 12.51 54.518 0.536 8.15 8.18 9.55
10/28/2020 10:30:00 PM 12.49 54.482 0.536 8.15 8.39 9.55
10/28/2020 10:45:00 PM 12.46 54.428 0.536 8.15 8.43 9.55
10/28/2020 11:00:00 PM 12.44 54.392 0.536 8.15 8.34 9.56
10/28/2020 11:15:00 PM 12.42 54.356 0.536 8.14 8.39 9.57
10/28/2020 11:30:00 PM 12.39 54.302 0.536 8.14 8.28 9.57
10/28/2020 11:45:00 PM 12.37 54.266 0.536 8.14 8.31 9.57
10/29/2020 12:00:00 AM 12.34 54.212 0.536 8.14 8.01 9.58
10/29/2020 12:15:00 AM 12.32 54.176 0.536 8.14 8.22 9.59
10/29/2020 12:30:00 AM 12.3 54.14 0.536 8.14 8.25 9.6
10/29/2020 12:45:00 AM 12.27 54.086 0.536 8.14 9.81 9.61
10/29/2020 1:00:00 AM 12.25 54.05 0.536 8.14 8.32 9.61
10/29/2020 1:15:00 AM 12.22 53.996 0.536 8.14 8.24 9.61
10/29/2020 1:30:00 AM 12.2 53.96 0.536 8.14 11.85 9.61
10/29/2020 1:45:00 AM 12.18 53.924 0.536 8.13 8.17 9.62
10/29/2020 2:00:00 AM 12.16 53.888 0.536 8.13 8.59 9.62
10/29/2020 2:15:00 AM 12.13 53.834 0.536 8.13 8.35 9.63
10/29/2020 2:30:00 AM 12.11 53.798 0.536 8.13 7.81 9.63
10/29/2020 2:45:00 AM 12.1 53.78 0.536 8.13 8.15 9.64
10/29/2020 3:00:00 AM 12.08 53.744 0.536 8.13 8.06 9.64
10/29/2020 3:15:00 AM 12.07 53.726 0.536 8.13 8.23 9.65
10/29/2020 3:30:00 AM 12.06 53.708 0.536 8.13 8.15 9.65
10/29/2020 3:45:00 AM 12.05 53.69 0.536 8.13 8.08 9.66
10/29/2020 4:00:00 AM 12.04 53.672 0.536 8.13 8.14 9.66
10/29/2020 4:15:00 AM 12.03 53.654 0.536 8.13 8.02 9.67
10/29/2020 4:30:00 AM 12.02 53.636 0.535 8.13 7.87 9.68
10/29/2020 4:45:00 AM 12.01 53.618 0.535 8.13 8.27 9.68
10/29/2020 5:00:00 AM 12 53.6 0.535 8.13 8.6 9.68
10/29/2020 5:15:00 AM 12 53.6 0.535 8.13 8 9.68
10/29/2020 5:30:00 AM 11.99 53.582 0.535 8.13 7.91 9.69
10/29/2020 5:45:00 AM 11.99 53.582 0.535 8.13 7.92 9.69
10/29/2020 6:00:00 AM 11.98 53.564 0.534 8.13 8.14 9.69
10/29/2020 6:15:00 AM 11.97 53.546 0.534 8.13 8.32 9.69
10/29/2020 6:30:00 AM 11.95 53.51 0.533 8.13 8.37 9.69
10/29/2020 6:45:00 AM 11.94 53.492 0.533 8.13 8.47 9.69
10/29/2020 7:00:00 AM 11.92 53.456 0.532 8.13 7.93 9.7
10/29/2020 7:15:00 AM 11.91 53.438 0.531 8.13 9.09 9.69
10/29/2020 7:30:00 AM 11.89 53.402 0.532 8.13 12.84 9.67
10/29/2020 7:45:00 AM 11.87 53.366 0.531 8.13 13.08 9.69
10/29/2020 8:00:00 AM 11.85 53.33 0.53 8.13 9.99 9.71
10/29/2020 8:15:00 AM 11.83 53.294 0.529 8.13 7.05 9.73
10/29/2020 8:30:00 AM 11.81 53.258 0.529 8.14 8.03 9.75
10/29/2020 8:45:00 AM 11.78 53.204 0.527 8.14 6.97 9.77
10/29/2020 9:00:00 AM 11.75 53.15 0.524 8.14 6.99 9.8
10/29/2020 9:15:00 AM 11.71 53.078 0.52 8.15 7.07 9.87
10/29/2020 9:30:00 AM 11.69 53.042 0.519 8.15 7.25 9.9
10/29/2020 9:45:00 AM 11.68 53.024 0.517 8.15 7.3 9.96
10/29/2020 10:00:00 AM 11.66 52.988 0.515 8.15 7.25 10
10/29/2020 10:15:00 AM 11.63 52.934 0.513 8.15 7.25 10.01
10/29/2020 10:30:00 AM 11.6 52.88 0.508 8.16 7.75 10.05
10/29/2020 10:45:00 AM 11.6 52.88 0.506 8.16 16.93 10.11
10/29/2020 11:00:00 AM 11.59 52.862 0.503 8.16 7.83 10.13
10/29/2020 11:15:00 AM 11.58 52.844 0.501 8.15 8.1 10.13
10/29/2020 11:30:00 AM 11.57 52.826 0.499 8.16 8.02 10.17
10/29/2020 11:45:00 AM 11.57 52.826 0.497 8.16 9.99 10.19
10/29/2020 12:00:00 PM 11.57 52.826 0.495 8.15 9.21 10.23
10/29/2020 12:15:00 PM 11.58 52.844 0.494 8.15 11.13 10.24
10/29/2020 12:30:00 PM 11.57 52.826 0.493 8.14 13.48 10.15
10/29/2020 12:45:00 PM 11.57 52.826 0.491 8.14 10.69 10.14
10/29/2020 1:00:00 PM 11.57 52.826 0.49 8.13 11.7 10.16
10/29/2020 1:15:00 PM 11.57 52.826 0.489 8.12 15.41 10.07
10/29/2020 1:30:00 PM 11.57 52.826 0.488 8.12 14.02 10.11
10/29/2020 1:45:00 PM 11.56 52.808 0.487 8.12 13.98 10.12
10/29/2020 2:00:00 PM 11.56 52.808 0.485 8.11 12.98 10.1
10/29/2020 2:15:00 PM 11.56 52.808 0.483 8.11 13.12 10.08
10/29/2020 2:30:00 PM 11.55 52.79 0.48 8.1 15.06 10.06
10/29/2020 2:45:00 PM 11.55 52.79 0.474 8.09 18.61 10.03
10/29/2020 3:00:00 PM 11.54 52.772 0.466 8.07 253.36 9.96
10/29/2020 3:15:00 PM 11.53 52.754 0.458 8.05 33.8 9.88
10/29/2020 3:30:00 PM 11.52 52.736 0.451 8.04 164.11 9.78
10/29/2020 3:45:00 PM 11.51 52.718 0.445 8.02 30.53 9.72
10/29/2020 4:00:00 PM 11.51 52.718 0.44 8 48.91 9.61
10/29/2020 4:15:00 PM 11.49 52.682 0.437 7.99 33.45 9.53
10/29/2020 4:30:00 PM 11.48 52.664 0.436 7.98 43.02 9.51
10/29/2020 4:45:00 PM 11.47 52.646 0.437 7.98 32.81 9.49
10/29/2020 5:00:00 PM 11.45 52.61 0.438 7.98 33.84 9.48
10/29/2020 5:15:00 PM 11.43 52.574 0.442 7.98 27.77 9.51
10/29/2020 5:30:00 PM 11.42 52.556 0.444 7.98 155.28 9.52
10/29/2020 5:45:00 PM 11.4 52.52 0.445 7.98 69.08 9.55
10/29/2020 6:00:00 PM 11.38 52.484 0.445 7.98 179.83 9.57
10/29/2020 6:15:00 PM 11.37 52.466 0.442 7.98 25.02 9.53
10/29/2020 6:30:00 PM 11.37 52.466 0.438 7.97 25.16 9.54
10/29/2020 6:45:00 PM 11.36 52.448 0.432 7.97 27.79 9.52
10/29/2020 7:00:00 PM 11.34 52.412 0.425 7.97 27.61 9.53
10/29/2020 7:15:00 PM 11.33 52.394 0.418 7.96 25.93 9.48
10/29/2020 7:30:00 PM 11.32 52.376 0.412 7.95 23.61 9.48
10/29/2020 7:45:00 PM 11.31 52.358 0.407 7.95 24.85 9.48
10/29/2020 8:00:00 PM 11.3 52.34 0.403 7.94 23.53 9.48
10/29/2020 8:15:00 PM 11.29 52.322 0.4 7.94 23.53 9.5
10/29/2020 8:30:00 PM 11.28 52.304 0.398 7.94 23.18 9.52
10/29/2020 8:45:00 PM 11.27 52.286 0.396 7.93 23.35 9.51
10/29/2020 9:00:00 PM 11.25 52.25 0.393 7.93 22.83 9.54
10/29/2020 9:15:00 PM 11.23 52.214 0.39 7.93 22.74 9.59
10/29/2020 9:30:00 PM 11.2 52.16 0.387 7.92 22.45 9.55
10/29/2020 9:45:00 PM 11.18 52.124 0.384 7.92 107.46 9.57
10/29/2020 10:00:00 PM 11.16 52.088 0.382 7.92 24.03 9.57
10/29/2020 10:15:00 PM 11.14 52.052 0.381 7.92 76.94 9.61
10/29/2020 10:30:00 PM 11.12 52.016 0.381 7.92 23.89 9.6
10/29/2020 10:45:00 PM 11.1 51.98 0.381 7.92 46.78 9.62
10/29/2020 11:00:00 PM 11.08 51.944 0.381 7.91 39.18 9.64
10/29/2020 11:15:00 PM 11.06 51.908 0.382 7.91 22.69 9.63
10/29/2020 11:30:00 PM 11.05 51.89 0.383 7.91 23.26 9.64
10/29/2020 11:45:00 PM 11.04 51.872 0.384 7.91 22.83 9.63
10/30/2020 12:00:00 AM 11.03 51.854 0.386 7.91 20.76 9.62
10/30/2020 12:15:00 AM 11.01 51.818 0.388 7.91 24.68 9.59
10/30/2020 12:30:00 AM 11 51.8 0.389 7.91 21.65 9.63
10/30/2020 12:45:00 AM 10.99 51.782 0.391 7.91 20.08 9.58
10/30/2020 1:00:00 AM 10.97 51.746 0.393 7.92 27.16 9.64
10/30/2020 1:15:00 AM 10.96 51.728 0.395 7.92 18.24 9.61
10/30/2020 1:30:00 AM 10.95 51.71 0.397 7.92 20.62 9.64
10/30/2020 1:45:00 AM 10.93 51.674 0.398 7.92 19.72 9.6
10/30/2020 2:00:00 AM 10.92 51.656 0.4 7.92 52.42 9.66
10/30/2020 2:15:00 AM 10.9 51.62 0.402 7.93 19.67 9.65
10/30/2020 2:30:00 AM 10.89 51.602 0.403 7.93 17.98 9.62
10/30/2020 2:45:00 AM 10.87 51.566 0.405 7.93 30.81 9.62
10/30/2020 3:00:00 AM 10.85 51.53 0.407 7.93 19.02 9.67
10/30/2020 3:15:00 AM 10.83 51.494 0.408 7.94 17.32 9.69
10/30/2020 3:30:00 AM 10.81 51.458 0.409 7.94 17.46 9.7
10/30/2020 3:45:00 AM 10.79 51.422 0.41 7.94 17.28 9.73
10/30/2020 4:00:00 AM 10.77 51.386 0.41 7.95 17.79 9.74
10/30/2020 4:15:00 AM 10.75 51.35 0.411 7.95 17.13 9.77
10/30/2020 4:30:00 AM 10.73 51.314 0.412 7.95 18.16 9.77
10/30/2020 4:45:00 AM 10.69 51.242 0.411 7.96 16.76 9.8
10/30/2020 5:00:00 AM 10.66 51.188 0.411 7.96 16.27 9.82
10/30/2020 5:15:00 AM 10.65 51.17 0.411 7.96 16.38 9.84
10/30/2020 5:30:00 AM 10.63 51.134 0.412 7.96 17.47 9.84
10/30/2020 5:45:00 AM 10.62 51.116 0.412 7.96 15.11 9.86
10/30/2020 6:00:00 AM 10.6 51.08 0.412 7.96 15.97 9.88
10/30/2020 6:15:00 AM 10.57 51.026 0.412 7.96 23.21 9.87
10/30/2020 6:30:00 AM 10.54 50.972 0.412 7.97 15.68 9.87
10/30/2020 6:45:00 AM 10.52 50.936 0.413 7.97 15.88 9.87
10/30/2020 7:00:00 AM 10.49 50.882 0.413 7.96 14.91 9.86
10/30/2020 7:15:00 AM 10.47 50.846 0.413 7.96 15.78 9.9
10/30/2020 7:30:00 AM 10.45 50.81 0.415 7.96 16.52 9.94
10/30/2020 7:45:00 AM 10.42 50.756 0.418 7.96 52.33 9.94
10/30/2020 8:00:00 AM 10.4 50.72 0.419 7.96 44.67 10
10/30/2020 8:15:00 AM 10.37 50.666 0.42 7.96 35.47 10.02
10/30/2020 8:30:00 AM 10.34 50.612 0.422 7.97 19.45 10.05
10/30/2020 8:45:00 AM 10.31 50.558 0.423 7.97 22.4 10.09
10/30/2020 9:00:00 AM 10.28 50.504 0.425 7.97 23.21 10.12
10/30/2020 9:15:00 AM 10.26 50.468 0.426 7.98 28.29 10.19
10/30/2020 9:30:00 AM 10.25 50.45 0.428 7.98 22.58 10.26
10/30/2020 9:45:00 AM 10.23 50.414 0.429 7.99 16.95 10.31
10/30/2020 10:00:00 AM 10.22 50.396 0.429 8 62.74 10.32
10/30/2020 10:15:00 AM 10.23 50.414 0.43 8 97.02 10.4
10/30/2020 10:30:00 AM 10.26 50.468 0.429 8.01 118.07 10.54
10/30/2020 10:45:00 AM 10.29 50.522 0.429 8.02 53.24 10.64
10/30/2020 11:00:00 AM 10.3 50.54 0.428 8.03 13.98 10.71
10/30/2020 11:15:00 AM 10.34 50.612 0.428 8.04 21.12 10.79
10/30/2020 11:30:00 AM 10.37 50.666 0.427 8.05 20.55 10.86
10/30/2020 11:45:00 AM 10.38 50.684 0.426 8.05 19.87 10.89
10/30/2020 12:00:00 PM 10.38 50.684 0.427 8.06 18.25 10.91
10/30/2020 12:15:00 PM 10.4 50.72 0.428 8.06 19.48 10.94
10/30/2020 12:30:00 PM 10.45 50.81 0.429 8.07 19.27 11.01
10/30/2020 12:45:00 PM 10.51 50.918 0.43 8.07 34 11.06
10/30/2020 1:00:00 PM 10.54 50.972 0.432 8.09 16.42 11.09
10/30/2020 1:15:00 PM 10.6 51.08 0.433 8.09 16.03 11.1
10/30/2020 1:30:00 PM 10.62 51.116 0.435 8.1 15.27 11.1
10/30/2020 1:45:00 PM 10.66 51.188 0.437 8.11 15.02 11.17
10/30/2020 2:00:00 PM 10.76 51.368 0.438 8.12 14.65 11.2
10/30/2020 2:15:00 PM 10.8 51.44 0.439 8.13 14.18 11.26
10/30/2020 2:30:00 PM 10.8 51.44 0.439 8.14 13.31 11.28
10/30/2020 2:45:00 PM 10.83 51.494 0.439 8.14 12.87 11.26
10/30/2020 3:00:00 PM 10.87 51.566 0.438 8.15 13.29 11.27
10/30/2020 3:15:00 PM 10.88 51.584 0.437 8.15 12.74 11.23
10/30/2020 3:30:00 PM 10.88 51.584 0.435 8.15 12.74 11.13
10/30/2020 3:45:00 PM 10.91 51.638 0.434 8.15 13.12 11.14
10/30/2020 4:00:00 PM 10.94 51.692 0.433 8.16 13.02 11.15
10/30/2020 4:15:00 PM 10.94 51.692 0.432 8.15 12.4 11.09
10/30/2020 4:30:00 PM 10.93 51.674 0.431 8.15 12.69 11.02
10/30/2020 4:45:00 PM 10.94 51.692 0.431 8.15 12.92 10.95
10/30/2020 5:00:00 PM 10.95 51.71 0.43 8.14 12.77 10.89
10/30/2020 5:15:00 PM 10.96 51.728 0.43 8.14 12.77 10.81
10/30/2020 5:30:00 PM 10.96 51.728 0.429 8.13 13.36 10.71
10/30/2020 5:45:00 PM 10.97 51.746 0.429 8.12 12.67 10.64
10/30/2020 6:00:00 PM 10.96 51.728 0.428 8.11 12.49 10.56
10/30/2020 6:15:00 PM 10.92 51.656 0.428 8.11 12.54 10.49
10/30/2020 6:30:00 PM 10.88 51.584 0.427 8.1 12.27 10.42
10/30/2020 6:45:00 PM 10.85 51.53 0.427 8.09 12.6 10.36
10/30/2020 7:00:00 PM 10.84 51.512 0.427 8.09 14.23 10.33
10/30/2020 7:15:00 PM 10.81 51.458 0.427 8.08 12.85 10.3
10/30/2020 7:30:00 PM 10.76 51.368 0.428 8.08 12.88 10.26
10/30/2020 7:45:00 PM 10.7 51.26 0.428 8.07 12.87 10.25
10/30/2020 8:00:00 PM 10.63 51.134 0.429 8.07 12.37 10.24
10/30/2020 8:15:00 PM 10.55 50.99 0.43 8.07 12.35 10.24
10/30/2020 8:30:00 PM 10.47 50.846 0.431 8.07 12.93 10.26
10/30/2020 8:45:00 PM 10.41 50.738 0.432 8.06 13.17 10.25
10/30/2020 9:00:00 PM 10.35 50.63 0.433 8.06 13.09 10.25
10/30/2020 9:15:00 PM 10.28 50.504 0.435 8.06 12.49 10.27
10/30/2020 9:30:00 PM 10.21 50.378 0.436 8.06 12.32 10.29
10/30/2020 9:45:00 PM 10.14 50.252 0.437 8.06 12.38 10.28
10/30/2020 10:00:00 PM 10.07 50.126 0.439 8.06 12.81 10.27
10/30/2020 10:15:00 PM 10 50 0.44 8.06 12.57 10.31
10/30/2020 10:30:00 PM 9.92 49.856 0.442 8.06 12.68 10.36
10/30/2020 10:45:00 PM 9.83 49.694 0.443 8.06 12.79 10.36
10/30/2020 11:00:00 PM 9.76 49.568 0.445 8.06 12.57 10.39
10/30/2020 11:15:00 PM 9.68 49.424 0.447 8.06 12.33 10.41
10/30/2020 11:30:00 PM 9.59 49.262 0.448 8.06 12.56 10.44
10/30/2020 11:45:00 PM 9.52 49.136 0.45 8.06 12.44 10.47
10/31/2020 12:00:00 AM 9.45 49.01 0.452 8.06 12.1 10.48
10/31/2020 12:15:00 AM 9.39 48.902 0.453 8.06 12.44 10.49
10/31/2020 12:30:00 AM 9.33 48.794 0.455 8.06 11.99 10.53
10/31/2020 12:45:00 AM 9.29 48.722 0.457 8.07 12.39 10.55
10/31/2020 1:00:00 AM 9.24 48.632 0.458 8.07 12.29 10.57
10/31/2020 1:15:00 AM 9.19 48.542 0.46 8.07 12.77 10.57
10/31/2020 1:30:00 AM 9.15 48.47 0.461 8.07 12.06 10.63
10/31/2020 1:45:00 AM 9.1 48.38 0.463 8.07 11.89 10.66
10/31/2020 2:00:00 AM 9.06 48.308 0.464 8.07 12.76 10.69
10/31/2020 2:15:00 AM 9.03 48.254 0.466 8.07 12.41 10.71
10/31/2020 2:30:00 AM 9.01 48.218 0.467 8.08 11.73 10.73
10/31/2020 2:45:00 AM 8.98 48.164 0.469 8.08 12.27 10.75
10/31/2020 3:00:00 AM 8.95 48.11 0.47 8.08 11.62 10.77
10/31/2020 3:15:00 AM 8.92 48.056 0.472 8.08 11.2 10.77
10/31/2020 3:30:00 AM 8.89 48.002 0.473 8.08 11.69 10.78
10/31/2020 3:45:00 AM 8.87 47.966 0.474 8.08 11.31 10.79
10/31/2020 4:00:00 AM 8.85 47.93 0.476 8.09 11.56 10.8
10/31/2020 4:15:00 AM 8.82 47.876 0.477 8.09 12.04 10.83
10/31/2020 4:30:00 AM 8.79 47.822 0.478 8.09 11.39 10.84
10/31/2020 4:45:00 AM 8.76 47.768 0.48 8.09 11.34 10.85
10/31/2020 5:00:00 AM 8.7 47.66 0.481 8.09 11.63 10.88
10/31/2020 5:15:00 AM 8.65 47.57 0.481 8.1 11.38 10.89
10/31/2020 5:30:00 AM 8.61 47.498 0.482 8.1 11.34 10.91
10/31/2020 5:45:00 AM 8.56 47.408 0.483 8.1 11.35 10.93
10/31/2020 6:00:00 AM 8.51 47.318 0.485 8.1 11.31 10.96
10/31/2020 6:15:00 AM 8.45 47.21 0.486 8.1 10.91 10.97
10/31/2020 6:30:00 AM 8.4 47.12 0.487 8.11 11.42 10.98
10/31/2020 6:45:00 AM 8.36 47.048 0.488 8.11 11.22 10.99
10/31/2020 7:00:00 AM 8.31 46.958 0.488 8.11 11.35 11
10/31/2020 7:15:00 AM 8.27 46.886 0.489 8.11 21.61 11
10/31/2020 7:30:00 AM 8.22 46.796 0.492 8.12 10.62 11.03
10/31/2020 7:45:00 AM 8.17 46.706 0.493 8.11 10.37 11.04
10/31/2020 8:00:00 AM 8.15 46.67 0.494 8.12 9.83 11.1
10/31/2020 8:15:00 AM 8.15 46.67 0.495 8.13 9.83 11.15
10/31/2020 8:30:00 AM 8.15 46.67 0.495 8.12 9.35 11.19
10/31/2020 8:45:00 AM 8.15 46.67 0.496 8.12 9.59 11.26
10/31/2020 9:00:00 AM 8.15 46.67 0.497 8.13 9.12 11.33
10/31/2020 9:15:00 AM 8.17 46.706 0.498 8.14 9.02 11.4
10/31/2020 9:30:00 AM 8.19 46.742 0.498 8.16 9.09 11.47
10/31/2020 9:45:00 AM 8.23 46.814 0.499 8.17 9.11 11.59
10/31/2020 10:00:00 AM 8.28 46.904 0.499 8.19 8.79 11.71
10/31/2020 10:15:00 AM 8.33 46.994 0.5 8.2 8.62 11.8
10/31/2020 10:30:00 AM 8.36 47.048 0.5 8.21 8.79 11.88
10/31/2020 10:45:00 AM 8.41 47.138 0.5 8.22 8.69 11.97
10/31/2020 11:00:00 AM 8.47 47.246 0.501 8.24 8.68 12.08
10/31/2020 11:15:00 AM 8.54 47.372 0.501 8.26 8.5 12.2
10/31/2020 11:30:00 AM 8.6 47.48 0.501 8.27 8.52 12.29
10/31/2020 11:45:00 AM 8.67 47.606 0.502 8.29 8.49 12.39
10/31/2020 12:00:00 PM 8.74 47.732 0.502 8.3 8.41 12.45
10/31/2020 12:15:00 PM 8.79 47.822 0.502 8.31 8.42 12.49
10/31/2020 12:30:00 PM 8.85 47.93 0.503 8.32 8.44 12.54
10/31/2020 12:45:00 PM 8.9 48.02 0.503 8.34 8.25 12.62
10/31/2020 1:00:00 PM 8.96 48.128 0.503 8.35 8.41 12.66
10/31/2020 1:15:00 PM 9 48.2 0.503 8.36 8.48 12.7
10/31/2020 1:30:00 PM 9.05 48.29 0.504 8.36 8.49 12.73
10/31/2020 1:45:00 PM 9.08 48.344 0.504 8.37 8.88 12.74
10/31/2020 2:00:00 PM 9.12 48.416 0.504 8.38 9.18 12.75
10/31/2020 2:15:00 PM 9.17 48.506 0.508 8.39 9.03 12.74
10/31/2020 2:30:00 PM 9.22 48.596 0.509 8.39 9.08 12.73
10/31/2020 2:45:00 PM 9.26 48.668 0.509 8.4 9.23 12.71
10/31/2020 3:00:00 PM 9.32 48.776 0.509 8.4 8.88 12.73
10/31/2020 3:15:00 PM 9.39 48.902 0.509 8.41 8.88 12.74
10/31/2020 3:30:00 PM 9.43 48.974 0.509 8.42 8.81 12.71
10/31/2020 3:45:00 PM 9.46 49.028 0.509 8.42 8.68 12.64
10/31/2020 4:00:00 PM 9.48 49.064 0.51 8.42 8.51 12.55
10/31/2020 4:15:00 PM 9.51 49.118 0.51 8.42 8.56 12.5
10/31/2020 4:30:00 PM 9.55 49.19 0.51 8.42 8.6 12.42
10/31/2020 4:45:00 PM 9.56 49.208 0.511 8.41 8.48 12.34
10/31/2020 5:00:00 PM 9.57 49.226 0.511 8.41 8.49 12.21
10/31/2020 5:15:00 PM 9.59 49.262 0.511 8.4 8.47 12.07
10/31/2020 5:30:00 PM 9.57 49.226 0.512 8.4 8.46 11.96
10/31/2020 5:45:00 PM 9.57 49.226 0.512 8.38 8.56 11.77
10/31/2020 6:00:00 PM 9.55 49.19 0.513 8.37 8.7 11.65
10/31/2020 6:15:00 PM 9.55 49.19 0.513 8.36 8.66 11.51
10/31/2020 6:30:00 PM 9.54 49.172 0.515 8.34 8.47 11.39
10/31/2020 6:45:00 PM 9.53 49.154 0.515 8.33 8.49 11.27
10/31/2020 7:00:00 PM 9.52 49.136 0.516 8.32 8.56 11.16
10/31/2020 7:15:00 PM 9.51 49.118 0.517 8.31 8.77 11.09
10/31/2020 7:30:00 PM 9.5 49.1 0.517 8.3 9.05 11.07
10/31/2020 7:45:00 PM 9.49 49.082 0.518 8.29 8.91 11.05
10/31/2020 8:00:00 PM 9.47 49.046 0.518 8.28 8.86 10.98
10/31/2020 8:15:00 PM 9.46 49.028 0.519 8.27 9.2 10.94
10/31/2020 8:30:00 PM 9.44 48.992 0.519 8.26 9.06 10.92
10/31/2020 8:45:00 PM 9.43 48.974 0.52 8.25 9.15 10.88
10/31/2020 9:00:00 PM 9.41 48.938 0.52 8.25 9.14 10.85
10/31/2020 9:15:00 PM 9.39 48.902 0.521 8.24 9.6 10.84
10/31/2020 9:30:00 PM 9.37 48.866 0.521 8.24 9.48 10.83
10/31/2020 9:45:00 PM 9.34 48.812 0.521 8.23 9.36 10.83
10/31/2020 10:00:00 PM 9.3 48.74 0.522 8.23 9.29 10.82
10/31/2020 10:15:00 PM 9.25 48.65 0.522 8.22 9.18 10.83
10/31/2020 10:30:00 PM 9.21 48.578 0.522 8.22 9.62 10.82
10/31/2020 10:45:00 PM 9.16 48.488 0.523 8.22 9.48 10.82
10/31/2020 11:00:00 PM 9.1 48.38 0.523 8.21 9.63 10.84
10/31/2020 11:15:00 PM 9.03 48.254 0.523 8.21 9.6 10.83
10/31/2020 11:30:00 PM 8.97 48.146 0.523 8.21 9.5 10.85
10/31/2020 11:45:00 PM 8.9 48.02 0.524 8.21 9.56 10.85
11/1/2020 12:00:00 AM 8.83 47.894 0.524 8.2 9.46 10.85
11/1/2020 12:15:00 AM 8.78 47.804 0.524 8.2 9.47 10.89
11/1/2020 12:30:00 AM 8.73 47.714 0.525 8.2 9.39 10.91
11/1/2020 12:45:00 AM 8.69 47.642 0.525 8.2 9.65 10.92
11/1/2020 1:00:00 AM 8.66 47.588 0.525 8.2 9.49 10.93
11/1/2020 1:15:00 AM 8.62 47.516 0.525 8.19 9.43 10.94
11/1/2020 1:30:00 AM 8.59 47.462 0.526 8.19 9.3 10.96
11/1/2020 1:45:00 AM 8.57 47.426 0.526 8.19 9.45 10.98
11/1/2020 2:00:00 AM 8.55 47.39 0.526 8.19 9.64 10.98
11/1/2020 2:15:00 AM 8.53 47.354 0.526 8.19 9.43 10.99
11/1/2020 2:30:00 AM 8.52 47.336 0.527 8.19 9.45 11.01
11/1/2020 2:45:00 AM 8.51 47.318 0.527 8.19 9.58 11.01
11/1/2020 3:00:00 AM 8.5 47.3 0.527 8.19 9.37 11.02
11/1/2020 3:15:00 AM 8.49 47.282 0.527 8.19 9.42 11.04
11/1/2020 3:30:00 AM 8.48 47.264 0.527 8.19 9.76 11.04
11/1/2020 3:45:00 AM 8.47 47.246 0.527 8.18 9.43 11.04
11/1/2020 4:00:00 AM 8.46 47.228 0.527 8.18 9.63 11.05
11/1/2020 4:15:00 AM 8.45 47.21 0.527 8.18 9.63 11.06
11/1/2020 4:30:00 AM 8.44 47.192 0.527 8.18 9.46 11.06
11/1/2020 4:45:00 AM 8.43 47.174 0.527 8.18 9.79 11.06
11/1/2020 5:00:00 AM 8.42 47.156 0.527 8.18 10.29 11.05
11/1/2020 5:15:00 AM 8.41 47.138 0.527 8.18 10.47 11.06
11/1/2020 5:30:00 AM 8.41 47.138 0.527 8.18 9.75 11.07
11/1/2020 5:45:00 AM 8.41 47.138 0.527 8.18 10.13 11.07
11/1/2020 6:00:00 AM 8.41 47.138 0.527 8.18 12.14 11.07
11/1/2020 6:15:00 AM 8.41 47.138 0.527 8.18 9.52 11.07
11/1/2020 6:30:00 AM 8.41 47.138 0.528 8.18 9.71 11.07
11/1/2020 6:45:00 AM 8.41 47.138 0.528 8.18 10.25 11.06
11/1/2020 7:00:00 AM 8.42 47.156 0.528 8.18 9.5 11.06
11/1/2020 7:15:00 AM 8.43 47.174 0.528 8.18 9.42 11.06
11/1/2020 7:30:00 AM 8.43 47.174 0.528 8.18 9.62 11.05
11/1/2020 7:45:00 AM 8.44 47.192 0.528 8.18 9.4 11.05
11/1/2020 8:00:00 AM 8.45 47.21 0.529 8.18 10.98 11.07
11/1/2020 8:15:00 AM 8.46 47.228 0.528 8.17 35.55 11.08
11/1/2020 8:30:00 AM 8.48 47.264 0.528 8.19 8.84 11.15
11/1/2020 8:45:00 AM 8.5 47.3 0.529 8.2 8.69 11.23
11/1/2020 9:00:00 AM 8.54 47.372 0.529 8.21 8.54 11.3
11/1/2020 9:15:00 AM 8.59 47.462 0.529 8.22 8.34 11.39
11/1/2020 9:30:00 AM 8.63 47.534 0.529 8.23 8.41 11.44
11/1/2020 9:45:00 AM 8.7 47.66 0.528 8.24 8.33 11.56
11/1/2020 10:00:00 AM 8.77 47.786 0.528 8.26 8.26 11.66
11/1/2020 10:15:00 AM 9.04 48.272 0.528 8.29 8.3 11.74
11/1/2020 10:30:00 AM 9.09 48.362 0.527 8.29 8.2 11.7
11/1/2020 10:45:00 AM 9.13 48.434 0.527 8.29 8.17 11.62
11/1/2020 11:00:00 AM 9.17 48.506 0.526 8.29 8.23 11.56
11/1/2020 11:15:00 AM 9.22 48.596 0.525 8.29 8.23 11.5
11/1/2020 11:30:00 AM 9.27 48.686 0.523 8.28 8.16 11.45
11/1/2020 11:45:00 AM 9.31 48.758 0.521 8.28 8.42 11.4
11/1/2020 12:00:00 PM 9.36 48.848 0.517 8.28 8.33 11.36
11/1/2020 12:15:00 PM 9.4 48.92 0.514 8.28 8.64 11.31
11/1/2020 12:30:00 PM 9.45 49.01 0.513 8.28 8.87 11.26
11/1/2020 12:45:00 PM 9.5 49.1 0.51 8.27 8.98 11.21
11/1/2020 1:00:00 PM 9.55 49.19 0.507 8.26 9.38 11.17
11/1/2020 1:15:00 PM 9.61 49.298 0.505 8.26 9.59 11.18
11/1/2020 1:30:00 PM 9.67 49.406 0.503 8.25 9.97 11.14
11/1/2020 1:45:00 PM 9.74 49.532 0.502 8.25 9.83 11.14
11/1/2020 2:00:00 PM 9.79 49.622 0.501 8.24 10.36 11.11
11/1/2020 2:15:00 PM 9.85 49.73 0.501 8.23 10.18 11.04
11/1/2020 2:30:00 PM 9.91 49.838 0.499 8.23 10.63 10.98
11/1/2020 2:45:00 PM 9.99 49.982 0.498 8.23 10.66 10.96
11/1/2020 3:00:00 PM 10.06 50.108 0.498 8.22 10.84 10.89
11/1/2020 3:15:00 PM 10.16 50.288 0.498 8.22 12.16 10.81
11/1/2020 3:30:00 PM 10.26 50.468 0.497 8.21 12.03 10.74
11/1/2020 3:45:00 PM 10.34 50.612 0.497 8.21 12.95 10.69
11/1/2020 4:00:00 PM 10.43 50.774 0.493 8.2 13.05 10.63
11/1/2020 4:15:00 PM 10.5 50.9 0.491 8.19 13.05 10.57
11/1/2020 4:30:00 PM 10.54 50.972 0.489 8.19 15.21 10.52
11/1/2020 4:45:00 PM 10.58 51.044 0.487 8.18 13.05 10.46
11/1/2020 5:00:00 PM 10.6 51.08 0.481 8.16 15.75 10.42
11/1/2020 5:15:00 PM 10.61 51.098 0.474 8.15 19.34 10.37
11/1/2020 5:30:00 PM 10.62 51.116 0.464 8.13 26.14 10.3
11/1/2020 5:45:00 PM 10.61 51.098 0.454 8.11 26.18 10.23
11/1/2020 6:00:00 PM 10.62 51.116 0.446 8.08 31.16 10.13
11/1/2020 6:15:00 PM 10.6 51.08 0.441 8.07 32.56 10.07
11/1/2020 6:30:00 PM 10.58 51.044 0.438 8.05 33.81 9.98
11/1/2020 6:45:00 PM 10.57 51.026 0.439 8.04 33.26 9.92
11/1/2020 7:00:00 PM 10.56 51.008 0.442 8.04 32.91 9.93
11/1/2020 7:15:00 PM 10.53 50.954 0.446 8.04 30.29 9.93
11/1/2020 7:30:00 PM 10.52 50.936 0.45 8.04 29.34 9.9
11/1/2020 7:45:00 PM 10.49 50.882 0.453 8.04 28.57 9.93
11/1/2020 8:00:00 PM 10.43 50.774 0.454 8.04 26.38 9.98
11/1/2020 8:15:00 PM 10.36 50.648 0.453 8.04 26.74 10.02
11/1/2020 8:30:00 PM 10.29 50.522 0.45 8.03 28.81 10.01
11/1/2020 8:45:00 PM 10.2 50.36 0.446 8.03 30.07 10.02
11/1/2020 9:00:00 PM 10.12 50.216 0.44 8.02 24.21 10.02
11/1/2020 9:15:00 PM 10.04 50.072 0.433 8.02 28.63 10.04
11/1/2020 9:30:00 PM 9.96 49.928 0.428 8.01 28.59 10.04
11/1/2020 9:45:00 PM 9.86 49.748 0.423 8.01 25.56 10.04
11/1/2020 10:00:00 PM 9.76 49.568 0.419 8 27.63 10.05
11/1/2020 10:15:00 PM 9.65 49.37 0.416 8 25.18 10.02
11/1/2020 10:30:00 PM 9.56 49.208 0.415 8 26.58 10.08
11/1/2020 10:45:00 PM 9.46 49.028 0.414 7.99 22.81 10.13
11/1/2020 11:00:00 PM 9.36 48.848 0.413 7.99 25.14 10.21
11/1/2020 11:15:00 PM 9.25 48.65 0.412 8 24.05 10.27
11/1/2020 11:30:00 PM 9.14 48.452 0.41 7.99 23.79 10.31
11/1/2020 11:45:00 PM 9.02 48.236 0.408 7.99 23.52 10.35
11/2/2020 12:00:00 AM 8.92 48.056 0.406 7.99 21.77 10.37
11/2/2020 12:15:00 AM 8.82 47.876 0.404 7.99 19.97 10.4
11/2/2020 12:30:00 AM 8.75 47.75 0.403 7.99 21.36 10.41
11/2/2020 12:45:00 AM 8.65 47.57 0.402 7.99 21.77 10.48
11/2/2020 1:00:00 AM 8.58 47.444 0.402 8 20.99 10.51
11/2/2020 1:15:00 AM 8.49 47.282 0.403 8 22.08 10.56
11/2/2020 1:30:00 AM 8.39 47.102 0.403 8 20.19 10.58
11/2/2020 1:45:00 AM 8.31 46.958 0.403 8 19.88 10.65
11/2/2020 2:00:00 AM 8.22 46.796 0.404 8 19.85 10.65
11/2/2020 2:15:00 AM 8.17 46.706 0.405 8 20.11 10.68
11/2/2020 2:30:00 AM 8.11 46.598 0.406 8 19.12 10.72
11/2/2020 2:45:00 AM 8.06 46.508 0.408 8.01 18.14 10.75
11/2/2020 3:00:00 AM 7.98 46.364 0.409 8.01 17.93 10.78
11/2/2020 3:15:00 AM 7.91 46.238 0.411 8.01 17.96 10.82
11/2/2020 3:30:00 AM 7.84 46.112 0.412 8.02 17.47 10.84
11/2/2020 3:45:00 AM 7.77 45.986 0.414 8.02 17.64 10.89
11/2/2020 4:00:00 AM 7.72 45.896 0.415 8.02 17.12 10.91
11/2/2020 4:15:00 AM 7.66 45.788 0.417 8.02 16.66 10.93
11/2/2020 4:30:00 AM 7.6 45.68 0.419 8.03 16.86 10.95
11/2/2020 4:45:00 AM 7.55 45.59 0.421 8.03 16.44 10.97
11/2/2020 5:00:00 AM 7.49 45.482 0.422 8.03 16.78 10.99
11/2/2020 5:15:00 AM 7.43 45.374 0.424 8.04 16.98 11.03
11/2/2020 5:30:00 AM 7.38 45.284 0.426 8.04 16.85 11.06
11/2/2020 5:45:00 AM 7.3 45.14 0.428 8.04 16.23 11.09
11/2/2020 6:00:00 AM 7.25 45.05 0.43 8.05 16.62 11.11
11/2/2020 6:15:00 AM 7.19 44.942 0.432 8.05 16.52 11.13
11/2/2020 6:30:00 AM 7.16 44.888 0.435 8.05 18.7 11.14
11/2/2020 6:45:00 AM 7.12 44.816 0.438 8.05 16.74 11.18
11/2/2020 7:00:00 AM 7.1 44.78 0.44 8.06 14.98 11.21
11/2/2020 7:15:00 AM 7.08 44.744 0.443 8.06 16.32 11.24
11/2/2020 7:30:00 AM 7.05 44.69 0.445 8.07 14.33 11.31
11/2/2020 7:45:00 AM 7.06 44.708 0.447 8.08 15.42 11.38
11/2/2020 8:00:00 AM 7.07 44.726 0.448 8.09 14.1 11.47
11/2/2020 8:15:00 AM 7.05 44.69 0.45 8.1 15.94 11.56
11/2/2020 8:30:00 AM 7 44.6 0.453 8.11 13.72 11.59
11/2/2020 8:45:00 AM 6.98 44.564 0.455 8.12 117.81 11.65
11/2/2020 9:00:00 AM 6.99 44.582 0.456 8.13 12.79 11.78
11/2/2020 9:15:00 AM 6.98 44.564 0.459 8.14 12.77 11.82
11/2/2020 9:30:00 AM 7.04 44.672 0.46 8.16 12.52 11.98
11/2/2020 9:45:00 AM 7.12 44.816 0.462 8.17 12.3 12.09
11/2/2020 10:00:00 AM 7.18 44.924 0.463 8.19 12.93 12.26
11/2/2020 10:15:00 AM 7.22 44.996 0.465 8.21 14.69 12.35
11/2/2020 10:30:00 AM 7.28 45.104 0.466 8.22 12.66 12.41
11/2/2020 10:45:00 AM 7.32 45.176 0.468 8.23 16.7 12.47
11/2/2020 11:00:00 AM 7.41 45.338 0.47 8.24 12.05 12.52
11/2/2020 11:15:00 AM 7.51 45.518 0.47 8.26 12.02 12.59
11/2/2020 11:30:00 AM 7.59 45.662 0.472 8.27 16.63 12.63
11/2/2020 11:45:00 AM 7.7 45.86 0.473 8.28 11.7 12.69
11/2/2020 12:00:00 PM 7.81 46.058 0.475 8.29 12.07 12.73
11/2/2020 12:15:00 PM 7.94 46.292 0.476 8.3 11.52 12.75
11/2/2020 12:30:00 PM 8.05 46.49 0.477 8.31 11.87 12.77
11/2/2020 12:45:00 PM 8.18 46.724 0.479 8.32 17.21 12.78
11/2/2020 1:00:00 PM 8.29 46.922 0.48 8.33 15.13 12.79
11/2/2020 1:15:00 PM 8.42 47.156 0.481 8.34 11.79 12.79
11/2/2020 1:30:00 PM 8.54 47.372 0.482 8.35 11.4 12.8
11/2/2020 1:45:00 PM 8.62 47.516 0.483 8.36 12.49 12.79
11/2/2020 2:00:00 PM 8.69 47.642 0.485 8.37 11.62 12.75
11/2/2020 2:15:00 PM 8.8 47.84 0.485 8.38 11.76 12.71
11/2/2020 2:30:00 PM 8.89 48.002 0.486 8.38 11.37 12.65
11/2/2020 2:45:00 PM 8.94 48.092 0.486 8.39 11.46 12.61
11/2/2020 3:00:00 PM 8.93 48.074 0.487 8.39 11.65 12.53
11/2/2020 3:15:00 PM 8.93 48.074 0.488 8.39 11.98 12.43
11/2/2020 3:30:00 PM 8.9 48.02 0.489 8.38 11.4 12.33
11/2/2020 3:45:00 PM 8.84 47.912 0.49 8.38 11.32 12.21
11/2/2020 4:00:00 PM 8.77 47.786 0.491 8.37 14.28 12.11
11/2/2020 4:15:00 PM 8.7 47.66 0.493 8.36 11.12 12
11/2/2020 4:30:00 PM 8.65 47.57 0.494 8.35 11.25 11.9
11/2/2020 4:45:00 PM 8.6 47.48 0.495 8.34 11.27 11.8
11/2/2020 5:00:00 PM 8.55 47.39 0.496 8.33 11.57 11.7
11/2/2020 5:15:00 PM 8.5 47.3 0.497 8.32 12.26 11.57
11/2/2020 5:30:00 PM 8.46 47.228 0.498 8.31 11.45 11.47
11/2/2020 5:45:00 PM 8.43 47.174 0.499 8.29 10.96 11.39
11/2/2020 6:00:00 PM 8.4 47.12 0.5 8.28 11.5 11.28
11/2/2020 6:15:00 PM 8.38 47.084 0.501 8.27 11.64 11.23
11/2/2020 6:30:00 PM 8.37 47.066 0.502 8.26 128.07 11.18
11/2/2020 6:45:00 PM 8.35 47.03 0.503 8.26 11.66 11.12
11/2/2020 7:00:00 PM 8.32 46.976 0.504 8.25 11.7 11.07
11/2/2020 7:15:00 PM 8.29 46.922 0.504 8.24 12.5 11.04
11/2/2020 7:30:00 PM 8.26 46.868 0.505 8.24 11.85 11.03
11/2/2020 7:45:00 PM 8.23 46.814 0.506 8.23 11.8 11.01
11/2/2020 8:00:00 PM 8.18 46.724 0.507 8.23 11.78 11.02
11/2/2020 8:15:00 PM 8.11 46.598 0.508 8.22 11.62 11.03
11/2/2020 8:30:00 PM 8.05 46.49 0.508 8.22 11.58 11.06
11/2/2020 8:45:00 PM 7.97 46.346 0.509 8.22 11.72 11.07
11/2/2020 9:00:00 PM 7.9 46.22 0.51 8.21 12.02 11.07
11/2/2020 9:15:00 PM 7.83 46.094 0.511 8.21 11.86 11.1
11/2/2020 9:30:00 PM 7.76 45.968 0.511 8.21 11.35 11.1
11/2/2020 9:45:00 PM 7.69 45.842 0.512 8.2 12.01 11.1
11/2/2020 10:00:00 PM 7.61 45.698 0.512 8.2 13.28 11.13
11/2/2020 10:15:00 PM 7.53 45.554 0.513 8.2 11.86 11.15
11/2/2020 10:30:00 PM 7.46 45.428 0.513 8.2 17.75 11.17
11/2/2020 10:45:00 PM 7.38 45.284 0.514 8.2 163.6 11.17
11/2/2020 11:00:00 PM 7.31 45.158 0.514 8.19 12.28 11.22
11/2/2020 11:15:00 PM 7.22 44.996 0.515 8.19 11.88 11.25
11/2/2020 11:30:00 PM 7.15 44.87 0.515 8.19 11.64 11.28
11/2/2020 11:45:00 PM 7.07 44.726 0.516 8.19 12.25 11.29
11/3/2020 12:00:00 AM 6.99 44.582 0.516 8.19 13.14 11.28
11/3/2020 12:15:00 AM 6.93 44.474 0.517 8.18 12.08 11.33
11/3/2020 12:30:00 AM 6.86 44.348 0.517 8.18 12.15 11.36
11/3/2020 12:45:00 AM 6.79 44.222 0.518 8.18 11.68 11.38
11/3/2020 1:00:00 AM 6.74 44.132 0.518 8.18 11.45 11.4
11/3/2020 1:15:00 AM 6.68 44.024 0.519 8.18 11.65 11.46
11/3/2020 1:30:00 AM 6.63 43.934 0.519 8.18 12.08 11.46
11/3/2020 1:45:00 AM 6.58 43.844 0.52 8.18 11.37 11.46
11/3/2020 2:00:00 AM 6.54 43.772 0.52 8.18 11.63 11.49
11/3/2020 2:15:00 AM 6.49 43.682 0.52 8.18 11.32 11.51
11/3/2020 2:30:00 AM 6.45 43.61 0.521 8.18 11.16 11.52
11/3/2020 2:45:00 AM 6.41 43.538 0.521 8.18 11.57 11.55
11/3/2020 3:00:00 AM 6.37 43.466 0.521 8.18 11.29 11.57
11/3/2020 3:15:00 AM 6.32 43.376 0.522 8.18 11.28 11.57
11/3/2020 3:30:00 AM 6.29 43.322 0.522 8.18 11.21 11.59
11/3/2020 3:45:00 AM 6.25 43.25 0.522 8.18 11.47 11.6
11/3/2020 4:00:00 AM 6.22 43.196 0.522 8.18 11.84 11.62
11/3/2020 4:15:00 AM 6.18 43.124 0.523 8.18 11.58 11.65
11/3/2020 4:30:00 AM 6.14 43.052 0.523 8.18 11.68 11.65
11/3/2020 4:45:00 AM 6.1 42.98 0.523 8.18 11.57 11.65
11/3/2020 5:00:00 AM 6.06 42.908 0.523 8.18 11.53 11.68
11/3/2020 5:15:00 AM 6.04 42.872 0.524 8.18 11.37 11.71
11/3/2020 5:30:00 AM 6.03 42.854 0.524 8.18 11.15 11.73
11/3/2020 5:45:00 AM 6.01 42.818 0.524 8.18 11.35 11.73
11/3/2020 6:00:00 AM 6 42.8 0.524 8.18 11.49 11.73
11/3/2020 6:15:00 AM 5.99 42.782 0.525 8.18 11.39 11.76
11/3/2020 6:30:00 AM 6 42.8 0.525 8.18 11.25 11.73
11/3/2020 6:45:00 AM 6 42.8 0.525 8.19 11.05 11.71
11/3/2020 7:00:00 AM 6.02 42.836 0.525 8.19 10.81 11.74
11/3/2020 7:15:00 AM 6.04 42.872 0.525 8.19 10.85 11.78
11/3/2020 7:30:00 AM 6.05 42.89 0.525 8.2 10.62 11.81
11/3/2020 7:45:00 AM 6.09 42.962 0.525 8.2 10.47 11.92
11/3/2020 8:00:00 AM 6.11 42.998 0.525 8.21 10.41 11.95
11/3/2020 8:15:00 AM 6.15 43.07 0.526 8.22 10.38 11.97
11/3/2020 8:30:00 AM 6.18 43.124 0.526 8.22 10.16 12.04
11/3/2020 8:45:00 AM 6.22 43.196 0.526 8.23 10.14 12.08
11/3/2020 9:00:00 AM 6.28 43.304 0.526 8.24 10.08 12.16
11/3/2020 9:15:00 AM 6.34 43.412 0.526 8.25 9.96 12.22
11/3/2020 9:30:00 AM 6.43 43.574 0.526 8.26 10.1 12.3
11/3/2020 9:45:00 AM 6.52 43.736 0.526 8.27 10.16 12.4
11/3/2020 10:00:00 AM 6.63 43.934 0.526 8.28 9.84 12.51
11/3/2020 10:15:00 AM 6.74 44.132 0.526 8.29 10.06 12.57
11/3/2020 10:30:00 AM 6.85 44.33 0.525 8.3 9.86 12.63
11/3/2020 10:45:00 AM 6.98 44.564 0.525 8.31 9.78 12.73
11/3/2020 11:00:00 AM 7.13 44.834 0.525 8.32 9.85 12.81
11/3/2020 11:15:00 AM 7.3 45.14 0.524 8.33 9.71 12.86
11/3/2020 11:30:00 AM 7.47 45.446 0.524 8.35 9.6 12.9
11/3/2020 11:45:00 AM 7.64 45.752 0.524 8.35 9.7 12.95
11/3/2020 12:00:00 PM 7.81 46.058 0.523 8.37 9.73 12.98
11/3/2020 12:15:00 PM 8.01 46.418 0.523 8.38 9.66 13
11/3/2020 12:30:00 PM 8.18 46.724 0.523 8.38 9.63 12.98
11/3/2020 12:45:00 PM 8.38 47.084 0.523 8.39 9.8 13
11/3/2020 1:00:00 PM 8.57 47.426 0.523 8.4 10 12.99
11/3/2020 1:15:00 PM 8.75 47.75 0.523 8.4 10.03 12.96
11/3/2020 1:30:00 PM 8.91 48.038 0.522 8.41 9.79 12.93
11/3/2020 1:45:00 PM 9.05 48.29 0.522 8.42 10.01 12.87
11/3/2020 2:00:00 PM 9.17 48.506 0.522 8.42 10.05 12.81
11/3/2020 2:15:00 PM 9.32 48.776 0.521 8.43 9.83 12.74
11/3/2020 2:30:00 PM 9.44 48.992 0.521 8.43 9.89 12.64
11/3/2020 2:45:00 PM 9.53 49.154 0.521 8.44 9.79 12.59
11/3/2020 3:00:00 PM 9.6 49.28 0.521 8.44 9.88 12.51
11/3/2020 3:15:00 PM 9.68 49.424 0.521 8.44 9.79 12.42
11/3/2020 3:30:00 PM 9.73 49.514 0.521 8.43 9.8 12.3
11/3/2020 3:45:00 PM 9.77 49.586 0.521 8.43 9.77 12.16
11/3/2020 4:00:00 PM 9.8 49.64 0.521 8.42 9.89 12.02
11/3/2020 4:15:00 PM 9.83 49.694 0.521 8.41 9.72 11.9
11/3/2020 4:30:00 PM 9.85 49.73 0.521 8.4 9.67 11.76
11/3/2020 4:45:00 PM 9.86 49.748 0.521 8.39 9.89 11.61
11/3/2020 5:00:00 PM 9.86 49.748 0.522 8.38 9.76 11.48
11/3/2020 5:15:00 PM 9.86 49.748 0.522 8.36 11.01 11.34
11/3/2020 5:30:00 PM 9.85 49.73 0.523 8.35 9.94 11.2
11/3/2020 5:45:00 PM 9.84 49.712 0.524 8.34 10.24 11.09
11/3/2020 6:00:00 PM 9.84 49.712 0.524 8.32 10.38 11
11/3/2020 6:15:00 PM 9.84 49.712 0.524 8.31 10.27 10.91
11/3/2020 6:30:00 PM 9.83 49.694 0.525 8.3 10.44 10.83
11/3/2020 6:45:00 PM 9.83 49.694 0.525 8.29 10.53 10.77
11/3/2020 7:00:00 PM 9.82 49.676 0.525 8.28 10.48 10.72
11/3/2020 7:15:00 PM 9.81 49.658 0.526 8.27 10.42 10.69
11/3/2020 7:30:00 PM 9.8 49.64 0.526 8.27 10.55 10.66
11/3/2020 7:45:00 PM 9.78 49.604 0.526 8.26 10.71 10.64
11/3/2020 8:00:00 PM 9.75 49.55 0.526 8.25 10.65 10.62
11/3/2020 8:15:00 PM 9.71 49.478 0.527 8.25 10.45 10.61
11/3/2020 8:30:00 PM 9.67 49.406 0.527 8.24 10.52 10.54
11/3/2020 8:45:00 PM 9.62 49.316 0.527 8.24 10.36 10.54
11/3/2020 9:00:00 PM 9.57 49.226 0.527 8.24 10.64 10.56
11/3/2020 9:15:00 PM 9.51 49.118 0.528 8.23 10.41 10.57
11/3/2020 9:30:00 PM 9.45 49.01 0.528 8.23 10.56 10.56
11/3/2020 9:45:00 PM 9.39 48.902 0.528 8.22 10.71 10.58
11/3/2020 10:00:00 PM 9.32 48.776 0.528 8.22 10.82 10.59
11/3/2020 10:15:00 PM 9.25 48.65 0.529 8.22 10.57 10.63
11/3/2020 10:30:00 PM 9.17 48.506 0.529 8.21 10.9 10.68
11/3/2020 10:45:00 PM 9.09 48.362 0.529 8.21 11.01 10.73
11/3/2020 11:00:00 PM 9.01 48.218 0.529 8.21 10.95 10.76
11/3/2020 11:15:00 PM 8.92 48.056 0.529 8.21 10.81 10.78
11/3/2020 11:30:00 PM 8.83 47.894 0.529 8.2 11.07 10.81
11/3/2020 11:45:00 PM 8.75 47.75 0.529 8.2 10.89 10.85
11/4/2020 12:00:00 AM 8.66 47.588 0.529 8.2 10.9 10.89
11/4/2020 12:15:00 AM 8.57 47.426 0.53 8.19 10.59 10.93
11/4/2020 12:30:00 AM 8.48 47.264 0.53 8.19 10.84 10.96
11/4/2020 12:45:00 AM 8.39 47.102 0.53 8.19 10.71 10.99
11/4/2020 1:00:00 AM 8.31 46.958 0.53 8.19 10.65 11.02
11/4/2020 1:15:00 AM 8.22 46.796 0.53 8.19 10.64 11.04
11/4/2020 1:30:00 AM 8.14 46.652 0.53 8.19 10.69 11.07
11/4/2020 1:45:00 AM 8.07 46.526 0.53 8.19 10.81 11.11
11/4/2020 2:00:00 AM 7.99 46.382 0.53 8.19 10.63 11.15
11/4/2020 2:15:00 AM 7.91 46.238 0.53 8.19 10.54 11.18
11/4/2020 2:30:00 AM 7.84 46.112 0.53 8.19 10.67 11.21
11/4/2020 2:45:00 AM 7.76 45.968 0.53 8.18 10.61 11.23
11/4/2020 3:00:00 AM 7.69 45.842 0.53 8.18 10.85 11.25
11/4/2020 3:15:00 AM 7.62 45.716 0.53 8.18 10.99 11.28
11/4/2020 3:30:00 AM 7.55 45.59 0.53 8.18 11.22 11.3
11/4/2020 3:45:00 AM 7.49 45.482 0.53 8.18 10.94 11.33
11/4/2020 4:00:00 AM 7.42 45.356 0.53 8.18 10.76 11.36
11/4/2020 4:15:00 AM 7.37 45.266 0.53 8.19 10.7 11.4
11/4/2020 4:30:00 AM 7.31 45.158 0.53 8.19 10.48 11.42
11/4/2020 4:45:00 AM 7.26 45.068 0.53 8.18 10.67 11.44
11/4/2020 5:00:00 AM 7.21 44.978 0.53 8.19 10.34 11.45
11/4/2020 5:15:00 AM 7.16 44.888 0.53 8.19 10.5 11.48
11/4/2020 5:30:00 AM 7.12 44.816 0.53 8.19 10.83 11.5
11/4/2020 5:45:00 AM 7.07 44.726 0.53 8.19 10.49 11.51
11/4/2020 6:00:00 AM 7.02 44.636 0.53 8.19 10.3 11.52
11/4/2020 6:15:00 AM 6.98 44.564 0.53 8.19 10.34 11.54
11/4/2020 6:30:00 AM 6.93 44.474 0.53 8.18 10.17 11.55
11/4/2020 6:45:00 AM 6.89 44.402 0.531 8.19 10.27 11.58
11/4/2020 7:00:00 AM 6.84 44.312 0.532 8.19 10.1 11.62
11/4/2020 7:15:00 AM 6.81 44.258 0.532 8.19 10.06 11.67
11/4/2020 7:30:00 AM 6.78 44.204 0.532 8.2 9.93 11.74
11/4/2020 7:45:00 AM 6.75 44.15 0.532 8.2 10.27 11.8
11/4/2020 8:00:00 AM 6.73 44.114 0.532 8.21 9.79 11.86
11/4/2020 8:15:00 AM 6.72 44.096 0.533 8.21 9.7 11.93
11/4/2020 8:30:00 AM 6.71 44.078 0.533 8.22 9.71 12
11/4/2020 8:45:00 AM 6.72 44.096 0.533 8.22 9.72 12.07
11/4/2020 9:00:00 AM 6.75 44.15 0.533 8.23 9.74 12.13
11/4/2020 9:15:00 AM 6.8 44.24 0.533 8.24 9.64 12.19
11/4/2020 9:30:00 AM 6.89 44.402 0.532 8.25 9.54 12.28
11/4/2020 9:45:00 AM 7 44.6 0.532 8.26 9.43 12.4
11/4/2020 10:00:00 AM 7.14 44.852 0.532 8.27 9.77 12.49
11/4/2020 10:15:00 AM 7.27 45.086 0.532 8.28 9.38 12.57
11/4/2020 10:30:00 AM 7.42 45.356 0.532 8.29 9.81 12.62
11/4/2020 10:45:00 AM 7.58 45.644 0.531 8.3 9.7 12.73
11/4/2020 11:00:00 AM 7.76 45.968 0.531 8.32 9.16 12.8
11/4/2020 11:15:00 AM 7.96 46.328 0.53 8.33 9.47 12.86
11/4/2020 11:30:00 AM 8.17 46.706 0.53 8.34 9.1 12.9
11/4/2020 11:45:00 AM 8.4 47.12 0.53 8.36 9.09 12.95
11/4/2020 12:00:00 PM 8.6 47.48 0.529 8.37 9.4 12.97
11/4/2020 12:15:00 PM 8.83 47.894 0.529 8.38 9.18 12.98
11/4/2020 12:30:00 PM 9.05 48.29 0.529 8.39 9.3 13.01
11/4/2020 12:45:00 PM 9.28 48.704 0.528 8.4 9.65 13.01
11/4/2020 1:00:00 PM 9.49 49.082 0.527 8.41 9.69 13.01
11/4/2020 1:15:00 PM 9.69 49.442 0.527 8.42 10.16 13.03
11/4/2020 1:30:00 PM 9.87 49.766 0.527 8.42 10.31 13.01
11/4/2020 1:45:00 PM 10.03 50.054 0.526 8.43 10.53 12.95
11/4/2020 2:00:00 PM 10.17 50.306 0.526 8.44 10.49 12.88
11/4/2020 2:15:00 PM 10.34 50.612 0.528 8.44 9.52 12.8
11/4/2020 2:30:00 PM 10.48 50.864 0.528 8.44 9.42 12.7
11/4/2020 2:45:00 PM 10.62 51.116 0.527 8.45 9.32 12.6
11/4/2020 3:00:00 PM 10.73 51.314 0.527 8.45 9.15 12.45
11/4/2020 3:15:00 PM 10.82 51.476 0.527 8.45 8.96 12.31
11/4/2020 3:30:00 PM 10.89 51.602 0.527 8.45 9.04 12.18
11/4/2020 3:45:00 PM 10.95 51.71 0.527 8.44 9.04 12.05
11/4/2020 4:00:00 PM 10.99 51.782 0.527 8.43 8.99 11.9
11/4/2020 4:15:00 PM 11.02 51.836 0.527 8.42 8.97 11.73
11/4/2020 4:30:00 PM 11.04 51.872 0.528 8.41 9.06 11.57
11/4/2020 4:45:00 PM 11.05 51.89 0.528 8.4 9.17 11.41
11/4/2020 5:00:00 PM 11.05 51.89 0.529 8.39 9.25 11.25
11/4/2020 5:15:00 PM 11.04 51.872 0.529 8.37 91.4 11.06
11/4/2020 5:30:00 PM 11.04 51.872 0.53 8.36 9.47 10.94
11/4/2020 5:45:00 PM 11.04 51.872 0.53 8.34 9.23 10.82
11/4/2020 6:00:00 PM 11.03 51.854 0.531 8.33 9.61 10.71
11/4/2020 6:15:00 PM 11.03 51.854 0.531 8.32 9.3 10.63
11/4/2020 6:30:00 PM 11.04 51.872 0.531 8.3 9.37 10.55
11/4/2020 6:45:00 PM 11.05 51.89 0.531 8.29 9.4 10.49
11/4/2020 7:00:00 PM 11.05 51.89 0.532 8.29 9.5 10.43
11/4/2020 7:15:00 PM 11.05 51.89 0.532 8.28 9.98 10.38
11/4/2020 7:30:00 PM 11.04 51.872 0.532 8.27 9.62 10.34
11/4/2020 7:45:00 PM 11.03 51.854 0.532 8.26 9.75 10.31
11/4/2020 8:00:00 PM 11 51.8 0.533 8.26 9.68 10.3
11/4/2020 8:15:00 PM 10.97 51.746 0.533 8.25 9.89 10.29
11/4/2020 8:30:00 PM 10.93 51.674 0.533 8.25 9.98 10.28
11/4/2020 8:45:00 PM 10.88 51.584 0.533 8.24 10.17 10.27
11/4/2020 9:00:00 PM 10.83 51.494 0.534 8.24 10.24 10.28
11/4/2020 9:15:00 PM 10.77 51.386 0.534 8.24 10.36 10.29
11/4/2020 9:30:00 PM 10.7 51.26 0.534 8.23 9.88 10.3
11/4/2020 9:45:00 PM 10.64 51.152 0.534 8.23 9.72 10.32
11/4/2020 10:00:00 PM 10.57 51.026 0.535 8.23 9.86 10.35
11/4/2020 10:15:00 PM 10.5 50.9 0.535 8.23 9.79 10.38
11/4/2020 10:30:00 PM 10.42 50.756 0.535 8.22 9.76 10.4
11/4/2020 10:45:00 PM 10.33 50.594 0.536 8.22 9.79 10.41
11/4/2020 11:00:00 PM 10.24 50.432 0.536 8.22 10.08 10.43
11/4/2020 11:15:00 PM 10.15 50.27 0.536 8.21 9.92 10.44
11/4/2020 11:30:00 PM 10.06 50.108 0.537 8.21 10.15 10.48
11/4/2020 11:45:00 PM 9.96 49.928 0.537 8.21 10.3 10.51
11/5/2020 12:00:00 AM 9.86 49.748 0.537 8.2 9.99 10.54
11/5/2020 12:15:00 AM 9.77 49.586 0.537 8.2 10.19 10.58
11/5/2020 12:30:00 AM 9.67 49.406 0.537 8.2 10.14 10.61
11/5/2020 12:45:00 AM 9.58 49.244 0.538 8.2 10.02 10.63
11/5/2020 1:00:00 AM 9.49 49.082 0.538 8.19 9.93 10.65
11/5/2020 1:15:00 AM 9.41 48.938 0.538 8.19 10.18 10.69
11/5/2020 1:30:00 AM 9.32 48.776 0.538 8.19 10.2 10.73
11/5/2020 1:45:00 AM 9.23 48.614 0.538 8.19 10.12 10.77
11/5/2020 2:00:00 AM 9.15 48.47 0.538 8.19 10.21 10.8
11/5/2020 2:15:00 AM 9.07 48.326 0.538 8.19 10.2 10.83
11/5/2020 2:30:00 AM 8.99 48.182 0.538 8.19 10.06 10.84
11/5/2020 2:45:00 AM 8.92 48.056 0.538 8.19 10.15 10.87
11/5/2020 3:00:00 AM 8.85 47.93 0.538 8.19 10.68 10.89
11/5/2020 3:15:00 AM 8.78 47.804 0.538 8.18 10.46 10.92
11/5/2020 3:30:00 AM 8.71 47.678 0.538 8.18 10.18 10.94
11/5/2020 3:45:00 AM 8.65 47.57 0.538 8.18 10.11 10.98
11/5/2020 4:00:00 AM 8.59 47.462 0.538 8.18 10.28 11
11/5/2020 4:15:00 AM 8.52 47.336 0.538 8.18 10.9 11.03
11/5/2020 4:30:00 AM 8.47 47.246 0.538 8.18 10.02 11.05
11/5/2020 4:45:00 AM 8.42 47.156 0.538 8.18 10.39 11.07
11/5/2020 5:00:00 AM 8.37 47.066 0.538 8.18 10.41 11.08
11/5/2020 5:15:00 AM 8.32 46.976 0.538 8.18 10.32 11.09
11/5/2020 5:30:00 AM 8.27 46.886 0.538 8.18 10.26 11.1
11/5/2020 5:45:00 AM 8.22 46.796 0.538 8.18 10.19 11.12
11/5/2020 6:00:00 AM 8.18 46.724 0.538 8.18 10.41 11.13
11/5/2020 6:15:00 AM 8.13 46.634 0.537 8.18 9.9 11.16
11/5/2020 6:30:00 AM 8.08 46.544 0.537 8.18 9.82 11.18
11/5/2020 6:45:00 AM 8.04 46.472 0.538 8.18 10.05 11.21
11/5/2020 7:00:00 AM 8 46.4 0.538 8.19 9.89 11.24
11/5/2020 7:15:00 AM 7.97 46.346 0.538 8.19 9.71 11.3
11/5/2020 7:30:00 AM 7.94 46.292 0.538 8.19 9.88 11.36
11/5/2020 7:45:00 AM 7.94 46.292 0.538 8.2 9.49 11.45
11/5/2020 8:00:00 AM 7.94 46.292 0.538 8.21 9.23 11.55
11/5/2020 8:15:00 AM 7.96 46.328 0.537 8.22 9.42 11.65
11/5/2020 8:30:00 AM 7.97 46.346 0.537 8.23 9.36 11.76
11/5/2020 8:45:00 AM 8 46.4 0.537 8.24 9.31 11.87
11/5/2020 9:00:00 AM 8.06 46.508 0.537 8.25 9.24 12.01
11/5/2020 9:15:00 AM 8.1 46.58 0.537 8.26 9.22 12.09
11/5/2020 9:30:00 AM 8.19 46.742 0.537 8.27 9.24 12.2
11/5/2020 9:45:00 AM 8.27 46.886 0.536 8.29 9.23 12.29
11/5/2020 10:00:00 AM 8.38 47.084 0.536 8.3 9.19 12.37
11/5/2020 10:15:00 AM 8.5 47.3 0.536 8.31 9.09 12.46
11/5/2020 10:30:00 AM 8.64 47.552 0.535 8.33 9.15 12.53
11/5/2020 10:45:00 AM 8.77 47.786 0.535 8.34 9.08 12.63
11/5/2020 11:00:00 AM 8.93 48.074 0.534 8.35 8.99 12.73
11/5/2020 11:15:00 AM 9.11 48.398 0.533 8.37 9.02 12.78
11/5/2020 11:30:00 AM 9.3 48.74 0.533 8.38 9 12.84
11/5/2020 11:45:00 AM 9.5 49.1 0.532 8.4 8.97 12.92
11/5/2020 12:00:00 PM 9.7 49.46 0.532 8.41 9 12.99
11/5/2020 12:15:00 PM 9.88 49.784 0.531 8.42 9.04 13.05
11/5/2020 12:30:00 PM 10.1 50.18 0.53 8.44 9.05 13.07
11/5/2020 12:45:00 PM 10.29 50.522 0.529 8.45 9.07 13.13
11/5/2020 1:00:00 PM 10.47 50.846 0.529 8.46 8.99 13.13
11/5/2020 1:15:00 PM 10.66 51.188 0.528 8.47 9.09 13.14
11/5/2020 1:30:00 PM 10.82 51.476 0.528 8.49 9.08 13.13
11/5/2020 1:45:00 PM 10.94 51.692 0.527 8.49 9.21 13.11
11/5/2020 2:00:00 PM 11.08 51.944 0.527 8.5 9.13 13.06
11/5/2020 2:15:00 PM 11.25 52.25 0.526 8.51 9.24 13.01
11/5/2020 2:30:00 PM 11.42 52.556 0.525 8.52 9.05 12.95
11/5/2020 2:45:00 PM 11.58 52.844 0.524 8.52 9.06 12.91
11/5/2020 3:00:00 PM 11.7 53.06 0.524 8.53 9.28 12.83
11/5/2020 3:15:00 PM 11.79 53.222 0.524 8.53 9.2 12.69
11/5/2020 3:30:00 PM 11.87 53.366 0.524 8.53 9.29 12.53
11/5/2020 3:45:00 PM 11.93 53.474 0.524 8.52 9.22 12.35
11/5/2020 4:00:00 PM 11.99 53.582 0.524 8.51 9.15 12.14
11/5/2020 4:15:00 PM 12.02 53.636 0.526 8.5 9.24 11.91
11/5/2020 4:30:00 PM 12.04 53.672 0.525 8.49 9.22 11.68
11/5/2020 4:45:00 PM 12.05 53.69 0.525 8.47 9.22 11.46
11/5/2020 5:00:00 PM 12.06 53.708 0.526 8.45 9.3 11.22
11/5/2020 5:15:00 PM 12.08 53.744 0.527 8.43 9.16 11.03
11/5/2020 5:30:00 PM 12.09 53.762 0.529 8.42 9.32 10.86
11/5/2020 5:45:00 PM 12.09 53.762 0.528 8.4 9.28 10.69
11/5/2020 6:00:00 PM 12.1 53.78 0.528 8.38 9.48 10.56
11/5/2020 6:15:00 PM 12.12 53.816 0.53 8.36 9.64 10.43
11/5/2020 6:30:00 PM 12.13 53.834 0.53 8.34 9.45 10.33
11/5/2020 6:45:00 PM 12.15 53.87 0.53 8.33 9.88 10.22
11/5/2020 7:00:00 PM 12.17 53.906 0.531 8.32 9.8 10.14
11/5/2020 7:15:00 PM 12.17 53.906 0.531 8.3 10.12 10.08
11/5/2020 7:30:00 PM 12.18 53.924 0.531 8.29 9.69 10.03
11/5/2020 7:45:00 PM 12.17 53.906 0.532 8.28 9.88 9.95
11/5/2020 8:00:00 PM 12.15 53.87 0.532 8.27 10.01 9.91
11/5/2020 8:15:00 PM 12.12 53.816 0.532 8.26 10.14 9.91
11/5/2020 8:30:00 PM 12.09 53.762 0.533 8.25 10.01 9.89
11/5/2020 8:45:00 PM 12.05 53.69 0.533 8.25 9.97 9.88
11/5/2020 9:00:00 PM 12 53.6 0.533 8.24 9.87 9.87
11/5/2020 9:15:00 PM 11.95 53.51 0.534 8.23 10 9.88
11/5/2020 9:30:00 PM 11.89 53.402 0.534 8.23 10.23 9.88
11/5/2020 9:45:00 PM 11.83 53.294 0.534 8.22 10.02 9.91
11/5/2020 10:00:00 PM 11.77 53.186 0.534 8.22 10.21 9.93
11/5/2020 10:15:00 PM 11.7 53.06 0.535 8.22 10.38 9.93
11/5/2020 10:30:00 PM 11.63 52.934 0.535 8.21 10.45 9.96
11/5/2020 10:45:00 PM 11.55 52.79 0.535 8.21 10.33 9.96
11/5/2020 11:00:00 PM 11.47 52.646 0.535 8.2 10.45 9.98
11/5/2020 11:15:00 PM 11.38 52.484 0.536 8.2 10.31 10.01
11/5/2020 11:30:00 PM 11.29 52.322 0.536 8.2 10.67 10.04
11/5/2020 11:45:00 PM 11.19 52.142 0.537 8.2 10.2 10.07
11/6/2020 12:00:00 AM 11.09 51.962 0.537 8.19 10.2 10.1
11/6/2020 12:15:00 AM 11 51.8 0.537 8.19 10.26 10.13
11/6/2020 12:30:00 AM 10.91 51.638 0.537 8.19 10.32 10.15
11/6/2020 12:45:00 AM 10.81 51.458 0.537 8.19 10.23 10.16
11/6/2020 1:00:00 AM 10.72 51.296 0.537 8.19 10.33 10.2
11/6/2020 1:15:00 AM 10.64 51.152 0.537 8.18 10.21 10.24
11/6/2020 1:30:00 AM 10.57 51.026 0.538 8.18 10.43 10.26
11/6/2020 1:45:00 AM 10.5 50.9 0.538 8.18 10.35 10.3
11/6/2020 2:00:00 AM 10.43 50.774 0.538 8.18 10.37 10.31
11/6/2020 2:15:00 AM 10.36 50.648 0.538 8.18 10.31 10.34
11/6/2020 2:30:00 AM 10.3 50.54 0.538 8.18 10.36 10.36
11/6/2020 2:45:00 AM 10.24 50.432 0.538 8.18 10.27 10.38
11/6/2020 3:00:00 AM 10.2 50.36 0.538 8.17 10.47 10.4
11/6/2020 3:15:00 AM 10.15 50.27 0.538 8.17 10.36 10.42
11/6/2020 3:30:00 AM 10.1 50.18 0.537 8.17 10.34 10.43
11/6/2020 3:45:00 AM 10.06 50.108 0.538 8.17 10.12 10.45
11/6/2020 4:00:00 AM 10.01 50.018 0.538 8.17 10.29 10.46
11/6/2020 4:15:00 AM 9.96 49.928 0.538 8.17 10.38 10.47
11/6/2020 4:30:00 AM 9.92 49.856 0.538 8.17 10.38 10.5
11/6/2020 4:45:00 AM 9.87 49.766 0.538 8.17 10.21 10.52
11/6/2020 5:00:00 AM 9.83 49.694 0.538 8.17 10.2 10.52
11/6/2020 5:15:00 AM 9.79 49.622 0.538 8.17 10.41 10.55
11/6/2020 5:30:00 AM 9.75 49.55 0.538 8.17 10.27 10.56
11/6/2020 5:45:00 AM 9.7 49.46 0.538 8.17 10.42 10.56
11/6/2020 6:00:00 AM 9.66 49.388 0.538 8.17 10.24 10.6
11/6/2020 6:15:00 AM 9.63 49.334 0.538 8.17 10.21 10.6
11/6/2020 6:30:00 AM 9.59 49.262 0.538 8.17 10.33 10.61
11/6/2020 6:45:00 AM 9.55 49.19 0.538 8.17 10.07 10.64
11/6/2020 7:00:00 AM 9.51 49.118 0.538 8.17 10.23 10.65
11/6/2020 7:15:00 AM 9.48 49.064 0.538 8.18 10.02 10.72
11/6/2020 7:30:00 AM 9.45 49.01 0.538 8.18 9.98 10.78
11/6/2020 7:45:00 AM 9.42 48.956 0.538 8.18 9.85 10.86
11/6/2020 8:00:00 AM 9.39 48.902 0.538 8.19 9.93 10.93
11/6/2020 8:15:00 AM 9.36 48.848 0.538 8.19 9.77 10.99
11/6/2020 8:30:00 AM 9.34 48.812 0.538 8.2 9.75 11.06
11/6/2020 8:45:00 AM 9.33 48.794 0.538 8.21 9.99 11.18
11/6/2020 9:00:00 AM 9.35 48.83 0.538 8.22 9.71 11.3
11/6/2020 9:15:00 AM 9.37 48.866 0.538 8.24 9.65 11.42
11/6/2020 9:30:00 AM 9.44 48.992 0.537 8.25 9.65 11.57
11/6/2020 9:45:00 AM 9.53 49.154 0.537 8.26 9.62 11.72
11/6/2020 10:00:00 AM 9.63 49.334 0.537 8.28 10 11.84
11/6/2020 10:15:00 AM 9.75 49.55 0.536 8.3 10.09 11.97
11/6/2020 10:30:00 AM 9.88 49.784 0.535 8.31 10.15 12.06
11/6/2020 10:45:00 AM 10.02 50.036 0.535 8.33 9.98 12.21
11/6/2020 11:00:00 AM 10.17 50.306 0.534 8.35 9.52 12.32
11/6/2020 11:15:00 AM 10.33 50.594 0.533 8.36 9.45 12.44
11/6/2020 11:30:00 AM 10.52 50.936 0.532 8.38 9.43 12.53
11/6/2020 11:45:00 AM 10.71 51.278 0.532 8.4 9.61 12.61
11/6/2020 12:00:00 PM 10.9 51.62 0.531 8.42 9.49 12.7
11/6/2020 12:15:00 PM 11.11 51.998 0.53 8.43 9.42 12.74
11/6/2020 12:30:00 PM 11.31 52.358 0.529 8.44 9.69 12.77
11/6/2020 12:45:00 PM 11.51 52.718 0.528 8.45 9.38 12.82
11/6/2020 1:00:00 PM 11.7 53.06 0.528 8.47 9.39 12.83
11/6/2020 1:15:00 PM 11.87 53.366 0.527 8.48 9.42 12.83
11/6/2020 1:30:00 PM 12.02 53.636 0.526 8.49 9.63 12.8
11/6/2020 1:45:00 PM 12.15 53.87 0.526 8.5 9.56 12.81
11/6/2020 2:00:00 PM 12.25 54.05 0.525 8.5 9.99 12.71
11/6/2020 2:15:00 PM 12.37 54.266 0.525 8.51 9.53 12.64
11/6/2020 2:30:00 PM 12.49 54.482 0.524 8.51 9.63 12.52
11/6/2020 2:45:00 PM 12.57 54.626 0.524 8.51 9.66 12.4
11/6/2020 3:00:00 PM 12.64 54.752 0.524 8.51 9.85 12.25
11/6/2020 3:15:00 PM 12.7 54.86 0.524 8.51 9.75 12.13
11/6/2020 3:30:00 PM 12.73 54.914 0.524 8.5 9.65 11.96
11/6/2020 3:45:00 PM 12.76 54.968 0.524 8.49 9.7 11.77
11/6/2020 4:00:00 PM 12.77 54.986 0.524 8.48 9.63 11.56
11/6/2020 4:15:00 PM 12.77 54.986 0.524 8.47 9.82 11.38
11/6/2020 4:30:00 PM 12.75 54.95 0.525 8.46 9.71 11.19
11/6/2020 4:45:00 PM 12.72 54.896 0.525 8.44 9.78 10.95
11/6/2020 5:00:00 PM 12.69 54.842 0.526 8.42 9.76 10.76
11/6/2020 5:15:00 PM 12.66 54.788 0.526 8.4 9.99 10.59
11/6/2020 5:30:00 PM 12.63 54.734 0.527 8.39 9.64 10.42
11/6/2020 5:45:00 PM 12.61 54.698 0.528 8.37 9.82 10.3
11/6/2020 6:00:00 PM 12.58 54.644 0.528 8.35 10.06 10.16
11/6/2020 6:15:00 PM 12.56 54.608 0.529 8.33 9.76 10.07
11/6/2020 6:30:00 PM 12.54 54.572 0.529 8.32 9.88 10
11/6/2020 6:45:00 PM 12.53 54.554 0.529 8.31 9.88 9.95
11/6/2020 7:00:00 PM 12.51 54.518 0.53 8.3 10.01 9.89
11/6/2020 7:15:00 PM 12.5 54.5 0.53 8.29 10.47 9.82
11/6/2020 7:30:00 PM 12.48 54.464 0.53 8.28 10.22 9.8
11/6/2020 7:45:00 PM 12.45 54.41 0.531 8.27 10.5 9.75
11/6/2020 8:00:00 PM 12.42 54.356 0.531 8.26 10.51 9.74
11/6/2020 8:15:00 PM 12.38 54.284 0.531 8.25 10.19 9.72
11/6/2020 8:30:00 PM 12.34 54.212 0.532 8.25 10.67 9.72
11/6/2020 8:45:00 PM 12.28 54.104 0.532 8.24 10.56 9.7
11/6/2020 9:00:00 PM 12.23 54.014 0.532 8.24 10.42 9.7
11/6/2020 9:15:00 PM 12.17 53.906 0.533 8.23 10.71 9.71
11/6/2020 9:30:00 PM 12.1 53.78 0.533 8.23 10.74 9.72
11/6/2020 9:45:00 PM 12.03 53.654 0.533 8.22 11.03 9.74
11/6/2020 10:00:00 PM 11.96 53.528 0.534 8.22 10.94 9.77
11/6/2020 10:15:00 PM 11.88 53.384 0.534 8.21 10.8 9.77
11/6/2020 10:30:00 PM 11.8 53.24 0.534 8.21 13.09 9.81
11/6/2020 10:45:00 PM 11.71 53.078 0.534 8.21 10.64 9.82
11/6/2020 11:00:00 PM 11.62 52.916 0.535 8.21 10.84 9.83
11/6/2020 11:15:00 PM 11.53 52.754 0.535 8.2 10.81 9.87
11/6/2020 11:30:00 PM 11.42 52.556 0.536 8.2 10.88 9.9
11/6/2020 11:45:00 PM 11.31 52.358 0.536 8.19 10.61 9.96
11/7/2020 12:00:00 AM 11.2 52.16 0.537 8.19 12.49 9.96
11/7/2020 12:15:00 AM 11.09 51.962 0.537 8.19 11.06 10.03
11/7/2020 12:30:00 AM 10.98 51.764 0.538 8.19 10.95 10.05
11/7/2020 12:45:00 AM 10.88 51.584 0.538 8.18 10.98 10.08
11/7/2020 1:00:00 AM 10.77 51.386 0.538 8.18 10.88 10.1
11/7/2020 1:15:00 AM 10.67 51.206 0.538 8.18 10.79 10.15
11/7/2020 1:30:00 AM 10.56 51.008 0.538 8.18 10.71 10.19
11/7/2020 1:45:00 AM 10.47 50.846 0.538 8.17 10.94 10.23
11/7/2020 2:00:00 AM 10.37 50.666 0.539 8.17 10.61 10.27
11/7/2020 2:15:00 AM 10.26 50.468 0.539 8.17 10.73 10.29
11/7/2020 2:30:00 AM 10.17 50.306 0.539 8.17 10.77 10.33
11/7/2020 2:45:00 AM 10.07 50.126 0.539 8.17 10.92 10.37
11/7/2020 3:00:00 AM 9.98 49.964 0.539 8.17 10.75 10.39
11/7/2020 3:15:00 AM 9.89 49.802 0.539 8.17 10.72 10.42
11/7/2020 3:30:00 AM 9.8 49.64 0.539 8.17 10.55 10.47
11/7/2020 3:45:00 AM 9.72 49.496 0.539 8.17 10.67 10.49
11/7/2020 4:00:00 AM 9.63 49.334 0.539 8.17 10.63 10.53
11/7/2020 4:15:00 AM 9.55 49.19 0.539 8.17 10.46 10.54
11/7/2020 4:30:00 AM 9.47 49.046 0.539 8.17 10.64 10.57
11/7/2020 4:45:00 AM 9.4 48.92 0.539 8.17 10.56 10.62
11/7/2020 5:00:00 AM 9.32 48.776 0.539 8.17 10.76 10.62
11/7/2020 5:15:00 AM 9.24 48.632 0.539 8.18 10.72 10.65
11/7/2020 5:30:00 AM 9.18 48.524 0.539 8.18 10.51 10.7
11/7/2020 5:45:00 AM 9.1 48.38 0.539 8.18 10.49 10.73
11/7/2020 6:00:00 AM 9.04 48.272 0.539 8.18 10.34 10.73
11/7/2020 6:15:00 AM 8.97 48.146 0.539 8.18 10.34 10.76
11/7/2020 6:30:00 AM 8.91 48.038 0.539 8.17 11.03 10.74
11/7/2020 6:45:00 AM 8.85 47.93 0.539 8.18 11.24 10.78
11/7/2020 7:00:00 AM 8.8 47.84 0.539 8.18 10.82 10.85
11/7/2020 7:15:00 AM 8.74 47.732 0.539 8.18 10.98 10.92
11/7/2020 7:30:00 AM 8.71 47.678 0.539 8.18 10.96 11
11/7/2020 7:45:00 AM 8.67 47.606 0.539 8.19 10.89 11.07
11/7/2020 8:00:00 AM 8.64 47.552 0.539 8.2 10.91 11.17
11/7/2020 8:15:00 AM 8.61 47.498 0.539 8.21 10.71 11.25
11/7/2020 8:30:00 AM 8.6 47.48 0.539 8.21 10.65 11.37
11/7/2020 8:45:00 AM 8.59 47.462 0.539 8.22 10.72 11.46
11/7/2020 9:00:00 AM 8.62 47.516 0.538 8.23 15.93 11.58
11/7/2020 9:15:00 AM 8.64 47.552 0.538 8.25 10.76 11.71
11/7/2020 9:30:00 AM 8.7 47.66 0.538 8.26 29.07 11.81
11/7/2020 9:45:00 AM 8.8 47.84 0.538 8.27 10.29 12.01
11/7/2020 10:00:00 AM 8.9 48.02 0.537 8.29 10.36 12.17
11/7/2020 10:15:00 AM 9.04 48.272 0.537 8.31 10.24 12.3
11/7/2020 10:30:00 AM 9.18 48.524 0.536 8.33 10.29 12.42
11/7/2020 10:45:00 AM 9.33 48.794 0.535 8.34 10.01 12.54
11/7/2020 11:00:00 AM 9.49 49.082 0.535 8.36 10.05 12.69
11/7/2020 11:15:00 AM 9.68 49.424 0.534 8.38 9.97 12.81
11/7/2020 11:30:00 AM 9.88 49.784 0.533 8.4 10.04 12.85
11/7/2020 11:45:00 AM 10.09 50.162 0.532 8.41 10.05 12.97
11/7/2020 12:00:00 PM 10.31 50.558 0.531 8.43 9.99 13.05
11/7/2020 12:15:00 PM 10.52 50.936 0.531 8.45 9.97 13.1
11/7/2020 12:30:00 PM 10.73 51.314 0.53 8.46 9.93 13.14
11/7/2020 12:45:00 PM 10.92 51.656 0.529 8.47 9.97 13.18
11/7/2020 1:00:00 PM 11.11 51.998 0.528 8.49 9.99 13.2
11/7/2020 1:15:00 PM 11.29 52.322 0.528 8.5 10.04 13.19
11/7/2020 1:30:00 PM 11.46 52.628 0.527 8.51 10.2 13.19
11/7/2020 1:45:00 PM 11.61 52.898 0.526 8.52 10.25 13.16
11/7/2020 2:00:00 PM 11.73 53.114 0.526 8.52 10.27 13.06
11/7/2020 2:15:00 PM 11.87 53.366 0.525 8.53 10.04 12.97
11/7/2020 2:30:00 PM 12.01 53.618 0.524 8.53 10.03 12.86
11/7/2020 2:45:00 PM 12.12 53.816 0.524 8.54 10.12 12.74
11/7/2020 3:00:00 PM 12.22 53.996 0.524 8.54 10.06 12.62
11/7/2020 3:15:00 PM 12.3 54.14 0.524 8.53 10.43 12.43
11/7/2020 3:30:00 PM 12.36 54.248 0.524 8.53 10.04 12.26
11/7/2020 3:45:00 PM 12.4 54.32 0.524 8.52 10.13 12.05
11/7/2020 4:00:00 PM 12.44 54.392 0.523 8.51 9.98 11.88
11/7/2020 4:15:00 PM 12.45 54.41 0.523 8.5 11.96 11.69
11/7/2020 4:30:00 PM 12.46 54.428 0.524 8.49 10.07 11.46
11/7/2020 4:45:00 PM 12.45 54.41 0.524 8.47 10.1 11.28
11/7/2020 5:00:00 PM 12.43 54.374 0.525 8.45 10.1 11.04
11/7/2020 5:15:00 PM 12.42 54.356 0.526 8.43 9.71 10.83
11/7/2020 5:30:00 PM 12.4 54.32 0.526 8.41 9.69 10.68
11/7/2020 5:45:00 PM 12.38 54.284 0.527 8.39 9.95 10.51
11/7/2020 6:00:00 PM 12.37 54.266 0.528 8.37 9.68 10.38
11/7/2020 6:15:00 PM 12.36 54.248 0.528 8.36 9.86 10.24
11/7/2020 6:30:00 PM 12.36 54.248 0.529 8.34 9.78 10.16
11/7/2020 6:45:00 PM 12.36 54.248 0.529 8.33 10.32 10.08
11/7/2020 7:00:00 PM 12.36 54.248 0.53 8.31 9.89 10
11/7/2020 7:15:00 PM 12.36 54.248 0.53 8.3 9.7 9.94
11/7/2020 7:30:00 PM 12.35 54.23 0.53 8.29 9.77 9.89
11/7/2020 7:45:00 PM 12.33 54.194 0.531 8.28 9.95 9.86
11/7/2020 8:00:00 PM 12.32 54.176 0.531 8.27 10.11 9.82
11/7/2020 8:15:00 PM 12.29 54.122 0.531 8.27 10.48 9.79
11/7/2020 8:30:00 PM 12.25 54.05 0.531 8.26 10.29 9.78
11/7/2020 8:45:00 PM 12.2 53.96 0.531 8.25 10.17 9.75
11/7/2020 9:00:00 PM 12.15 53.87 0.531 8.24 10.15 9.77
11/7/2020 9:15:00 PM 12.1 53.78 0.531 8.24 10.17 9.75
11/7/2020 9:30:00 PM 12.03 53.654 0.531 8.23 10.31 9.76
11/7/2020 9:45:00 PM 11.96 53.528 0.531 8.23 10.4 9.77
11/7/2020 10:00:00 PM 11.89 53.402 0.532 8.22 10.44 9.81
11/7/2020 10:15:00 PM 11.82 53.276 0.532 8.22 10.42 9.84
11/7/2020 10:30:00 PM 11.73 53.114 0.533 8.21 10.5 9.87
11/7/2020 10:45:00 PM 11.65 52.97 0.533 8.21 11.81 9.86
11/7/2020 11:00:00 PM 11.56 52.808 0.534 8.21 11.61 9.89
11/7/2020 11:15:00 PM 11.46 52.628 0.535 8.2 11.61 9.92
11/7/2020 11:30:00 PM 11.35 52.43 0.535 8.2 10.35 9.96
11/7/2020 11:45:00 PM 11.25 52.25 0.536 8.2 10.3 10.01
11/8/2020 12:00:00 AM 11.13 52.034 0.536 8.19 10.36 10.03
11/8/2020 12:15:00 AM 11.03 51.854 0.536 8.19 10.17 10.05
11/8/2020 12:30:00 AM 10.91 51.638 0.537 8.19 10.28 10.08
11/8/2020 12:45:00 AM 10.8 51.44 0.537 8.19 10.37 10.11
11/8/2020 1:00:00 AM 10.69 51.242 0.537 8.18 10.4 10.16
11/8/2020 1:15:00 AM 10.59 51.062 0.537 8.18 10.19 10.2
11/8/2020 1:30:00 AM 10.48 50.864 0.538 8.18 10.21 10.25
11/8/2020 1:45:00 AM 10.38 50.684 0.538 8.18 10.15 10.26
11/8/2020 2:00:00 AM 10.28 50.504 0.538 8.18 10.2 10.31
11/8/2020 2:15:00 AM 10.19 50.342 0.538 8.18 10.25 10.34
11/8/2020 2:30:00 AM 10.09 50.162 0.538 8.18 10.35 10.37
11/8/2020 2:45:00 AM 10 50 0.538 8.18 10.49 10.41
11/8/2020 3:00:00 AM 9.91 49.838 0.538 8.17 11.05 10.45
11/8/2020 3:15:00 AM 9.81 49.658 0.539 8.17 10.19 10.49
11/8/2020 3:30:00 AM 9.72 49.496 0.539 8.17 10.31 10.51
11/8/2020 3:45:00 AM 9.64 49.352 0.539 8.17 10.45 10.54
11/8/2020 4:00:00 AM 9.56 49.208 0.539 8.17 10.48 10.54
11/8/2020 4:15:00 AM 9.48 49.064 0.539 8.17 18.44 10.59
11/8/2020 4:30:00 AM 9.4 48.92 0.539 8.17 18.53 10.62
11/8/2020 4:45:00 AM 9.33 48.794 0.539 8.17 10.42 10.65
11/8/2020 5:00:00 AM 9.25 48.65 0.539 8.17 10.34 10.68
11/8/2020 5:15:00 AM 9.17 48.506 0.539 8.17 10.43 10.7
11/8/2020 5:30:00 AM 9.11 48.398 0.539 8.17 10.46 10.76
11/8/2020 5:45:00 AM 9.04 48.272 0.539 8.17 10.21 10.76
11/8/2020 6:00:00 AM 8.97 48.146 0.539 8.17 10.26 10.78
11/8/2020 6:15:00 AM 8.91 48.038 0.539 8.17 10.2 10.8
11/8/2020 6:30:00 AM 8.84 47.912 0.539 8.17 14.16 10.82
11/8/2020 6:45:00 AM 8.78 47.804 0.539 8.17 9.99 10.85
11/8/2020 7:00:00 AM 8.71 47.678 0.539 8.18 9.93 10.88
11/8/2020 7:15:00 AM 8.65 47.57 0.539 8.18 10.08 10.95
11/8/2020 7:30:00 AM 8.6 47.48 0.539 8.18 10.02 11.03
11/8/2020 7:45:00 AM 8.55 47.39 0.539 8.19 9.88 11.12
11/8/2020 8:00:00 AM 8.51 47.318 0.539 8.2 10.68 11.19
11/8/2020 8:15:00 AM 8.48 47.264 0.539 8.2 9.66 11.28
11/8/2020 8:30:00 AM 8.46 47.228 0.539 8.22 14.46 11.39
11/8/2020 8:45:00 AM 8.45 47.21 0.539 8.23 9.31 11.5
11/8/2020 9:00:00 AM 8.47 47.246 0.539 8.24 9.15 11.61
11/8/2020 9:15:00 AM 8.5 47.3 0.539 8.25 9.11 11.73
11/8/2020 9:30:00 AM 8.57 47.426 0.539 8.26 9.1 11.88
11/8/2020 9:45:00 AM 8.66 47.588 0.538 8.28 9.05 12.02
11/8/2020 10:00:00 AM 8.77 47.786 0.538 8.3 9.07 12.18
11/8/2020 10:15:00 AM 8.91 48.038 0.537 8.31 9.48 12.3
11/8/2020 10:30:00 AM 9.05 48.29 0.537 8.33 9.4 12.5
11/8/2020 10:45:00 AM 9.18 48.524 0.536 8.34 9.19 12.6
11/8/2020 11:00:00 AM 9.35 48.83 0.535 8.36 9.08 12.71
11/8/2020 11:15:00 AM 9.53 49.154 0.535 8.38 9.08 12.86
11/8/2020 11:30:00 AM 9.73 49.514 0.534 8.4 9 12.96
11/8/2020 11:45:00 AM 9.96 49.928 0.533 8.42 9.03 13.02
11/8/2020 12:00:00 PM 10.18 50.324 0.532 8.43 9.39 13.12
11/8/2020 12:15:00 PM 10.41 50.738 0.531 8.45 8.98 13.17
11/8/2020 12:30:00 PM 10.63 51.134 0.53 8.46 9.24 13.2
11/8/2020 12:45:00 PM 10.85 51.53 0.529 8.48 9.53 13.26
11/8/2020 1:00:00 PM 11.05 51.89 0.529 8.49 9.44 13.31
11/8/2020 1:15:00 PM 11.24 52.232 0.528 8.5 9.26 13.28
11/8/2020 1:30:00 PM 11.42 52.556 0.527 8.51 9.7 13.28
11/8/2020 1:45:00 PM 11.58 52.844 0.526 8.52 9.54 13.28
11/8/2020 2:00:00 PM 11.7 53.06 0.526 8.53 9.64 13.18
11/8/2020 2:15:00 PM 11.84 53.312 0.525 8.54 9.33 13.07
11/8/2020 2:30:00 PM 11.99 53.582 0.524 8.54 9.35 12.95
11/8/2020 2:45:00 PM 12.1 53.78 0.524 8.54 9.55 12.87
11/8/2020 3:00:00 PM 12.2 53.96 0.523 8.55 9.31 12.72
11/8/2020 3:15:00 PM 12.28 54.104 0.523 8.54 9.57 12.56
11/8/2020 3:30:00 PM 12.34 54.212 0.523 8.54 9.54 12.38
11/8/2020 3:45:00 PM 12.38 54.284 0.523 8.53 9.49 12.19
11/8/2020 4:00:00 PM 12.41 54.338 0.523 8.52 9.45 11.98
11/8/2020 4:15:00 PM 12.43 54.374 0.523 8.51 9.92 11.8
11/8/2020 4:30:00 PM 12.43 54.374 0.524 8.5 9.48 11.58
11/8/2020 4:45:00 PM 12.43 54.374 0.524 8.48 9.51 11.37
11/8/2020 5:00:00 PM 12.41 54.338 0.525 8.47 9.54 11.16
11/8/2020 5:15:00 PM 12.39 54.302 0.525 8.45 9.91 10.96
11/8/2020 5:30:00 PM 12.37 54.266 0.526 8.43 9.67 10.78
11/8/2020 5:45:00 PM 12.36 54.248 0.527 8.41 9.68 10.63
11/8/2020 6:00:00 PM 12.35 54.23 0.527 8.39 9.58 10.48
11/8/2020 6:15:00 PM 12.34 54.212 0.528 8.37 10.13 10.34
11/8/2020 6:30:00 PM 12.33 54.194 0.528 8.35 9.97 10.24
11/8/2020 6:45:00 PM 12.33 54.194 0.529 8.34 9.79 10.14
11/8/2020 7:00:00 PM 12.33 54.194 0.529 8.33 9.82 10.07
11/8/2020 7:15:00 PM 12.33 54.194 0.529 8.31 9.76 10
11/8/2020 7:30:00 PM 12.32 54.176 0.53 8.3 10.64 9.97
11/8/2020 7:45:00 PM 12.32 54.176 0.53 8.29 10.28 9.91
11/8/2020 8:00:00 PM 12.3 54.14 0.53 8.28 9.87 9.88
11/8/2020 8:15:00 PM 12.28 54.104 0.531 8.27 10.05 9.84
11/8/2020 8:30:00 PM 12.25 54.05 0.531 8.27 10.02 9.82
11/8/2020 8:45:00 PM 12.22 53.996 0.531 8.26 9.85 9.83
11/8/2020 9:00:00 PM 12.18 53.924 0.532 8.25 10.01 9.8
11/8/2020 9:15:00 PM 12.13 53.834 0.532 8.25 9.92 9.81
11/8/2020 9:30:00 PM 12.08 53.744 0.532 8.24 9.99 9.8
11/8/2020 9:45:00 PM 12.02 53.636 0.533 8.24 9.73 9.82
11/8/2020 10:00:00 PM 11.96 53.528 0.533 8.23 9.92 9.84
11/8/2020 10:15:00 PM 11.9 53.42 0.534 8.23 10.02 9.87
11/8/2020 10:30:00 PM 11.83 53.294 0.534 8.22 9.91 9.88
11/8/2020 10:45:00 PM 11.75 53.15 0.535 8.22 10 9.89
11/8/2020 11:00:00 PM 11.68 53.024 0.535 8.21 10.51 9.91
11/8/2020 11:15:00 PM 11.59 52.862 0.536 8.21 9.77 9.93
11/8/2020 11:30:00 PM 11.5 52.7 0.536 8.21 9.87 9.94
11/8/2020 11:45:00 PM 11.41 52.538 0.537 8.2 9.99 9.99
11/9/2020 12:00:00 AM 11.31 52.358 0.537 8.2 9.98 10.02
11/9/2020 12:15:00 AM 11.2 52.16 0.538 8.19 9.98 10.05
11/9/2020 12:30:00 AM 11.1 51.98 0.538 8.19 9.95 10.08
11/9/2020 12:45:00 AM 10.99 51.782 0.538 8.19 9.99 10.12
11/9/2020 1:00:00 AM 10.89 51.602 0.538 8.18 9.86 10.14
11/9/2020 1:15:00 AM 10.78 51.404 0.539 8.18 10.19 10.2
11/9/2020 1:30:00 AM 10.68 51.224 0.539 8.18 10.05 10.22
11/9/2020 1:45:00 AM 10.58 51.044 0.539 8.18 10.23 10.26
11/9/2020 2:00:00 AM 10.48 50.864 0.539 8.18 9.93 10.29
11/9/2020 2:15:00 AM 10.39 50.702 0.539 8.18 10.59 10.31
11/9/2020 2:30:00 AM 10.3 50.54 0.539 8.17 10.21 10.33
11/9/2020 2:45:00 AM 10.21 50.378 0.539 8.17 10.06 10.34
11/9/2020 3:00:00 AM 10.13 50.234 0.539 8.17 10.18 10.27
11/9/2020 3:15:00 AM 10.05 50.09 0.539 8.17 10.08 10.35
11/9/2020 3:30:00 AM 9.98 49.964 0.539 8.17 10 10.37
11/9/2020 3:45:00 AM 9.91 49.838 0.539 8.17 10.05 10.42
11/9/2020 4:00:00 AM 9.83 49.694 0.539 8.17 10.04 10.42
11/9/2020 4:15:00 AM 9.77 49.586 0.539 8.17 10.15 10.5
11/9/2020 4:30:00 AM 9.7 49.46 0.54 8.17 10.41 10.43
11/9/2020 4:45:00 AM 9.63 49.334 0.54 8.17 10.85 10.55
11/9/2020 5:00:00 AM 9.57 49.226 0.539 8.17 10.28 10.58
11/9/2020 5:15:00 AM 9.51 49.118 0.54 8.17 10.53 10.6
11/9/2020 5:30:00 AM 9.45 49.01 0.54 8.17 10.37 10.59
11/9/2020 5:45:00 AM 9.39 48.902 0.54 8.17 10.39 10.63
11/9/2020 6:00:00 AM 9.33 48.794 0.54 8.17 10.19 10.71
11/9/2020 6:15:00 AM 9.27 48.686 0.54 8.17 10.05 10.74
11/9/2020 6:30:00 AM 9.22 48.596 0.54 8.17 10 10.75
11/9/2020 6:45:00 AM 9.17 48.506 0.54 8.17 9.92 10.78
11/9/2020 7:00:00 AM 9.12 48.416 0.54 8.17 10.13 10.81
11/9/2020 7:15:00 AM 9.08 48.344 0.54 8.17 9.84 10.85
11/9/2020 7:30:00 AM 9.05 48.29 0.54 8.18 9.78 10.84
11/9/2020 7:45:00 AM 9.02 48.236 0.54 8.18 10.1 10.99
11/9/2020 8:00:00 AM 9 48.2 0.54 8.19 9.59 11.09
11/9/2020 8:15:00 AM 8.99 48.182 0.54 8.2 9.52 11.19
11/9/2020 8:30:00 AM 8.98 48.164 0.54 8.21 9.67 11.31
11/9/2020 8:45:00 AM 8.98 48.164 0.54 8.22 9.65 11.44
11/9/2020 9:00:00 AM 9.01 48.218 0.539 8.23 10.24 11.56
11/9/2020 9:15:00 AM 9.04 48.272 0.539 8.24 9.56 11.67
11/9/2020 9:30:00 AM 9.1 48.38 0.538 8.26 9.65 11.77
11/9/2020 9:45:00 AM 9.2 48.56 0.538 8.27 9.68 11.98
11/9/2020 10:00:00 AM 9.31 48.758 0.537 8.29 9.64 12.09
11/9/2020 10:15:00 AM 9.44 48.992 0.537 8.31 9.63 12.28
11/9/2020 10:30:00 AM 9.59 49.262 0.536 8.33 9.59 12.48
11/9/2020 10:45:00 AM 9.75 49.55 0.536 8.35 9.55 12.57
11/9/2020 11:00:00 AM 9.93 49.874 0.535 8.37 9.48 12.72
11/9/2020 11:15:00 AM 10.11 50.198 0.534 8.39 9.53 12.87
11/9/2020 11:30:00 AM 10.3 50.54 0.533 8.41 9.68 12.85
11/9/2020 11:45:00 AM 10.51 50.918 0.533 8.43 9.28 12.9
11/9/2020 12:00:00 PM 10.74 51.332 0.532 8.45 9.24 13.04
11/9/2020 12:15:00 PM 10.96 51.728 0.531 8.47 9.66 13.19
11/9/2020 12:30:00 PM 11.18 52.124 0.53 8.48 9.31 13.23
11/9/2020 12:45:00 PM 11.39 52.502 0.529 8.5 9.32 13.3
11/9/2020 1:00:00 PM 11.61 52.898 0.528 8.51 9.69 13.34
11/9/2020 1:15:00 PM 11.79 53.222 0.527 8.53 9.65 13.34
11/9/2020 1:30:00 PM 11.97 53.546 0.526 8.54 9.27 13.28
11/9/2020 1:45:00 PM 12.13 53.834 0.525 8.55 9.29 13.24
11/9/2020 2:00:00 PM 12.25 54.05 0.524 8.56 9.3 13.23
11/9/2020 2:15:00 PM 12.4 54.32 0.523 8.56 9.5 13.12
11/9/2020 2:30:00 PM 12.55 54.59 0.523 8.57 9.52 13
11/9/2020 2:45:00 PM 12.67 54.806 0.522 8.57 9.52 12.88
11/9/2020 3:00:00 PM 12.78 55.004 0.522 8.57 9.43 12.77
11/9/2020 3:15:00 PM 12.87 55.166 0.521 8.57 10.04 12.6
11/9/2020 3:30:00 PM 12.94 55.292 0.521 8.57 9.73 12.41
11/9/2020 3:45:00 PM 12.98 55.364 0.521 8.56 9.58 12.2
11/9/2020 4:00:00 PM 13.03 55.454 0.521 8.55 9.61 12.01
11/9/2020 4:15:00 PM 13.05 55.49 0.521 8.54 9.67 11.81
11/9/2020 4:30:00 PM 13.06 55.508 0.521 8.53 10.29 11.59
11/9/2020 4:45:00 PM 13.07 55.526 0.522 8.51 9.93 11.35
11/9/2020 5:00:00 PM 13.07 55.526 0.523 8.49 9.44 11.14
11/9/2020 5:15:00 PM 13.06 55.508 0.523 8.47 9.59 10.89
11/9/2020 5:30:00 PM 13.05 55.49 0.524 8.44 9.42 10.69
11/9/2020 5:45:00 PM 13.05 55.49 0.525 8.42 9.65 10.53
11/9/2020 6:00:00 PM 13.05 55.49 0.525 8.4 9.73 10.37
11/9/2020 6:15:00 PM 13.05 55.49 0.526 8.38 11.62 10.24
11/9/2020 6:30:00 PM 13.07 55.526 0.527 8.36 11.79 10.12
11/9/2020 6:45:00 PM 13.08 55.544 0.527 8.35 9.67 10.01
11/9/2020 7:00:00 PM 13.1 55.58 0.527 8.33 9.57 9.93
11/9/2020 7:15:00 PM 13.12 55.616 0.528 8.32 10.29 9.85
11/9/2020 7:30:00 PM 13.14 55.652 0.528 8.3 10 9.77
11/9/2020 7:45:00 PM 13.16 55.688 0.528 8.29 9.87 9.71
11/9/2020 8:00:00 PM 13.17 55.706 0.529 8.28 9.98 9.66
11/9/2020 8:15:00 PM 13.17 55.706 0.529 8.27 9.98 9.6
11/9/2020 8:30:00 PM 13.16 55.688 0.529 8.26 10 9.59
11/9/2020 8:45:00 PM 13.14 55.652 0.53 8.25 10.26 9.57
11/9/2020 9:00:00 PM 13.12 55.616 0.53 8.24 10.06 9.54
11/9/2020 9:15:00 PM 13.08 55.544 0.53 8.24 10.03 9.54
11/9/2020 9:30:00 PM 13.04 55.472 0.531 8.23 10.26 9.55
11/9/2020 9:45:00 PM 13 55.4 0.531 8.22 10.22 9.57
11/9/2020 10:00:00 PM 12.94 55.292 0.532 8.22 10.06 9.57
11/9/2020 10:15:00 PM 12.89 55.202 0.532 8.21 10.34 9.58
11/9/2020 10:30:00 PM 12.82 55.076 0.533 8.21 10.11 9.57
11/9/2020 10:45:00 PM 12.75 54.95 0.533 8.2 10.18 9.59
11/9/2020 11:00:00 PM 12.67 54.806 0.534 8.2 10.17 9.6
11/9/2020 11:15:00 PM 12.59 54.662 0.534 8.2 10.25 9.63
11/9/2020 11:30:00 PM 12.51 54.518 0.535 8.19 10.49 9.66
11/9/2020 11:45:00 PM 12.42 54.356 0.536 8.19 10.35 9.7
11/10/2020 12:00:00 AM 12.32 54.176 0.536 8.19 10.39 9.72
11/10/2020 12:15:00 AM 12.23 54.014 0.537 8.18 10.64 9.73
11/10/2020 12:30:00 AM 12.13 53.834 0.537 8.18 10.5 9.77
11/10/2020 12:45:00 AM 12.03 53.654 0.538 8.17 10.46 9.78
11/10/2020 1:00:00 AM 11.93 53.474 0.538 8.17 10.67 9.81
11/10/2020 1:15:00 AM 11.83 53.294 0.539 8.17 10.47 9.84
11/10/2020 1:30:00 AM 11.73 53.114 0.539 8.17 10.55 9.89
11/10/2020 1:45:00 AM 11.64 52.952 0.539 8.17 10.51 9.93
11/10/2020 2:00:00 AM 11.54 52.772 0.539 8.17 10.3 9.95
11/10/2020 2:15:00 AM 11.45 52.61 0.539 8.16 10.39 9.97
11/10/2020 2:30:00 AM 11.36 52.448 0.539 8.16 10.72 10
11/10/2020 2:45:00 AM 11.28 52.304 0.54 8.16 10.67 10.05
11/10/2020 3:00:00 AM 11.19 52.142 0.54 8.16 10.7 10.07
11/10/2020 3:15:00 AM 11.11 51.998 0.54 8.16 10.68 10.1
11/10/2020 3:30:00 AM 11.04 51.872 0.54 8.16 10.72 10.12
11/10/2020 3:45:00 AM 10.96 51.728 0.54 8.16 10.72 10.15
11/10/2020 4:00:00 AM 10.89 51.602 0.54 8.16 10.51 10.16
11/10/2020 4:15:00 AM 10.83 51.494 0.54 8.16 10.96 10.18
11/10/2020 4:30:00 AM 10.77 51.386 0.54 8.16 11.11 10.2
11/10/2020 4:45:00 AM 10.7 51.26 0.54 8.16 11.06 10.24
11/10/2020 5:00:00 AM 10.65 51.17 0.54 8.16 10.62 10.25
11/10/2020 5:15:00 AM 10.59 51.062 0.54 8.16 10.52 10.28
11/10/2020 5:30:00 AM 10.53 50.954 0.54 8.16 10.49 10.3
11/10/2020 5:45:00 AM 10.48 50.864 0.54 8.16 10.6 10.33
11/10/2020 6:00:00 AM 10.43 50.774 0.54 8.16 10.36 10.32
11/10/2020 6:15:00 AM 10.38 50.684 0.54 8.16 10.8 10.34
11/10/2020 6:30:00 AM 10.33 50.594 0.54 8.16 9.9 10.36
11/10/2020 6:45:00 AM 10.28 50.504 0.54 8.16 11.09 10.39
11/10/2020 7:00:00 AM 10.24 50.432 0.54 8.16 9.95 10.39
11/10/2020 7:15:00 AM 10.2 50.36 0.54 8.17 10.1 10.47
11/10/2020 7:30:00 AM 10.16 50.288 0.54 8.17 9.72 10.53
11/10/2020 7:45:00 AM 10.13 50.234 0.54 8.18 9.63 10.61
11/10/2020 8:00:00 AM 10.11 50.198 0.54 8.18 9.44 10.72
11/10/2020 8:15:00 AM 10.1 50.18 0.539 8.19 9.53 10.82
11/10/2020 8:30:00 AM 10.09 50.162 0.539 8.2 9.55 10.95
11/10/2020 8:45:00 AM 10.08 50.144 0.539 8.21 9.38 11.04
11/10/2020 9:00:00 AM 10.09 50.162 0.539 8.22 9.38 11.14
11/10/2020 9:15:00 AM 10.1 50.18 0.538 8.24 9.41 11.27
11/10/2020 9:30:00 AM 10.16 50.288 0.538 8.25 9.48 11.39
11/10/2020 9:45:00 AM 10.23 50.414 0.537 8.27 9.4 11.59
11/10/2020 10:00:00 AM 10.34 50.612 0.537 8.29 9.37 11.79
11/10/2020 10:15:00 AM 10.46 50.828 0.536 8.31 9.33 11.96
11/10/2020 10:30:00 AM 10.61 51.098 0.535 8.33 9.22 12.1
11/10/2020 10:45:00 AM 10.74 51.332 0.535 8.35 9.13 12.26
11/10/2020 11:00:00 AM 10.91 51.638 0.534 8.37 9.14 12.41
11/10/2020 11:15:00 AM 11.1 51.98 0.533 8.39 9.16 12.53
11/10/2020 11:30:00 AM 11.27 52.286 0.532 8.42 9.11 12.66
11/10/2020 11:45:00 AM 11.47 52.646 0.531 8.44 9.06 12.8
11/10/2020 12:00:00 PM 11.7 53.06 0.53 8.46 9.06 12.9
11/10/2020 12:15:00 PM 11.91 53.438 0.529 8.48 9.1 12.99
11/10/2020 12:30:00 PM 12.13 53.834 0.528 8.5 9.23 13.06
11/10/2020 12:45:00 PM 12.33 54.194 0.527 8.51 9.08 13.16
11/10/2020 1:00:00 PM 12.45 54.41 0.526 8.52 9.23 13.14
11/10/2020 1:15:00 PM 12.58 54.644 0.525 8.54 9.16 13.11
11/10/2020 1:30:00 PM 12.72 54.896 0.524 8.55 9.21 13.08
11/10/2020 1:45:00 PM 12.86 55.148 0.523 8.56 9.23 13.06
11/10/2020 2:00:00 PM 13.04 55.472 0.522 8.58 9.47 13.06
11/10/2020 2:15:00 PM 13.13 55.634 0.521 8.58 9.64 12.91
11/10/2020 2:30:00 PM 13.25 55.85 0.521 8.59 9.4 12.79
11/10/2020 2:45:00 PM 13.39 56.102 0.52 8.59 9.17 12.74
11/10/2020 3:00:00 PM 13.48 56.264 0.519 8.6 9.14 12.65
11/10/2020 3:15:00 PM 13.55 56.39 0.519 8.59 9.41 12.44
11/10/2020 3:30:00 PM 13.61 56.498 0.519 8.59 9.54 12.22
11/10/2020 3:45:00 PM 13.67 56.606 0.519 8.58 9.32 12.02
11/10/2020 4:00:00 PM 13.69 56.642 0.519 8.57 9.32 11.79
11/10/2020 4:15:00 PM 13.71 56.678 0.519 8.55 9.38 11.53
11/10/2020 4:30:00 PM 13.73 56.714 0.519 8.54 9.27 11.32
11/10/2020 4:45:00 PM 13.74 56.732 0.52 8.52 9.44 11.09
11/10/2020 5:00:00 PM 13.76 56.768 0.52 8.51 9.45 10.86
11/10/2020 5:15:00 PM 13.79 56.822 0.521 8.49 9.51 10.63
11/10/2020 5:30:00 PM 13.84 56.912 0.521 8.46 9.51 10.41
11/10/2020 5:45:00 PM 13.89 57.002 0.522 8.44 9.69 10.23
11/10/2020 6:00:00 PM 13.94 57.092 0.522 8.42 9.63 10.08
11/10/2020 6:15:00 PM 13.98 57.164 0.523 8.4 9.59 9.91
11/10/2020 6:30:00 PM 14.02 57.236 0.524 8.38 9.89 9.8
11/10/2020 6:45:00 PM 14.06 57.308 0.524 8.36 9.71 9.67
11/10/2020 7:00:00 PM 14.08 57.344 0.525 8.35 9.9 9.58
11/10/2020 7:15:00 PM 14.1 57.38 0.525 8.33 9.76 9.51
11/10/2020 7:30:00 PM 14.12 57.416 0.526 8.31 9.99 9.41
11/10/2020 7:45:00 PM 14.13 57.434 0.526 8.3 9.97 9.37
11/10/2020 8:00:00 PM 14.12 57.416 0.526 8.29 10.04 9.32
11/10/2020 8:15:00 PM 14.12 57.416 0.527 8.28 10 9.3
11/10/2020 8:30:00 PM 14.1 57.38 0.527 8.27 10.1 9.27
11/10/2020 8:45:00 PM 14.07 57.326 0.528 8.26 10.18 9.24
11/10/2020 9:00:00 PM 14.04 57.272 0.528 8.25 10.31 9.24
11/10/2020 9:15:00 PM 14 57.2 0.529 8.24 10.43 9.21
11/10/2020 9:30:00 PM 13.96 57.128 0.53 8.23 10.26 9.21
11/10/2020 9:45:00 PM 13.92 57.056 0.53 8.23 10.42 9.23
11/10/2020 10:00:00 PM 13.9 57.02 0.531 8.22 10.27 9.22
11/10/2020 10:15:00 PM 13.87 56.966 0.531 8.21 10.11 9.23
11/10/2020 10:30:00 PM 13.83 56.894 0.532 8.21 10.38 9.22
11/10/2020 10:45:00 PM 13.78 56.804 0.533 8.2 10.49 9.24
11/10/2020 11:00:00 PM 13.71 56.678 0.533 8.2 10.7 9.27
11/10/2020 11:15:00 PM 13.63 56.534 0.533 8.19 10.65 9.28
11/10/2020 11:30:00 PM 13.55 56.39 0.534 8.19 10.57 9.29
11/10/2020 11:45:00 PM 13.47 56.246 0.535 8.18 10.57 9.31
11/11/2020 12:00:00 AM 13.38 56.084 0.535 8.18 10.74 9.32
11/11/2020 12:15:00 AM 13.3 55.94 0.535 8.18 11.49 9.33
11/11/2020 12:30:00 AM 13.22 55.796 0.536 8.17 11.09 9.37
11/11/2020 12:45:00 AM 13.14 55.652 0.536 8.17 10.66 9.4
11/11/2020 1:00:00 AM 13.06 55.508 0.537 8.17 11.08 9.44
11/11/2020 1:15:00 AM 12.98 55.364 0.537 8.16 10.9 9.45
11/11/2020 1:30:00 AM 12.89 55.202 0.537 8.16 10.86 9.49
11/11/2020 1:45:00 AM 12.82 55.076 0.538 8.16 10.93 9.51
11/11/2020 2:00:00 AM 12.74 54.932 0.538 8.16 11.86 9.51
11/11/2020 2:15:00 AM 12.67 54.806 0.538 8.16 11.45 9.53
11/11/2020 2:30:00 AM 12.61 54.698 0.538 8.15 10.84 9.55
11/11/2020 2:45:00 AM 12.55 54.59 0.539 8.15 11.14 9.58
11/11/2020 3:00:00 AM 12.48 54.464 0.539 8.15 11.26 9.61
11/11/2020 3:15:00 AM 12.42 54.356 0.539 8.15 11.01 9.63
11/11/2020 3:30:00 AM 12.35 54.23 0.539 8.15 11.03 9.65
11/11/2020 3:45:00 AM 12.28 54.104 0.539 8.15 12.66 9.67
11/11/2020 4:00:00 AM 12.23 54.014 0.539 8.15 11.01 9.7
11/11/2020 4:15:00 AM 12.2 53.96 0.539 8.15 10.89 9.71
11/11/2020 4:30:00 AM 12.18 53.924 0.539 8.15 11.06 9.72
11/11/2020 4:45:00 AM 12.17 53.906 0.539 8.15 10.97 9.73
11/11/2020 5:00:00 AM 12.15 53.87 0.539 8.15 10.93 9.74
11/11/2020 5:15:00 AM 12.14 53.852 0.539 8.15 11.11 9.76
11/11/2020 5:30:00 AM 12.13 53.834 0.539 8.15 10.88 9.76
11/11/2020 5:45:00 AM 12.13 53.834 0.539 8.15 10.82 9.76
11/11/2020 6:00:00 AM 12.13 53.834 0.539 8.15 11 9.77
11/11/2020 6:15:00 AM 12.13 53.834 0.539 8.15 10.86 9.78
11/11/2020 6:30:00 AM 12.14 53.852 0.539 8.15 11.05 9.78
11/11/2020 6:45:00 AM 12.15 53.87 0.539 8.15 10.83 9.79
11/11/2020 7:00:00 AM 12.16 53.888 0.539 8.15 10.82 9.78
11/11/2020 7:15:00 AM 12.19 53.942 0.538 8.15 10.59 9.82
11/11/2020 7:30:00 AM 12.22 53.996 0.538 8.16 10.63 9.85
11/11/2020 7:45:00 AM 12.29 54.122 0.538 8.17 10.8 9.98
11/11/2020 8:00:00 AM 12.37 54.266 0.537 8.18 10.52 10.15
11/11/2020 8:15:00 AM 12.49 54.482 0.537 8.2 10.27 10.31
11/11/2020 8:30:00 AM 12.57 54.626 0.537 8.22 10.27 10.4
11/11/2020 8:45:00 AM 12.62 54.716 0.536 8.22 10.23 10.39
11/11/2020 9:00:00 AM 12.68 54.824 0.536 8.23 10.33 10.39
11/11/2020 9:15:00 AM 12.73 54.914 0.536 8.23 10.2 10.37
11/11/2020 9:30:00 AM 12.77 54.986 0.536 8.24 10.2 10.39
11/11/2020 9:45:00 AM 12.84 55.112 0.535 8.24 10.11 10.44
11/11/2020 10:00:00 AM 12.9 55.22 0.535 8.25 10.3 10.47
11/11/2020 10:15:00 AM 12.97 55.346 0.535 8.26 10.02 10.49
11/11/2020 10:30:00 AM 13.03 55.454 0.534 8.27 10.02 10.48
11/11/2020 10:45:00 AM 13.11 55.598 0.534 8.27 9.91 10.47
11/11/2020 11:00:00 AM 13.17 55.706 0.533 8.28 9.95 10.48
11/11/2020 11:15:00 AM 13.22 55.796 0.532 8.28 10.39 10.53
11/11/2020 11:30:00 AM 13.29 55.922 0.531 8.3 9.93 10.62
11/11/2020 11:45:00 AM 13.36 56.048 0.531 8.31 9.87 10.77
11/11/2020 12:00:00 PM 13.44 56.192 0.529 8.32 9.95 10.81
11/11/2020 12:15:00 PM 13.52 56.336 0.525 8.33 10.36 10.75
11/11/2020 12:30:00 PM 13.62 56.516 0.522 8.32 10.22 10.71
11/11/2020 12:45:00 PM 13.69 56.642 0.521 8.33 10.25 10.67
11/11/2020 1:00:00 PM 13.74 56.732 0.52 8.33 10.15 10.61
11/11/2020 1:15:00 PM 13.8 56.84 0.52 8.33 10.16 10.57
11/11/2020 1:30:00 PM 13.85 56.93 0.52 8.33 10.01 10.56
11/11/2020 1:45:00 PM 13.92 57.056 0.519 8.33 10.16 10.55
11/11/2020 2:00:00 PM 13.98 57.164 0.518 8.33 10.06 10.48
11/11/2020 2:15:00 PM 14.03 57.254 0.516 8.32 10.15 10.41
11/11/2020 2:30:00 PM 14.09 57.362 0.516 8.32 10.22 10.33
11/11/2020 2:45:00 PM 14.14 57.452 0.515 8.31 10.4 10.26
11/11/2020 3:00:00 PM 14.22 57.596 0.512 8.31 10.37 10.17
11/11/2020 3:15:00 PM 14.3 57.74 0.508 8.31 10.52 10.08
11/11/2020 3:30:00 PM 14.38 57.884 0.505 8.3 11 9.97
11/11/2020 3:45:00 PM 14.48 58.064 0.499 8.29 11.18 9.85
11/11/2020 4:00:00 PM 14.57 58.226 0.492 8.28 11.85 9.73
11/11/2020 4:15:00 PM 14.62 58.316 0.488 8.26 12.55 9.64
11/11/2020 4:30:00 PM 14.67 58.406 0.481 8.24 13.26 9.55
11/11/2020 4:45:00 PM 14.71 58.478 0.477 8.23 14.38 9.47
11/11/2020 5:00:00 PM 14.74 58.532 0.474 8.2 15.13 9.41
11/11/2020 5:15:00 PM 14.77 58.586 0.47 8.18 15.82 9.33
11/11/2020 5:30:00 PM 14.79 58.622 0.464 8.16 19.52 9.26
11/11/2020 5:45:00 PM 14.83 58.694 0.456 8.14 21.66 9.22
11/11/2020 6:00:00 PM 14.85 58.73 0.449 8.12 26.23 9.19
11/11/2020 6:15:00 PM 14.87 58.766 0.443 8.09 32.19 9.12
11/11/2020 6:30:00 PM 14.88 58.784 0.438 8.07 31.19 9.08
11/11/2020 6:45:00 PM 14.88 58.784 0.433 8.04 27.91 9.03
11/11/2020 7:00:00 PM 14.87 58.766 0.43 8.02 31.43 9.01
11/11/2020 7:15:00 PM 14.86 58.748 0.428 8.01 35.84 8.99
11/11/2020 7:30:00 PM 14.85 58.73 0.424 7.99 33.23 8.92
11/11/2020 7:45:00 PM 14.85 58.73 0.415 7.96 36.04 8.82
11/11/2020 8:00:00 PM 14.87 58.766 0.401 7.93 49.88 8.74
11/11/2020 8:15:00 PM 14.88 58.784 0.388 7.91 77.06 8.68
11/11/2020 8:30:00 PM 14.9 58.82 0.379 7.88 62.65 8.58
11/11/2020 8:45:00 PM 14.9 58.82 0.377 7.86 57.74 8.52
11/11/2020 9:00:00 PM 14.9 58.82 0.38 7.85 51.12 8.47
11/11/2020 9:15:00 PM 14.88 58.784 0.385 7.84 52.57 8.44
11/11/2020 9:30:00 PM 14.85 58.73 0.392 7.83 45.8 8.41
11/11/2020 9:45:00 PM 14.81 58.658 0.399 7.84 55.42 8.45
11/11/2020 10:00:00 PM 14.76 58.568 0.405 7.85 47.28 8.51
11/11/2020 10:15:00 PM 14.71 58.478 0.408 7.86 39.47 8.55
11/11/2020 10:30:00 PM 14.67 58.406 0.407 7.86 38.87 8.56
11/11/2020 10:45:00 PM 14.64 58.352 0.404 7.85 34.97 8.59
11/11/2020 11:00:00 PM 14.62 58.316 0.399 7.85 36.43 8.62
11/11/2020 11:15:00 PM 14.61 58.298 0.393 7.85 33.08 8.62
11/11/2020 11:30:00 PM 14.61 58.298 0.386 7.84 37.29 8.59
11/11/2020 11:45:00 PM 14.61 58.298 0.381 7.84 34.73 8.57
11/12/2020 12:00:00 AM 14.61 58.298 0.377 7.83 36.17 8.53
11/12/2020 12:15:00 AM 14.61 58.298 0.375 7.82 32.18 8.51
11/12/2020 12:30:00 AM 14.61 58.298 0.372 7.82 32.42 8.55
11/12/2020 12:45:00 AM 14.61 58.298 0.371 7.82 34.99 8.49
11/12/2020 1:00:00 AM 14.61 58.298 0.37 7.81 28.3 8.48
11/12/2020 1:15:00 AM 14.62 58.316 0.368 7.81 26.58 8.48
11/12/2020 1:30:00 AM 14.62 58.316 0.367 7.81 26.97 8.53
11/12/2020 1:45:00 AM 14.62 58.316 0.365 7.81 29.15 8.61
11/12/2020 2:00:00 AM 14.62 58.316 0.363 7.81 28.28 8.67
11/12/2020 2:15:00 AM 14.62 58.316 0.362 7.81 28.34 8.61
11/12/2020 2:30:00 AM 14.62 58.316 0.361 7.81 26.23 8.58
11/12/2020 2:45:00 AM 14.6 58.28 0.36 7.81 26.54 8.7
11/12/2020 3:00:00 AM 14.59 58.262 0.36 7.81 26.99 8.68
11/12/2020 3:15:00 AM 14.57 58.226 0.36 7.81 25.81 8.6
11/12/2020 3:30:00 AM 14.56 58.208 0.36 7.81 25.46 8.51
11/12/2020 3:45:00 AM 14.54 58.172 0.361 7.81 25.72 8.5
11/12/2020 4:00:00 AM 14.52 58.136 0.362 7.81 25.27 8.56
11/12/2020 4:15:00 AM 14.5 58.1 0.363 7.81 25.66 8.68
11/12/2020 4:30:00 AM 14.48 58.064 0.364 7.81 23.93 8.6
11/12/2020 4:45:00 AM 14.47 58.046 0.365 7.81 26.56 8.6
11/12/2020 5:00:00 AM 14.46 58.028 0.367 7.81 23.69 8.54
11/12/2020 5:15:00 AM 14.45 58.01 0.369 7.82 24.96 8.66
11/12/2020 5:30:00 AM 14.44 57.992 0.371 7.82 24.09 8.71
11/12/2020 5:45:00 AM 14.42 57.956 0.373 7.83 23.54 8.7
11/12/2020 6:00:00 AM 14.39 57.902 0.376 7.84 24.61 8.76
11/12/2020 6:15:00 AM 14.36 57.848 0.378 7.84 23.56 8.74
11/12/2020 6:30:00 AM 14.32 57.776 0.381 7.85 24.32 8.81
11/12/2020 6:45:00 AM 14.27 57.686 0.383 7.86 24.66 8.75
11/12/2020 7:00:00 AM 14.22 57.596 0.386 7.87 24.33 8.78
11/12/2020 7:15:00 AM 14.18 57.524 0.389 7.87 23.06 8.86
11/12/2020 7:30:00 AM 14.14 57.452 0.391 7.88 22.77 8.91
11/12/2020 7:45:00 AM 14.1 57.38 0.393 7.89 22.43 8.91
11/12/2020 8:00:00 AM 14.06 57.308 0.395 7.89 21.84 8.94
11/12/2020 8:15:00 AM 14.02 57.236 0.397 7.9 21.64 8.98
11/12/2020 8:30:00 AM 13.98 57.164 0.399 7.9 20.88 9.05
11/12/2020 8:45:00 AM 13.94 57.092 0.401 7.91 20.98 9.06
11/12/2020 9:00:00 AM 13.91 57.038 0.403 7.92 20.06 9.13
11/12/2020 9:15:00 AM 13.87 56.966 0.404 7.93 20.46 9.19
11/12/2020 9:30:00 AM 13.82 56.876 0.406 7.93 19.65 9.23
11/12/2020 9:45:00 AM 13.78 56.804 0.408 7.94 20.15 9.31
11/12/2020 10:00:00 AM 13.74 56.732 0.411 7.95 19.61 9.35
11/12/2020 10:15:00 AM 13.7 56.66 0.413 7.95 19.6 9.36
11/12/2020 10:30:00 AM 13.64 56.552 0.417 7.95 19.87 9.34
11/12/2020 10:45:00 AM 13.58 56.444 0.419 7.96 19.21 9.41
11/12/2020 11:00:00 AM 13.52 56.336 0.421 7.97 18.97 9.4
11/12/2020 11:15:00 AM 13.47 56.246 0.423 7.98 18.86 9.44
11/12/2020 11:30:00 AM 13.44 56.192 0.425 7.99 18.77 9.49
11/12/2020 11:45:00 AM 13.4 56.12 0.429 7.99 19.12 9.67
11/12/2020 12:00:00 PM 13.37 56.066 0.431 8.01 18.96 9.49
11/12/2020 12:15:00 PM 13.33 55.994 0.433 8.03 18.87 9.91
11/12/2020 12:30:00 PM 13.28 55.904 0.434 8.04 18.61 9.96
11/12/2020 12:45:00 PM 13.25 55.85 0.436 8.05 18.14 10.07
11/12/2020 1:00:00 PM 13.2 55.76 0.438 8.06 18.53 10.05
11/12/2020 1:15:00 PM 13.15 55.67 0.44 8.07 18.41 10.15
11/12/2020 1:30:00 PM 13.1 55.58 0.441 8.08 18.3 10.22
11/12/2020 1:45:00 PM 13.06 55.508 0.443 8.09 18.32 10.3
11/12/2020 2:00:00 PM 13.01 55.418 0.444 8.1 18.21 10.3
11/12/2020 2:15:00 PM 12.98 55.364 0.445 8.11 17.75 10.39
11/12/2020 2:30:00 PM 12.94 55.292 0.446 8.11 17.14 10.36
11/12/2020 2:45:00 PM 12.89 55.202 0.447 8.12 17.09 10.33
11/12/2020 3:00:00 PM 12.84 55.112 0.449 8.12 17.95 10.25
11/12/2020 3:15:00 PM 12.78 55.004 0.45 8.12 18.41 10.26
11/12/2020 3:30:00 PM 12.72 54.896 0.451 8.11 18.33 10.22
11/12/2020 3:45:00 PM 12.66 54.788 0.452 8.11 18.83 10.19
11/12/2020 4:00:00 PM 12.59 54.662 0.452 8.12 18.45 10.17
11/12/2020 4:15:00 PM 12.52 54.536 0.453 8.11 18.03 10.15
11/12/2020 4:30:00 PM 12.46 54.428 0.453 8.11 18.28 10.11
11/12/2020 4:45:00 PM 12.38 54.284 0.454 8.11 18.72 10.04
11/12/2020 5:00:00 PM 12.32 54.176 0.455 8.1 18.73 10.02
11/12/2020 5:15:00 PM 12.26 54.068 0.456 8.1 20.3 10
11/12/2020 5:30:00 PM 12.2 53.96 0.457 8.1 20.46 9.95
11/12/2020 5:45:00 PM 12.14 53.852 0.458 8.09 20.42 9.9
11/12/2020 6:00:00 PM 12.1 53.78 0.459 8.09 20.23 9.86
11/12/2020 6:15:00 PM 12.05 53.69 0.46 8.09 20.52 9.86
11/12/2020 6:30:00 PM 12 53.6 0.46 8.09 20.88 9.93
11/12/2020 6:45:00 PM 11.94 53.492 0.462 8.09 21.27 9.92
11/12/2020 7:00:00 PM 11.88 53.384 0.462 8.09 21.35 9.94
11/12/2020 7:15:00 PM 11.83 53.294 0.464 8.09 21.78 9.94
11/12/2020 7:30:00 PM 11.79 53.222 0.465 8.09 21.61 9.95
11/12/2020 7:45:00 PM 11.73 53.114 0.466 8.09 21.7 9.94
11/12/2020 8:00:00 PM 11.67 53.006 0.467 8.09 21.57 9.96
11/12/2020 8:15:00 PM 11.61 52.898 0.468 8.09 22.03 9.9
11/12/2020 8:30:00 PM 11.56 52.808 0.469 8.09 22.22 9.95
11/12/2020 8:45:00 PM 11.51 52.718 0.47 8.09 21.01 9.99
11/12/2020 9:00:00 PM 11.46 52.628 0.471 8.09 21.15 9.99
11/12/2020 9:15:00 PM 11.39 52.502 0.473 8.09 20.71 10
11/12/2020 9:30:00 PM 11.3 52.34 0.474 8.09 21.26 9.99
11/12/2020 9:45:00 PM 11.21 52.178 0.475 8.09 21.21 10.03
11/12/2020 10:00:00 PM 11.12 52.016 0.476 8.09 18.58 10.04
11/12/2020 10:15:00 PM 11.03 51.854 0.477 8.09 28.8 10.06
11/12/2020 10:30:00 PM 10.96 51.728 0.479 8.1 17.19 10.09
11/12/2020 10:45:00 PM 10.9 51.62 0.48 8.1 17.1 10.1
11/12/2020 11:00:00 PM 10.86 51.548 0.481 8.1 16.8 10.12
11/12/2020 11:15:00 PM 10.81 51.458 0.482 8.1 16.67 10.12
11/12/2020 11:30:00 PM 10.77 51.386 0.483 8.1 16.56 10.13
11/12/2020 11:45:00 PM 10.72 51.296 0.484 8.1 16.77 10.12
11/13/2020 12:00:00 AM 10.69 51.242 0.484 8.1 16.39 10.17
11/13/2020 12:15:00 AM 10.66 51.188 0.485 8.1 16.9 10.19
11/13/2020 12:30:00 AM 10.63 51.134 0.486 8.1 16.85 10.2
11/13/2020 12:45:00 AM 10.61 51.098 0.486 8.1 17.38 10.17
11/13/2020 1:00:00 AM 10.59 51.062 0.486 8.1 16.26 10.18
11/13/2020 1:15:00 AM 10.58 51.044 0.487 8.1 16.96 10.19
11/13/2020 1:30:00 AM 10.56 51.008 0.487 8.1 16.51 10.18
11/13/2020 1:45:00 AM 10.54 50.972 0.488 8.11 16.9 10.24
11/13/2020 2:00:00 AM 10.53 50.954 0.489 8.11 16.02 10.21
11/13/2020 2:15:00 AM 10.51 50.918 0.489 8.11 16.71 10.23
11/13/2020 2:30:00 AM 10.49 50.882 0.489 8.11 16.92 10.25
11/13/2020 2:45:00 AM 10.47 50.846 0.49 8.11 16.77 10.26
11/13/2020 3:00:00 AM 10.45 50.81 0.49 8.11 17.22 10.23
11/13/2020 3:15:00 AM 10.43 50.774 0.49 8.11 16.72 10.21
11/13/2020 3:30:00 AM 10.41 50.738 0.491 8.11 17.46 10.3
11/13/2020 3:45:00 AM 10.39 50.702 0.491 8.11 16.66 10.26
11/13/2020 4:00:00 AM 10.37 50.666 0.491 8.11 17.7 10.21
11/13/2020 4:15:00 AM 10.34 50.612 0.492 8.11 17.03 10.23
11/13/2020 4:30:00 AM 10.32 50.576 0.492 8.11 17 10.33
11/13/2020 4:45:00 AM 10.3 50.54 0.493 8.11 16.82 10.29
11/13/2020 5:00:00 AM 10.28 50.504 0.493 8.11 15.87 10.29
11/13/2020 5:15:00 AM 10.26 50.468 0.494 8.11 16.57 10.31
11/13/2020 5:30:00 AM 10.25 50.45 0.494 8.12 17.18 10.35
11/13/2020 5:45:00 AM 10.24 50.432 0.494 8.12 16.96 10.39
11/13/2020 6:00:00 AM 10.23 50.414 0.495 8.12 17.22 10.39
11/13/2020 6:15:00 AM 10.22 50.396 0.495 8.12 16.95 10.39
11/13/2020 6:30:00 AM 10.22 50.396 0.496 8.12 16.65 10.36
11/13/2020 6:45:00 AM 10.21 50.378 0.497 8.12 16.9 10.39
11/13/2020 7:00:00 AM 10.21 50.378 0.497 8.12 16.99 10.41
11/13/2020 7:15:00 AM 10.21 50.378 0.497 8.12 16.67 10.41
11/13/2020 7:30:00 AM 10.21 50.378 0.498 8.13 16.33 10.42
11/13/2020 7:45:00 AM 10.21 50.378 0.498 8.13 16.11 10.44
11/13/2020 8:00:00 AM 10.21 50.378 0.499 8.13 16 10.47
11/13/2020 8:15:00 AM 10.22 50.396 0.499 8.14 16 10.51
11/13/2020 8:30:00 AM 10.24 50.432 0.499 8.14 16.49 10.58
11/13/2020 8:45:00 AM 10.25 50.45 0.5 8.15 15.83